﻿<?xml version="1.0" encoding="utf-8"?><gpx creator="Garmin Desktop App" version="1.1" xsi:schemaLocation="http://www.topografix.com/GPX/1/1 http://www.topografix.com/GPX/1/1/gpx.xsd http://www.garmin.com/xmlschemas/WaypointExtension/v1 http://www8.garmin.com/xmlschemas/WaypointExtensionv1.xsd http://www.garmin.com/xmlschemas/TrackPointExtension/v1 http://www.garmin.com/xmlschemas/TrackPointExtensionv1.xsd http://www.garmin.com/xmlschemas/GpxExtensions/v3 http://www8.garmin.com/xmlschemas/GpxExtensionsv3.xsd http://www.garmin.com/xmlschemas/ActivityExtension/v1 http://www8.garmin.com/xmlschemas/ActivityExtensionv1.xsd http://www.garmin.com/xmlschemas/AdventuresExtensions/v1 http://www8.garmin.com/xmlschemas/AdventuresExtensionv1.xsd http://www.garmin.com/xmlschemas/PressureExtension/v1 http://www.garmin.com/xmlschemas/PressureExtensionv1.xsd http://www.garmin.com/xmlschemas/TripExtensions/v1 http://www.garmin.com/xmlschemas/TripExtensionsv1.xsd http://www.garmin.com/xmlschemas/TripMetaDataExtensions/v1 http://www.garmin.com/xmlschemas/TripMetaDataExtensionsv1.xsd http://www.garmin.com/xmlschemas/ViaPointTransportationModeExtensions/v1 http://www.garmin.com/xmlschemas/ViaPointTransportationModeExtensionsv1.xsd http://www.garmin.com/xmlschemas/CreationTimeExtension/v1 http://www.garmin.com/xmlschemas/CreationTimeExtensionsv1.xsd http://www.garmin.com/xmlschemas/AccelerationExtension/v1 http://www.garmin.com/xmlschemas/AccelerationExtensionv1.xsd http://www.garmin.com/xmlschemas/PowerExtension/v1 http://www.garmin.com/xmlschemas/PowerExtensionv1.xsd http://www.garmin.com/xmlschemas/VideoExtension/v1 http://www.garmin.com/xmlschemas/VideoExtensionv1.xsd" xmlns="http://www.topografix.com/GPX/1/1" xmlns:xsi="http://www.w3.org/2001/XMLSchema-instance" xmlns:wptx1="http://www.garmin.com/xmlschemas/WaypointExtension/v1" xmlns:gpxtrx="http://www.garmin.com/xmlschemas/GpxExtensions/v3" xmlns:gpxtpx="http://www.garmin.com/xmlschemas/TrackPointExtension/v1" xmlns:gpxx="http://www.garmin.com/xmlschemas/GpxExtensions/v3" xmlns:trp="http://www.garmin.com/xmlschemas/TripExtensions/v1" xmlns:adv="http://www.garmin.com/xmlschemas/AdventuresExtensions/v1" xmlns:prs="http://www.garmin.com/xmlschemas/PressureExtension/v1" xmlns:tmd="http://www.garmin.com/xmlschemas/TripMetaDataExtensions/v1" xmlns:vptm="http://www.garmin.com/xmlschemas/ViaPointTransportationModeExtensions/v1" xmlns:ctx="http://www.garmin.com/xmlschemas/CreationTimeExtension/v1" xmlns:gpxacc="http://www.garmin.com/xmlschemas/AccelerationExtension/v1" xmlns:gpxpx="http://www.garmin.com/xmlschemas/PowerExtension/v1" xmlns:vidx1="http://www.garmin.com/xmlschemas/VideoExtension/v1">

  <metadata>
    <link href="http://www.garmin.com">
      <text>Garmin International</text>
    </link>
    <time>2022-05-26T16:32:06Z</time>
    <bounds maxlat="50.958705190569162" maxlon="4.804755756631494" minlat="50.923871761187911" minlon="4.755191802978516" />
  </metadata>

  <trk>
    <name>holsbeek 22 km ok</name>
    <extensions>
      <gpxx:TrackExtension>
        <gpxx:DisplayColor>Magenta</gpxx:DisplayColor>
      </gpxx:TrackExtension>
    </extensions>
    <trkseg>
      <trkpt lat="50.925307245925069" lon="4.757012855261564">
        <ele>75.290000000000006</ele>
        <time>2022-05-26T08:07:30Z</time>
      </trkpt>
      <trkpt lat="50.92514606192708" lon="4.757140092551708">
        <ele>75.060000000000002</ele>
        <time>2022-05-26T08:07:37Z</time>
      </trkpt>
      <trkpt lat="50.924914134666324" lon="4.75740454159677">
        <ele>74.540000000000006</ele>
        <time>2022-05-26T08:07:55Z</time>
      </trkpt>
      <trkpt lat="50.924700060859323" lon="4.757600175216794">
        <ele>74.099999999999994</ele>
        <time>2022-05-26T08:08:11Z</time>
      </trkpt>
      <trkpt lat="50.924457823857665" lon="4.757745014503598">
        <ele>73.569999999999993</ele>
        <time>2022-05-26T08:08:30Z</time>
      </trkpt>
      <trkpt lat="50.924318013712764" lon="4.757870994508266">
        <ele>73.129999999999995</ele>
        <time>2022-05-26T08:08:45Z</time>
      </trkpt>
      <trkpt lat="50.924308961257339" lon="4.757861774414778">
        <ele>73.060000000000002</ele>
        <time>2022-05-26T08:08:48Z</time>
      </trkpt>
      <trkpt lat="50.924148028716445" lon="4.758001333102584">
        <ele>73.359999999999999</ele>
        <time>2022-05-26T08:09:05Z</time>
      </trkpt>
      <trkpt lat="50.923937810584903" lon="4.758136281743646">
        <ele>72.890000000000001</ele>
        <time>2022-05-26T08:09:22Z</time>
      </trkpt>
      <trkpt lat="50.923871761187911" lon="4.758209120482206">
        <ele>73.489999999999995</ele>
        <time>2022-05-26T08:09:28Z</time>
      </trkpt>
      <trkpt lat="50.923952227458358" lon="4.758577086031437">
        <ele>73.890000000000001</ele>
        <time>2022-05-26T08:09:48Z</time>
      </trkpt>
      <trkpt lat="50.924051804468036" lon="4.758958462625742">
        <ele>73.280000000000001</ele>
        <time>2022-05-26T08:10:07Z</time>
      </trkpt>
      <trkpt lat="50.924132606014609" lon="4.759264905005693">
        <ele>72.799999999999997</ele>
        <time>2022-05-26T08:10:22Z</time>
      </trkpt>
      <trkpt lat="50.924233691766858" lon="4.759662877768278">
        <ele>72.260000000000005</ele>
        <time>2022-05-26T08:10:39Z</time>
      </trkpt>
      <trkpt lat="50.924428319558501" lon="4.75960923358798">
        <ele>71.790000000000006</ele>
        <time>2022-05-26T08:10:54Z</time>
      </trkpt>
      <trkpt lat="50.924730487167835" lon="4.759531784802675">
        <ele>71.170000000000002</ele>
        <time>2022-05-26T08:11:14Z</time>
      </trkpt>
      <trkpt lat="50.924873230978847" lon="4.759531198069453">
        <ele>70.739999999999995</ele>
        <time>2022-05-26T08:11:28Z</time>
      </trkpt>
      <trkpt lat="50.925050508230925" lon="4.759478308260441">
        <ele>70.340000000000003</ele>
        <time>2022-05-26T08:11:42Z</time>
      </trkpt>
      <trkpt lat="50.925325015559793" lon="4.759392477571964">
        <ele>69.870000000000005</ele>
        <time>2022-05-26T08:12:00Z</time>
      </trkpt>
      <trkpt lat="50.925545543432236" lon="4.759315950796008">
        <ele>69.489999999999995</ele>
        <time>2022-05-26T08:12:15Z</time>
      </trkpt>
      <trkpt lat="50.925672696903348" lon="4.759272113442421">
        <ele>66.989999999999995</ele>
        <time>2022-05-26T08:12:24Z</time>
      </trkpt>
      <trkpt lat="50.925922561436892" lon="4.759181588888168">
        <ele>66.519999999999996</ele>
        <time>2022-05-26T08:12:43Z</time>
      </trkpt>
      <trkpt lat="50.926178796216846" lon="4.759110677987337">
        <ele>66.090000000000003</ele>
        <time>2022-05-26T08:13:01Z</time>
      </trkpt>
      <trkpt lat="50.926407789811492" lon="4.759025098755956">
        <ele>65.700000000000003</ele>
        <time>2022-05-26T08:13:17Z</time>
      </trkpt>
      <trkpt lat="50.926653798669577" lon="4.758950164541602">
        <ele>65.310000000000002</ele>
        <time>2022-05-26T08:13:33Z</time>
      </trkpt>
      <trkpt lat="50.926888072863221" lon="4.758878918364644">
        <ele>64.109999999999999</ele>
        <time>2022-05-26T08:13:49Z</time>
      </trkpt>
      <trkpt lat="50.92713332735002" lon="4.758810941129923">
        <ele>63.700000000000003</ele>
        <time>2022-05-26T08:14:06Z</time>
      </trkpt>
      <trkpt lat="50.927400710061193" lon="4.758733073249459">
        <ele>62.520000000000003</ele>
        <time>2022-05-26T08:14:24Z</time>
      </trkpt>
      <trkpt lat="50.927606988698244" lon="4.758648667484522">
        <ele>62.159999999999997</ele>
        <time>2022-05-26T08:14:39Z</time>
      </trkpt>
      <trkpt lat="50.927777644246817" lon="4.758490417152643">
        <ele>61.829999999999998</ele>
        <time>2022-05-26T08:14:53Z</time>
      </trkpt>
      <trkpt lat="50.927819721400738" lon="4.758492428809404">
        <ele>61.729999999999997</ele>
        <time>2022-05-26T08:14:57Z</time>
      </trkpt>
      <trkpt lat="50.927990879863501" lon="4.758588317781687">
        <ele>60.530000000000001</ele>
        <time>2022-05-26T08:15:13Z</time>
      </trkpt>
      <trkpt lat="50.928097078576684" lon="4.758854694664478">
        <ele>60.149999999999999</ele>
        <time>2022-05-26T08:15:27Z</time>
      </trkpt>
      <trkpt lat="50.928152399137616" lon="4.75903264246881">
        <ele>59.770000000000003</ele>
        <time>2022-05-26T08:15:39Z</time>
      </trkpt>
      <trkpt lat="50.928259519860148" lon="4.759291475638747">
        <ele>59.399999999999999</ele>
        <time>2022-05-26T08:15:50Z</time>
      </trkpt>
      <trkpt lat="50.928354654461145" lon="4.759519211947918">
        <ele>58.909999999999997</ele>
        <time>2022-05-26T08:16:04Z</time>
      </trkpt>
      <trkpt lat="50.928429085761309" lon="4.759727921336889">
        <ele>58.479999999999997</ele>
        <time>2022-05-26T08:16:16Z</time>
      </trkpt>
      <trkpt lat="50.928539223968983" lon="4.759938223287463">
        <ele>57.950000000000003</ele>
        <time>2022-05-26T08:16:30Z</time>
      </trkpt>
      <trkpt lat="50.928645757958293" lon="4.760263608768582">
        <ele>57.170000000000002</ele>
        <time>2022-05-26T08:16:49Z</time>
      </trkpt>
      <trkpt lat="50.928653385490179" lon="4.760282384231687">
        <ele>57.130000000000003</ele>
        <time>2022-05-26T08:16:50Z</time>
      </trkpt>
      <trkpt lat="50.92869495972991" lon="4.760429905727506">
        <ele>56.869999999999997</ele>
        <time>2022-05-26T08:16:55Z</time>
      </trkpt>
      <trkpt lat="50.928728906437755" lon="4.760515652596951">
        <ele>56.780000000000001</ele>
        <time>2022-05-26T08:16:58Z</time>
      </trkpt>
      <trkpt lat="50.928873158991337" lon="4.760924689471722">
        <ele>56.060000000000002</ele>
        <time>2022-05-26T08:17:14Z</time>
      </trkpt>
      <trkpt lat="50.929011544212699" lon="4.761166926473379">
        <ele>55.479999999999997</ele>
        <time>2022-05-26T08:17:28Z</time>
      </trkpt>
      <trkpt lat="50.929026380181313" lon="4.76119483821094">
        <ele>55.399999999999999</ele>
        <time>2022-05-26T08:17:30Z</time>
      </trkpt>
      <trkpt lat="50.929202903062105" lon="4.761500023305416">
        <ele>54.829999999999998</ele>
        <time>2022-05-26T08:17:46Z</time>
      </trkpt>
      <trkpt lat="50.929319662973285" lon="4.761716611683369">
        <ele>54.390000000000001</ele>
        <time>2022-05-26T08:18:01Z</time>
      </trkpt>
      <trkpt lat="50.92944991774857" lon="4.761962117627263">
        <ele>54.299999999999997</ele>
        <time>2022-05-26T08:18:05Z</time>
      </trkpt>
      <trkpt lat="50.92949484474957" lon="4.761969326063991">
        <ele>54.189999999999998</ele>
        <time>2022-05-26T08:18:09Z</time>
      </trkpt>
      <trkpt lat="50.92960431240499" lon="4.761985670775175">
        <ele>53.909999999999997</ele>
        <time>2022-05-26T08:18:20Z</time>
      </trkpt>
      <trkpt lat="50.929732723161578" lon="4.761698422953486">
        <ele>52.299999999999997</ele>
        <time>2022-05-26T08:18:59Z</time>
      </trkpt>
      <trkpt lat="50.92981000430882" lon="4.761411426588893">
        <ele>52.130000000000003</ele>
        <time>2022-05-26T08:19:10Z</time>
      </trkpt>
      <trkpt lat="50.929941013455391" lon="4.760856963694096">
        <ele>51.469999999999999</ele>
        <time>2022-05-26T08:19:43Z</time>
      </trkpt>
      <trkpt lat="50.930005637928843" lon="4.760631155222654">
        <ele>51.18</ele>
        <time>2022-05-26T08:19:58Z</time>
      </trkpt>
      <trkpt lat="50.930048637092113" lon="4.760306607931852">
        <ele>50.840000000000003</ele>
        <time>2022-05-26T08:20:14Z</time>
      </trkpt>
      <trkpt lat="50.93004796653986" lon="4.760283138602972">
        <ele>50.829999999999998</ele>
        <time>2022-05-26T08:20:15Z</time>
      </trkpt>
      <trkpt lat="50.930046541616321" lon="4.760259166359901">
        <ele>50.799999999999997</ele>
        <time>2022-05-26T08:20:16Z</time>
      </trkpt>
      <trkpt lat="50.930022401735187" lon="4.759920872747898">
        <ele>50.5</ele>
        <time>2022-05-26T08:20:29Z</time>
      </trkpt>
      <trkpt lat="50.92996196821332" lon="4.759608143940568">
        <ele>50.149999999999999</ele>
        <time>2022-05-26T08:20:44Z</time>
      </trkpt>
      <trkpt lat="50.929966494441032" lon="4.759290385991335">
        <ele>49.799999999999997</ele>
        <time>2022-05-26T08:20:59Z</time>
      </trkpt>
      <trkpt lat="50.930002368986607" lon="4.758958294987679">
        <ele>49.390000000000001</ele>
        <time>2022-05-26T08:21:16Z</time>
      </trkpt>
      <trkpt lat="50.930069340392947" lon="4.758608601987362">
        <ele>49.049999999999997</ele>
        <time>2022-05-26T08:21:30Z</time>
      </trkpt>
      <trkpt lat="50.930014103651047" lon="4.7581438254565">
        <ele>48.630000000000003</ele>
        <time>2022-05-26T08:21:46Z</time>
      </trkpt>
      <trkpt lat="50.930006057024002" lon="4.758087415248156">
        <ele>48.57</ele>
        <time>2022-05-26T08:21:48Z</time>
      </trkpt>
      <trkpt lat="50.929930284619331" lon="4.75778030231595">
        <ele>48.130000000000003</ele>
        <time>2022-05-26T08:22:04Z</time>
      </trkpt>
      <trkpt lat="50.929701458662748" lon="4.756589820608497">
        <ele>46.939999999999998</ele>
        <time>2022-05-26T08:22:51Z</time>
      </trkpt>
      <trkpt lat="50.929629625752568" lon="4.756192686036229">
        <ele>46.579999999999998</ele>
        <time>2022-05-26T08:23:08Z</time>
      </trkpt>
      <trkpt lat="50.929553266614676" lon="4.755838885903359">
        <ele>46.259999999999998</ele>
        <time>2022-05-26T08:23:25Z</time>
      </trkpt>
      <trkpt lat="50.929633481428027" lon="4.755761520937085">
        <ele>46.229999999999997</ele>
        <time>2022-05-26T08:23:27Z</time>
      </trkpt>
      <trkpt lat="50.929641695693135" lon="4.755744421854615">
        <ele>46.229999999999997</ele>
        <time>2022-05-26T08:23:28Z</time>
      </trkpt>
      <trkpt lat="50.929847974330187" lon="4.75565817207098">
        <ele>45.859999999999999</ele>
        <time>2022-05-26T08:23:46Z</time>
      </trkpt>
      <trkpt lat="50.930080404505134" lon="4.755767052993178">
        <ele>44.780000000000001</ele>
        <time>2022-05-26T08:24:05Z</time>
      </trkpt>
      <trkpt lat="50.930261285975575" lon="4.755985820665956">
        <ele>44.579999999999998</ele>
        <time>2022-05-26T08:24:22Z</time>
      </trkpt>
      <trkpt lat="50.930388942360878" lon="4.756147423759103">
        <ele>44.369999999999997</ele>
        <time>2022-05-26T08:24:35Z</time>
      </trkpt>
      <trkpt lat="50.930391624569893" lon="4.756167205050588">
        <ele>44.350000000000001</ele>
        <time>2022-05-26T08:24:36Z</time>
      </trkpt>
      <trkpt lat="50.930350469425321" lon="4.756485968828201">
        <ele>44.100000000000001</ele>
        <time>2022-05-26T08:24:51Z</time>
      </trkpt>
      <trkpt lat="50.930344853550196" lon="4.756629467010498">
        <ele>43.969999999999999</ele>
        <time>2022-05-26T08:24:58Z</time>
      </trkpt>
      <trkpt lat="50.930455327033997" lon="4.75681864656508">
        <ele>43.700000000000003</ele>
        <time>2022-05-26T08:25:13Z</time>
      </trkpt>
      <trkpt lat="50.930588347837329" lon="4.756907746195793">
        <ele>43.380000000000003</ele>
        <time>2022-05-26T08:25:27Z</time>
      </trkpt>
      <trkpt lat="50.930784149095416" lon="4.757024254649878">
        <ele>42.93</ele>
        <time>2022-05-26T08:25:44Z</time>
      </trkpt>
      <trkpt lat="50.930956061929464" lon="4.757271436974406">
        <ele>42.57</ele>
        <time>2022-05-26T08:25:57Z</time>
      </trkpt>
      <trkpt lat="50.930969892069697" lon="4.757290882989764">
        <ele>42.530000000000001</ele>
        <time>2022-05-26T08:25:58Z</time>
      </trkpt>
      <trkpt lat="50.931094866245985" lon="4.757556756958365">
        <ele>42.200000000000003</ele>
        <time>2022-05-26T08:26:13Z</time>
      </trkpt>
      <trkpt lat="50.931229898706079" lon="4.757915502414107">
        <ele>41.780000000000001</ele>
        <time>2022-05-26T08:26:31Z</time>
      </trkpt>
      <trkpt lat="50.931334756314754" lon="4.758282965049148">
        <ele>41.409999999999997</ele>
        <time>2022-05-26T08:26:47Z</time>
      </trkpt>
      <trkpt lat="50.9315050765872" lon="4.758531488478184">
        <ele>41.039999999999999</ele>
        <time>2022-05-26T08:27:04Z</time>
      </trkpt>
      <trkpt lat="50.931692412123084" lon="4.758496955037117">
        <ele>39.950000000000003</ele>
        <time>2022-05-26T08:27:18Z</time>
      </trkpt>
      <trkpt lat="50.931912688538432" lon="4.758301572874188">
        <ele>39.719999999999999</ele>
        <time>2022-05-26T08:27:33Z</time>
      </trkpt>
      <trkpt lat="50.932112848386168" lon="4.758086912333965">
        <ele>39.469999999999999</ele>
        <time>2022-05-26T08:27:50Z</time>
      </trkpt>
      <trkpt lat="50.932302111759782" lon="4.757921453565359">
        <ele>39.329999999999998</ele>
        <time>2022-05-26T08:28:06Z</time>
      </trkpt>
      <trkpt lat="50.932521549984813" lon="4.757733782753348">
        <ele>39.119999999999997</ele>
        <time>2022-05-26T08:28:23Z</time>
      </trkpt>
      <trkpt lat="50.932780634611845" lon="4.757534377276897">
        <ele>39.009999999999998</ele>
        <time>2022-05-26T08:28:35Z</time>
      </trkpt>
      <trkpt lat="50.933000575751066" lon="4.757314184680581">
        <ele>38.840000000000003</ele>
        <time>2022-05-26T08:28:47Z</time>
      </trkpt>
      <trkpt lat="50.933290589600801" lon="4.757147217169404">
        <ele>38.700000000000003</ele>
        <time>2022-05-26T08:28:59Z</time>
      </trkpt>
      <trkpt lat="50.933669451624155" lon="4.756987961009145">
        <ele>38.57</ele>
        <time>2022-05-26T08:29:11Z</time>
      </trkpt>
      <trkpt lat="50.934016965329647" lon="4.756795344874263">
        <ele>38.43</ele>
        <time>2022-05-26T08:29:23Z</time>
      </trkpt>
      <trkpt lat="50.934444861486554" lon="4.756505331024528">
        <ele>38.240000000000002</ele>
        <time>2022-05-26T08:29:38Z</time>
      </trkpt>
      <trkpt lat="50.934661533683538" lon="4.75633098743856">
        <ele>38.090000000000003</ele>
        <time>2022-05-26T08:29:49Z</time>
      </trkpt>
      <trkpt lat="50.934787010774016" lon="4.7562200948596">
        <ele>37.869999999999997</ele>
        <time>2022-05-26T08:30:03Z</time>
      </trkpt>
      <trkpt lat="50.935015920549631" lon="4.756061341613531">
        <ele>37.600000000000001</ele>
        <time>2022-05-26T08:30:17Z</time>
      </trkpt>
      <trkpt lat="50.935093536973" lon="4.756011888384819">
        <ele>37.460000000000001</ele>
        <time>2022-05-26T08:30:22Z</time>
      </trkpt>
      <trkpt lat="50.935114156454802" lon="4.756020270287991">
        <ele>37.43</ele>
        <time>2022-05-26T08:30:23Z</time>
      </trkpt>
      <trkpt lat="50.935131506994367" lon="4.756024293601513">
        <ele>37.399999999999999</ele>
        <time>2022-05-26T08:30:24Z</time>
      </trkpt>
      <trkpt lat="50.935221528634429" lon="4.755977019667625">
        <ele>37.25</ele>
        <time>2022-05-26T08:30:29Z</time>
      </trkpt>
      <trkpt lat="50.935250613838434" lon="4.755963021889329">
        <ele>37.210000000000001</ele>
        <time>2022-05-26T08:30:30Z</time>
      </trkpt>
      <trkpt lat="50.935298558324575" lon="4.755936115980148">
        <ele>37.18</ele>
        <time>2022-05-26T08:30:31Z</time>
      </trkpt>
      <trkpt lat="50.935330996289849" lon="4.755916586145759">
        <ele>37.149999999999999</ele>
        <time>2022-05-26T08:30:32Z</time>
      </trkpt>
      <trkpt lat="50.935365194454789" lon="4.755894625559449">
        <ele>37.119999999999997</ele>
        <time>2022-05-26T08:30:33Z</time>
      </trkpt>
      <trkpt lat="50.935403499752283" lon="4.755868306383491">
        <ele>37.079999999999998</ele>
        <time>2022-05-26T08:30:34Z</time>
      </trkpt>
      <trkpt lat="50.935689909383655" lon="4.755781050771475">
        <ele>36.740000000000002</ele>
        <time>2022-05-26T08:30:44Z</time>
      </trkpt>
      <trkpt lat="50.936061814427376" lon="4.755590362474322">
        <ele>36.149999999999999</ele>
        <time>2022-05-26T08:30:58Z</time>
      </trkpt>
      <trkpt lat="50.93630975112319" lon="4.755495060235262">
        <ele>35.670000000000002</ele>
        <time>2022-05-26T08:31:08Z</time>
      </trkpt>
      <trkpt lat="50.936468672007322" lon="4.755432531237602">
        <ele>35.130000000000003</ele>
        <time>2022-05-26T08:31:18Z</time>
      </trkpt>
      <trkpt lat="50.936832614243031" lon="4.755326081067324">
        <ele>34.789999999999999</ele>
        <time>2022-05-26T08:31:24Z</time>
      </trkpt>
      <trkpt lat="50.936835296452045" lon="4.755603354424238">
        <ele>34.689999999999998</ele>
        <time>2022-05-26T08:31:26Z</time>
      </trkpt>
      <trkpt lat="50.936849797144532" lon="4.755848525092006">
        <ele>34.109999999999999</ele>
        <time>2022-05-26T08:31:36Z</time>
      </trkpt>
      <trkpt lat="50.936864716932178" lon="4.755874425172806">
        <ele>34.049999999999997</ele>
        <time>2022-05-26T08:31:37Z</time>
      </trkpt>
      <trkpt lat="50.936885504052043" lon="4.755908371880651">
        <ele>33.990000000000002</ele>
        <time>2022-05-26T08:31:38Z</time>
      </trkpt>
      <trkpt lat="50.936896651983261" lon="4.755943911150098">
        <ele>33.93</ele>
        <time>2022-05-26T08:31:39Z</time>
      </trkpt>
      <trkpt lat="50.936909979209304" lon="4.755990263074637">
        <ele>33.869999999999997</ele>
        <time>2022-05-26T08:31:40Z</time>
      </trkpt>
      <trkpt lat="50.936931939795613" lon="4.756025215610862">
        <ele>33.799999999999997</ele>
        <time>2022-05-26T08:31:41Z</time>
      </trkpt>
      <trkpt lat="50.936964629217982" lon="4.756051367148757">
        <ele>33.740000000000002</ele>
        <time>2022-05-26T08:31:42Z</time>
      </trkpt>
      <trkpt lat="50.937002599239349" lon="4.756110711023212">
        <ele>33.689999999999998</ele>
        <time>2022-05-26T08:31:43Z</time>
      </trkpt>
      <trkpt lat="50.937044341117144" lon="4.756152620539069">
        <ele>33.619999999999997</ele>
        <time>2022-05-26T08:31:44Z</time>
      </trkpt>
      <trkpt lat="50.937498975545168" lon="4.756665676832199">
        <ele>33</ele>
        <time>2022-05-26T08:31:55Z</time>
      </trkpt>
      <trkpt lat="50.937712462618947" lon="4.757217457517982">
        <ele>32.609999999999999</ele>
        <time>2022-05-26T08:32:05Z</time>
      </trkpt>
      <trkpt lat="50.937856882810593" lon="4.757821457460523">
        <ele>32.289999999999999</ele>
        <time>2022-05-26T08:32:17Z</time>
      </trkpt>
      <trkpt lat="50.937801813706756" lon="4.758379524573684">
        <ele>32.119999999999997</ele>
        <time>2022-05-26T08:32:29Z</time>
      </trkpt>
      <trkpt lat="50.93780935741961" lon="4.758417075499892">
        <ele>32.109999999999999</ele>
        <time>2022-05-26T08:32:30Z</time>
      </trkpt>
      <trkpt lat="50.937800640240312" lon="4.75847071968019">
        <ele>32.100000000000001</ele>
        <time>2022-05-26T08:32:31Z</time>
      </trkpt>
      <trkpt lat="50.937794269993901" lon="4.75853132084012">
        <ele>32.07</ele>
        <time>2022-05-26T08:32:32Z</time>
      </trkpt>
      <trkpt lat="50.937787480652332" lon="4.758588066324592">
        <ele>32.049999999999997</ele>
        <time>2022-05-26T08:32:33Z</time>
      </trkpt>
      <trkpt lat="50.937762334942818" lon="4.75912207737565">
        <ele>31.890000000000001</ele>
        <time>2022-05-26T08:32:45Z</time>
      </trkpt>
      <trkpt lat="50.937725873664021" lon="4.759439919143915">
        <ele>31.710000000000001</ele>
        <time>2022-05-26T08:32:54Z</time>
      </trkpt>
      <trkpt lat="50.937727047130466" lon="4.759480571374297">
        <ele>31.690000000000001</ele>
        <time>2022-05-26T08:32:55Z</time>
      </trkpt>
      <trkpt lat="50.937733333557844" lon="4.759516529738903">
        <ele>31.66</ele>
        <time>2022-05-26T08:32:56Z</time>
      </trkpt>
      <trkpt lat="50.937744984403253" lon="4.759624153375626">
        <ele>31.59</ele>
        <time>2022-05-26T08:32:59Z</time>
      </trkpt>
      <trkpt lat="50.937752025201917" lon="4.759667403995991">
        <ele>31.559999999999999</ele>
        <time>2022-05-26T08:33:00Z</time>
      </trkpt>
      <trkpt lat="50.93775998800993" lon="4.7597083915025">
        <ele>31.530000000000001</ele>
        <time>2022-05-26T08:33:01Z</time>
      </trkpt>
      <trkpt lat="50.937770297750831" lon="4.759741500020027">
        <ele>31.510000000000002</ele>
        <time>2022-05-26T08:33:02Z</time>
      </trkpt>
      <trkpt lat="50.937783205881715" lon="4.759782068431377">
        <ele>31.48</ele>
        <time>2022-05-26T08:33:03Z</time>
      </trkpt>
      <trkpt lat="50.937799802049994" lon="4.759831856936216">
        <ele>31.440000000000001</ele>
        <time>2022-05-26T08:33:04Z</time>
      </trkpt>
      <trkpt lat="50.937812961637974" lon="4.759877873584628">
        <ele>31.41</ele>
        <time>2022-05-26T08:33:05Z</time>
      </trkpt>
      <trkpt lat="50.937825785949826" lon="4.759918190538883">
        <ele>31.399999999999999</ele>
        <time>2022-05-26T08:33:06Z</time>
      </trkpt>
      <trkpt lat="50.937904240563512" lon="4.760288083925843">
        <ele>31.109999999999999</ele>
        <time>2022-05-26T08:33:16Z</time>
      </trkpt>
      <trkpt lat="50.937943467870355" lon="4.760684464126825">
        <ele>30.640000000000001</ele>
        <time>2022-05-26T08:33:30Z</time>
      </trkpt>
      <trkpt lat="50.938030807301402" lon="4.761014711111784">
        <ele>30.02</ele>
        <time>2022-05-26T08:33:48Z</time>
      </trkpt>
      <trkpt lat="50.938095767050982" lon="4.761493569239974">
        <ele>29.300000000000001</ele>
        <time>2022-05-26T08:34:08Z</time>
      </trkpt>
      <trkpt lat="50.938209174200892" lon="4.761992376297712">
        <ele>28.739999999999998</ele>
        <time>2022-05-26T08:34:23Z</time>
      </trkpt>
      <trkpt lat="50.938283940777183" lon="4.762348439544439">
        <ele>28.34</ele>
        <time>2022-05-26T08:34:36Z</time>
      </trkpt>
      <trkpt lat="50.938299028202891" lon="4.762369226664305">
        <ele>28.300000000000001</ele>
        <time>2022-05-26T08:34:37Z</time>
      </trkpt>
      <trkpt lat="50.938436742872" lon="4.762658989056945">
        <ele>27.93</ele>
        <time>2022-05-26T08:34:52Z</time>
      </trkpt>
      <trkpt lat="50.938516370952129" lon="4.762897118926048">
        <ele>27.52</ele>
        <time>2022-05-26T08:35:08Z</time>
      </trkpt>
      <trkpt lat="50.938593568280339" lon="4.76319182664156">
        <ele>27.109999999999999</ele>
        <time>2022-05-26T08:35:23Z</time>
      </trkpt>
      <trkpt lat="50.938639249652624" lon="4.763557109981775">
        <ele>26.760000000000002</ele>
        <time>2022-05-26T08:35:36Z</time>
      </trkpt>
      <trkpt lat="50.938606057316065" lon="4.76398391649127">
        <ele>26.350000000000001</ele>
        <time>2022-05-26T08:35:53Z</time>
      </trkpt>
      <trkpt lat="50.938600357621908" lon="4.764305362477899">
        <ele>26.079999999999998</ele>
        <time>2022-05-26T08:36:06Z</time>
      </trkpt>
      <trkpt lat="50.938604213297367" lon="4.764386918395758">
        <ele>26.02</ele>
        <time>2022-05-26T08:36:09Z</time>
      </trkpt>
      <trkpt lat="50.938607482239604" lon="4.764410890638828">
        <ele>26</ele>
        <time>2022-05-26T08:36:10Z</time>
      </trkpt>
      <trkpt lat="50.938608152791858" lon="4.764432935044169">
        <ele>25.98</ele>
        <time>2022-05-26T08:36:11Z</time>
      </trkpt>
      <trkpt lat="50.938610164448619" lon="4.764454225078225">
        <ele>25.960000000000001</ele>
        <time>2022-05-26T08:36:12Z</time>
      </trkpt>
      <trkpt lat="50.938612595200539" lon="4.764474257826805">
        <ele>25.940000000000001</ele>
        <time>2022-05-26T08:36:13Z</time>
      </trkpt>
      <trkpt lat="50.938625922426581" lon="4.765303563326597">
        <ele>25.449999999999999</ele>
        <time>2022-05-26T08:36:46Z</time>
      </trkpt>
      <trkpt lat="50.938596585765481" lon="4.7655831836164">
        <ele>25.260000000000002</ele>
        <time>2022-05-26T08:37:00Z</time>
      </trkpt>
      <trkpt lat="50.938600692898035" lon="4.765661470592022">
        <ele>25.190000000000001</ele>
        <time>2022-05-26T08:37:05Z</time>
      </trkpt>
      <trkpt lat="50.938600692898035" lon="4.765682425349951">
        <ele>25.18</ele>
        <time>2022-05-26T08:37:06Z</time>
      </trkpt>
      <trkpt lat="50.93854327686131" lon="4.76642950437963">
        <ele>24.710000000000001</ele>
        <time>2022-05-26T08:37:49Z</time>
      </trkpt>
      <trkpt lat="50.938532715663314" lon="4.766617342829704">
        <ele>24.559999999999999</ele>
        <time>2022-05-26T08:37:58Z</time>
      </trkpt>
      <trkpt lat="50.938511257991195" lon="4.767584949731827">
        <ele>23.91</ele>
        <time>2022-05-26T08:38:37Z</time>
      </trkpt>
      <trkpt lat="50.938472198322415" lon="4.767787121236324">
        <ele>23.829999999999998</ele>
        <time>2022-05-26T08:38:42Z</time>
      </trkpt>
      <trkpt lat="50.938471611589193" lon="4.76781914010644">
        <ele>23.809999999999999</ele>
        <time>2022-05-26T08:38:43Z</time>
      </trkpt>
      <trkpt lat="50.938467336818576" lon="4.767848560586572">
        <ele>23.800000000000001</ele>
        <time>2022-05-26T08:38:44Z</time>
      </trkpt>
      <trkpt lat="50.938464738428593" lon="4.76787680760026">
        <ele>23.789999999999999</ele>
        <time>2022-05-26T08:38:45Z</time>
      </trkpt>
      <trkpt lat="50.938460379838943" lon="4.767906647175551">
        <ele>23.780000000000001</ele>
        <time>2022-05-26T08:38:46Z</time>
      </trkpt>
      <trkpt lat="50.938435904681683" lon="4.768199762329459">
        <ele>23.629999999999999</ele>
        <time>2022-05-26T08:38:58Z</time>
      </trkpt>
      <trkpt lat="50.93842358328402" lon="4.768330520018935">
        <ele>23.530000000000001</ele>
        <time>2022-05-26T08:39:05Z</time>
      </trkpt>
      <trkpt lat="50.938423750922084" lon="4.768357845023274">
        <ele>23.52</ele>
        <time>2022-05-26T08:39:06Z</time>
      </trkpt>
      <trkpt lat="50.938421990722418" lon="4.768385505303741">
        <ele>23.5</ele>
        <time>2022-05-26T08:39:07Z</time>
      </trkpt>
      <trkpt lat="50.93831704929471" lon="4.768649451434612">
        <ele>23.300000000000001</ele>
        <time>2022-05-26T08:39:22Z</time>
      </trkpt>
      <trkpt lat="50.938278576359153" lon="4.768932592123747">
        <ele>23.199999999999999</ele>
        <time>2022-05-26T08:39:33Z</time>
      </trkpt>
      <trkpt lat="50.938218059018254" lon="4.769238531589508">
        <ele>23.050000000000001</ele>
        <time>2022-05-26T08:39:47Z</time>
      </trkpt>
      <trkpt lat="50.938167767599225" lon="4.769548075273633">
        <ele>22.920000000000002</ele>
        <time>2022-05-26T08:40:01Z</time>
      </trkpt>
      <trkpt lat="50.938128707930446" lon="4.769858624786139">
        <ele>22.82</ele>
        <time>2022-05-26T08:40:14Z</time>
      </trkpt>
      <trkpt lat="50.93808394856751" lon="4.770229188725352">
        <ele>22.719999999999999</ele>
        <time>2022-05-26T08:40:30Z</time>
      </trkpt>
      <trkpt lat="50.938076823949814" lon="4.77067762054503">
        <ele>22.690000000000001</ele>
        <time>2022-05-26T08:40:47Z</time>
      </trkpt>
      <trkpt lat="50.93806735239923" lon="4.771046927198768">
        <ele>22.68</ele>
        <time>2022-05-26T08:41:03Z</time>
      </trkpt>
      <trkpt lat="50.93805662356317" lon="4.771508015692234">
        <ele>22.68</ele>
        <time>2022-05-26T08:41:23Z</time>
      </trkpt>
      <trkpt lat="50.9381655883044" lon="4.771871622651815">
        <ele>22.649999999999999</ele>
        <time>2022-05-26T08:41:40Z</time>
      </trkpt>
      <trkpt lat="50.938281510025263" lon="4.772164151072502">
        <ele>22.620000000000001</ele>
        <time>2022-05-26T08:41:55Z</time>
      </trkpt>
      <trkpt lat="50.938363401219249" lon="4.772945009171963">
        <ele>22.530000000000001</ele>
        <time>2022-05-26T08:42:30Z</time>
      </trkpt>
      <trkpt lat="50.938356528058648" lon="4.773248266428709">
        <ele>22.469999999999999</ele>
        <time>2022-05-26T08:42:44Z</time>
      </trkpt>
      <trkpt lat="50.93836834654212" lon="4.773319261148572">
        <ele>22.449999999999999</ele>
        <time>2022-05-26T08:42:47Z</time>
      </trkpt>
      <trkpt lat="50.93836541287601" lon="4.77333870716393">
        <ele>22.449999999999999</ele>
        <time>2022-05-26T08:42:48Z</time>
      </trkpt>
      <trkpt lat="50.938362730666995" lon="4.773359410464764">
        <ele>22.43</ele>
        <time>2022-05-26T08:42:49Z</time>
      </trkpt>
      <trkpt lat="50.938360216096044" lon="4.773381538689137">
        <ele>22.43</ele>
        <time>2022-05-26T08:42:50Z</time>
      </trkpt>
      <trkpt lat="50.938359461724758" lon="4.773404588922858">
        <ele>22.420000000000002</ele>
        <time>2022-05-26T08:42:51Z</time>
      </trkpt>
      <trkpt lat="50.938359210267663" lon="4.77342713624239">
        <ele>22.420000000000002</ele>
        <time>2022-05-26T08:42:52Z</time>
      </trkpt>
      <trkpt lat="50.93835954554379" lon="4.773448258638382">
        <ele>22.41</ele>
        <time>2022-05-26T08:42:53Z</time>
      </trkpt>
      <trkpt lat="50.938447723165154" lon="4.773700553923845">
        <ele>22.329999999999998</ele>
        <time>2022-05-26T08:43:06Z</time>
      </trkpt>
      <trkpt lat="50.938637824729085" lon="4.773774147033691">
        <ele>22.25</ele>
        <time>2022-05-26T08:43:19Z</time>
      </trkpt>
      <trkpt lat="50.938825579360127" lon="4.773844052106142">
        <ele>22.170000000000002</ele>
        <time>2022-05-26T08:43:33Z</time>
      </trkpt>
      <trkpt lat="50.938971592113376" lon="4.773895349353552">
        <ele>22.100000000000001</ele>
        <time>2022-05-26T08:43:46Z</time>
      </trkpt>
      <trkpt lat="50.939150126650929" lon="4.773900294676423">
        <ele>22.039999999999999</ele>
        <time>2022-05-26T08:44:00Z</time>
      </trkpt>
      <trkpt lat="50.939391106367111" lon="4.773940863087773">
        <ele>21.969999999999999</ele>
        <time>2022-05-26T08:44:16Z</time>
      </trkpt>
      <trkpt lat="50.939565869048238" lon="4.773949664086103">
        <ele>21.949999999999999</ele>
        <time>2022-05-26T08:44:28Z</time>
      </trkpt>
      <trkpt lat="50.93984205275774" lon="4.773986712098122">
        <ele>21.91</ele>
        <time>2022-05-26T08:44:46Z</time>
      </trkpt>
      <trkpt lat="50.940095605328679" lon="4.774007080122829">
        <ele>21.859999999999999</ele>
        <time>2022-05-26T08:45:03Z</time>
      </trkpt>
      <trkpt lat="50.940340105444193" lon="4.774061059579253">
        <ele>21.829999999999998</ele>
        <time>2022-05-26T08:45:19Z</time>
      </trkpt>
      <trkpt lat="50.940524339675903" lon="4.774101041257381">
        <ele>21.82</ele>
        <time>2022-05-26T08:45:33Z</time>
      </trkpt>
      <trkpt lat="50.940549736842513" lon="4.774111183360219">
        <ele>21.800000000000001</ele>
        <time>2022-05-26T08:45:49Z</time>
      </trkpt>
      <trkpt lat="50.940745873376727" lon="4.774192236363888">
        <ele>21.789999999999999</ele>
        <time>2022-05-26T08:46:04Z</time>
      </trkpt>
      <trkpt lat="50.940914517268538" lon="4.774399185553193">
        <ele>21.75</ele>
        <time>2022-05-26T08:46:20Z</time>
      </trkpt>
      <trkpt lat="50.94092289917171" lon="4.774417961016297">
        <ele>21.760000000000002</ele>
        <time>2022-05-26T08:46:21Z</time>
      </trkpt>
      <trkpt lat="50.940932538360357" lon="4.77443665266037">
        <ele>21.75</ele>
        <time>2022-05-26T08:46:22Z</time>
      </trkpt>
      <trkpt lat="50.940941926091909" lon="4.774453667923808">
        <ele>21.75</ele>
        <time>2022-05-26T08:46:23Z</time>
      </trkpt>
      <trkpt lat="50.940952738747001" lon="4.774469593539834">
        <ele>21.75</ele>
        <time>2022-05-26T08:46:24Z</time>
      </trkpt>
      <trkpt lat="50.940962294116616" lon="4.77448602207005">
        <ele>21.739999999999998</ele>
        <time>2022-05-26T08:46:25Z</time>
      </trkpt>
      <trkpt lat="50.940970843657851" lon="4.774501947686076">
        <ele>21.739999999999998</ele>
        <time>2022-05-26T08:46:26Z</time>
      </trkpt>
      <trkpt lat="50.941081820055842" lon="4.774798331782222">
        <ele>21.710000000000001</ele>
        <time>2022-05-26T08:46:41Z</time>
      </trkpt>
      <trkpt lat="50.941214840859175" lon="4.775134865194559">
        <ele>21.66</ele>
        <time>2022-05-26T08:46:59Z</time>
      </trkpt>
      <trkpt lat="50.941327325999737" lon="4.775449521839619">
        <ele>21.600000000000001</ele>
        <time>2022-05-26T08:47:15Z</time>
      </trkpt>
      <trkpt lat="50.94145112670958" lon="4.775719922035933">
        <ele>21.539999999999999</ele>
        <time>2022-05-26T08:47:30Z</time>
      </trkpt>
      <trkpt lat="50.94156788662076" lon="4.775980096310377">
        <ele>21.469999999999999</ele>
        <time>2022-05-26T08:47:45Z</time>
      </trkpt>
      <trkpt lat="50.941635277122259" lon="4.776191571727395">
        <ele>21.399999999999999</ele>
        <time>2022-05-26T08:47:58Z</time>
      </trkpt>
      <trkpt lat="50.941689843311906" lon="4.776380499824882">
        <ele>21.32</ele>
        <time>2022-05-26T08:48:11Z</time>
      </trkpt>
      <trkpt lat="50.941666709259152" lon="4.776721643283963">
        <ele>21.23</ele>
        <time>2022-05-26T08:48:23Z</time>
      </trkpt>
      <trkpt lat="50.941628906875849" lon="4.777018362656236">
        <ele>21.129999999999999</ele>
        <time>2022-05-26T08:48:38Z</time>
      </trkpt>
      <trkpt lat="50.941578531637788" lon="4.777313992381096">
        <ele>21.030000000000001</ele>
        <time>2022-05-26T08:48:51Z</time>
      </trkpt>
      <trkpt lat="50.941519355401397" lon="4.777795616537333">
        <ele>20.859999999999999</ele>
        <time>2022-05-26T08:49:10Z</time>
      </trkpt>
      <trkpt lat="50.941509297117591" lon="4.77821328677237">
        <ele>20.719999999999999</ele>
        <time>2022-05-26T08:49:28Z</time>
      </trkpt>
      <trkpt lat="50.94151315279305" lon="4.778478741645813">
        <ele>20.640000000000001</ele>
        <time>2022-05-26T08:49:39Z</time>
      </trkpt>
      <trkpt lat="50.941515751183033" lon="4.7784966789186">
        <ele>20.629999999999999</ele>
        <time>2022-05-26T08:49:40Z</time>
      </trkpt>
      <trkpt lat="50.941517762839794" lon="4.778519561514258">
        <ele>20.620000000000001</ele>
        <time>2022-05-26T08:49:41Z</time>
      </trkpt>
      <trkpt lat="50.941517846658826" lon="4.778540013357997">
        <ele>20.609999999999999</ele>
        <time>2022-05-26T08:49:42Z</time>
      </trkpt>
      <trkpt lat="50.941516421735287" lon="4.778558537364006">
        <ele>20.600000000000001</ele>
        <time>2022-05-26T08:49:43Z</time>
      </trkpt>
      <trkpt lat="50.94151558354497" lon="4.778578402474523">
        <ele>20.59</ele>
        <time>2022-05-26T08:49:44Z</time>
      </trkpt>
      <trkpt lat="50.941503597423434" lon="4.77883773855865">
        <ele>20.5</ele>
        <time>2022-05-26T08:49:54Z</time>
      </trkpt>
      <trkpt lat="50.9415053576231" lon="4.778856849297881">
        <ele>20.48</ele>
        <time>2022-05-26T08:49:55Z</time>
      </trkpt>
      <trkpt lat="50.941508123651147" lon="4.778884928673506">
        <ele>20.48</ele>
        <time>2022-05-26T08:49:56Z</time>
      </trkpt>
      <trkpt lat="50.941509967669845" lon="4.778922144323587">
        <ele>20.469999999999999</ele>
        <time>2022-05-26T08:49:57Z</time>
      </trkpt>
      <trkpt lat="50.941509883850813" lon="4.778957683593035">
        <ele>20.460000000000001</ele>
        <time>2022-05-26T08:49:58Z</time>
      </trkpt>
      <trkpt lat="50.941509967669845" lon="4.778980566188693">
        <ele>20.449999999999999</ele>
        <time>2022-05-26T08:49:59Z</time>
      </trkpt>
      <trkpt lat="50.941526647657156" lon="4.779243757948279">
        <ele>20.34</ele>
        <time>2022-05-26T08:50:12Z</time>
      </trkpt>
      <trkpt lat="50.941523127257824" lon="4.779582303017378">
        <ele>20.23</ele>
        <time>2022-05-26T08:50:27Z</time>
      </trkpt>
      <trkpt lat="50.941522791981697" lon="4.779597474262118">
        <ele>20.219999999999999</ele>
        <time>2022-05-26T08:50:28Z</time>
      </trkpt>
      <trkpt lat="50.941521618515253" lon="4.779617842286825">
        <ele>20.210000000000001</ele>
        <time>2022-05-26T08:50:29Z</time>
      </trkpt>
      <trkpt lat="50.941520696505904" lon="4.779638880863786">
        <ele>20.210000000000001</ele>
        <time>2022-05-26T08:50:30Z</time>
      </trkpt>
      <trkpt lat="50.94151952303946" lon="4.779663272202015">
        <ele>20.199999999999999</ele>
        <time>2022-05-26T08:50:31Z</time>
      </trkpt>
      <trkpt lat="50.941518433392048" lon="4.779684310778976">
        <ele>20.190000000000001</ele>
        <time>2022-05-26T08:50:32Z</time>
      </trkpt>
      <trkpt lat="50.941523294895887" lon="4.779716413468123">
        <ele>20.190000000000001</ele>
        <time>2022-05-26T08:50:33Z</time>
      </trkpt>
      <trkpt lat="50.941530000418425" lon="4.779852703213692">
        <ele>20.120000000000001</ele>
        <time>2022-05-26T08:50:41Z</time>
      </trkpt>
      <trkpt lat="50.941539471969008" lon="4.779861168935895">
        <ele>20.109999999999999</ele>
        <time>2022-05-26T08:50:42Z</time>
      </trkpt>
      <trkpt lat="50.941670564934611" lon="4.779878854751587">
        <ele>20.02</ele>
        <time>2022-05-26T08:50:54Z</time>
      </trkpt>
      <trkpt lat="50.94182395376265" lon="4.779893690720201">
        <ele>22.23</ele>
        <time>2022-05-26T08:51:04Z</time>
      </trkpt>
      <trkpt lat="50.942087732255459" lon="4.779927469789982">
        <ele>22.09</ele>
        <time>2022-05-26T08:51:21Z</time>
      </trkpt>
      <trkpt lat="50.942337596789002" lon="4.77995278313756">
        <ele>22.73</ele>
        <time>2022-05-26T08:51:37Z</time>
      </trkpt>
      <trkpt lat="50.942451423034072" lon="4.779960159212351">
        <ele>22.68</ele>
        <time>2022-05-26T08:51:45Z</time>
      </trkpt>
      <trkpt lat="50.942453015595675" lon="4.780312534421682">
        <ele>22.609999999999999</ele>
        <time>2022-05-26T08:51:59Z</time>
      </trkpt>
      <trkpt lat="50.942434575408697" lon="4.780442621558905">
        <ele>22.59</ele>
        <time>2022-05-26T08:52:05Z</time>
      </trkpt>
      <trkpt lat="50.942420912906528" lon="4.780580252408981">
        <ele>22.559999999999999</ele>
        <time>2022-05-26T08:52:12Z</time>
      </trkpt>
      <trkpt lat="50.942429043352604" lon="4.780645631253719">
        <ele>22.550000000000001</ele>
        <time>2022-05-26T08:52:15Z</time>
      </trkpt>
      <trkpt lat="50.942431222647429" lon="4.780861381441355">
        <ele>23.300000000000001</ele>
        <time>2022-05-26T08:52:24Z</time>
      </trkpt>
      <trkpt lat="50.94244253821671" lon="4.781212247908115">
        <ele>23.170000000000002</ele>
        <time>2022-05-26T08:52:40Z</time>
      </trkpt>
      <trkpt lat="50.942447567358613" lon="4.78133269585669">
        <ele>23.129999999999999</ele>
        <time>2022-05-26T08:52:45Z</time>
      </trkpt>
      <trkpt lat="50.942467097193003" lon="4.781462782993913">
        <ele>23.079999999999998</ele>
        <time>2022-05-26T08:52:51Z</time>
      </trkpt>
      <trkpt lat="50.942498948425055" lon="4.781632516533136">
        <ele>23.02</ele>
        <time>2022-05-26T08:52:58Z</time>
      </trkpt>
      <trkpt lat="50.942558711394668" lon="4.781675767153502">
        <ele>22.98</ele>
        <time>2022-05-26T08:53:03Z</time>
      </trkpt>
      <trkpt lat="50.942672286182642" lon="4.78174114599824">
        <ele>24.25</ele>
        <time>2022-05-26T08:53:12Z</time>
      </trkpt>
      <trkpt lat="50.942700952291489" lon="4.781731422990561">
        <ele>21.98</ele>
        <time>2022-05-26T08:53:14Z</time>
      </trkpt>
      <trkpt lat="50.942803462967277" lon="4.781706109642983">
        <ele>25.469999999999999</ele>
        <time>2022-05-26T08:53:21Z</time>
      </trkpt>
      <trkpt lat="50.942818047478795" lon="4.781700242310762">
        <ele>25.469999999999999</ele>
        <time>2022-05-26T08:53:22Z</time>
      </trkpt>
      <trkpt lat="50.943029187619686" lon="4.781667049974203">
        <ele>25.399999999999999</ele>
        <time>2022-05-26T08:53:38Z</time>
      </trkpt>
      <trkpt lat="50.943225575610995" lon="4.781623212620616">
        <ele>25.370000000000001</ele>
        <time>2022-05-26T08:53:51Z</time>
      </trkpt>
      <trkpt lat="50.943448198959231" lon="4.781510476022959">
        <ele>26.109999999999999</ele>
        <time>2022-05-26T08:54:08Z</time>
      </trkpt>
      <trkpt lat="50.943640731275082" lon="4.781424896791577">
        <ele>26.84</ele>
        <time>2022-05-26T08:54:23Z</time>
      </trkpt>
      <trkpt lat="50.943841896951199" lon="4.781379634514451">
        <ele>27.620000000000001</ele>
        <time>2022-05-26T08:54:38Z</time>
      </trkpt>
      <trkpt lat="50.94403644092381" lon="4.781347196549177">
        <ele>28.359999999999999</ele>
        <time>2022-05-26T08:54:52Z</time>
      </trkpt>
      <trkpt lat="50.944222854450345" lon="4.781336132436991">
        <ele>29.800000000000001</ele>
        <time>2022-05-26T08:55:05Z</time>
      </trkpt>
      <trkpt lat="50.944430390372872" lon="4.781334791332483">
        <ele>29.68</ele>
        <time>2022-05-26T08:55:24Z</time>
      </trkpt>
      <trkpt lat="50.944487806409597" lon="4.78135415352881">
        <ele>29.600000000000001</ele>
        <time>2022-05-26T08:55:30Z</time>
      </trkpt>
      <trkpt lat="50.944623425602913" lon="4.781405283138156">
        <ele>29.550000000000001</ele>
        <time>2022-05-26T08:55:43Z</time>
      </trkpt>
      <trkpt lat="50.944660641252995" lon="4.781384831294417">
        <ele>29.48</ele>
        <time>2022-05-26T08:55:46Z</time>
      </trkpt>
      <trkpt lat="50.944858537986875" lon="4.781314926221967">
        <ele>29.27</ele>
        <time>2022-05-26T08:56:07Z</time>
      </trkpt>
      <trkpt lat="50.944995582103729" lon="4.781286511570215">
        <ele>29.02</ele>
        <time>2022-05-26T08:56:25Z</time>
      </trkpt>
      <trkpt lat="50.945405624806881" lon="4.781313501298428">
        <ele>28.84</ele>
        <time>2022-05-26T08:56:39Z</time>
      </trkpt>
      <trkpt lat="50.945667726919055" lon="4.781353650614619">
        <ele>29.539999999999999</ele>
        <time>2022-05-26T08:56:53Z</time>
      </trkpt>
      <trkpt lat="50.945865456014872" lon="4.781579794362187">
        <ele>29.449999999999999</ele>
        <time>2022-05-26T08:57:10Z</time>
      </trkpt>
      <trkpt lat="50.945967212319374" lon="4.781789425760508">
        <ele>30.190000000000001</ele>
        <time>2022-05-26T08:57:26Z</time>
      </trkpt>
      <trkpt lat="50.946000572293997" lon="4.78185405023396">
        <ele>30.989999999999998</ele>
        <time>2022-05-26T08:57:41Z</time>
      </trkpt>
      <trkpt lat="50.946214897558093" lon="4.781933510676026">
        <ele>30.949999999999999</ele>
        <time>2022-05-26T08:57:57Z</time>
      </trkpt>
      <trkpt lat="50.946272313594818" lon="4.781928397715092">
        <ele>30.93</ele>
        <time>2022-05-26T08:58:02Z</time>
      </trkpt>
      <trkpt lat="50.946352025493979" lon="4.781920099630952">
        <ele>28.629999999999999</ele>
        <time>2022-05-26T08:58:08Z</time>
      </trkpt>
      <trkpt lat="50.946532320231199" lon="4.781903419643641">
        <ele>27.640000000000001</ele>
        <time>2022-05-26T08:58:24Z</time>
      </trkpt>
      <trkpt lat="50.946551347151399" lon="4.781930074095726">
        <ele>26.809999999999999</ele>
        <time>2022-05-26T08:58:29Z</time>
      </trkpt>
      <trkpt lat="50.946587892249227" lon="4.782162504270673">
        <ele>26.870000000000001</ele>
        <time>2022-05-26T08:58:40Z</time>
      </trkpt>
      <trkpt lat="50.946594765409827" lon="4.782243641093373">
        <ele>26.890000000000001</ele>
        <time>2022-05-26T08:58:44Z</time>
      </trkpt>
      <trkpt lat="50.946609349921346" lon="4.78230943903327">
        <ele>26.859999999999999</ele>
        <time>2022-05-26T08:58:53Z</time>
      </trkpt>
      <trkpt lat="50.946645140647888" lon="4.782588640227914">
        <ele>26.859999999999999</ele>
        <time>2022-05-26T08:59:06Z</time>
      </trkpt>
      <trkpt lat="50.946655534207821" lon="4.782699281349778">
        <ele>26.859999999999999</ele>
        <time>2022-05-26T08:59:11Z</time>
      </trkpt>
      <trkpt lat="50.946689900010824" lon="4.78304922580719">
        <ele>26.84</ele>
        <time>2022-05-26T08:59:27Z</time>
      </trkpt>
      <trkpt lat="50.946704987436533" lon="4.783244943246245">
        <ele>26.84</ele>
        <time>2022-05-26T08:59:38Z</time>
      </trkpt>
      <trkpt lat="50.946695012971759" lon="4.783338569104672">
        <ele>26.850000000000001</ele>
        <time>2022-05-26T08:59:44Z</time>
      </trkpt>
      <trkpt lat="50.946730468422174" lon="4.783420795574784">
        <ele>26.850000000000001</ele>
        <time>2022-05-26T08:59:49Z</time>
      </trkpt>
      <trkpt lat="50.946746058762074" lon="4.783506039530039">
        <ele>26.829999999999998</ele>
        <time>2022-05-26T08:59:53Z</time>
      </trkpt>
      <trkpt lat="50.946791740134358" lon="4.783627409487963">
        <ele>29.09</ele>
        <time>2022-05-26T08:59:59Z</time>
      </trkpt>
      <trkpt lat="50.94680062495172" lon="4.783706031739712">
        <ele>29.07</ele>
        <time>2022-05-26T09:00:02Z</time>
      </trkpt>
      <trkpt lat="50.946837840601802" lon="4.783850703388453">
        <ele>29.07</ele>
        <time>2022-05-26T09:00:09Z</time>
      </trkpt>
      <trkpt lat="50.946842534467578" lon="4.783909041434526">
        <ele>29.829999999999998</ele>
        <time>2022-05-26T09:00:11Z</time>
      </trkpt>
      <trkpt lat="50.946905482560396" lon="4.784355964511633">
        <ele>30.530000000000001</ele>
        <time>2022-05-26T09:00:28Z</time>
      </trkpt>
      <trkpt lat="50.946956779807806" lon="4.784718565642834">
        <ele>31.440000000000001</ele>
        <time>2022-05-26T09:00:42Z</time>
      </trkpt>
      <trkpt lat="50.946961306035519" lon="4.785022912546992">
        <ele>32.210000000000001</ele>
        <time>2022-05-26T09:00:54Z</time>
      </trkpt>
      <trkpt lat="50.946905734017491" lon="4.785429686307907">
        <ele>34.509999999999998</ele>
        <time>2022-05-26T09:01:11Z</time>
      </trkpt>
      <trkpt lat="50.946845971047878" lon="4.785769656300545">
        <ele>35.340000000000003</ele>
        <time>2022-05-26T09:01:27Z</time>
      </trkpt>
      <trkpt lat="50.94682652503252" lon="4.785840567201376">
        <ele>35.340000000000003</ele>
        <time>2022-05-26T09:01:31Z</time>
      </trkpt>
      <trkpt lat="50.946833565831184" lon="4.786015078425407">
        <ele>36.240000000000002</ele>
        <time>2022-05-26T09:01:43Z</time>
      </trkpt>
      <trkpt lat="50.946858795359731" lon="4.786446746438742">
        <ele>36.899999999999999</ele>
        <time>2022-05-26T09:01:59Z</time>
      </trkpt>
      <trkpt lat="50.946869188919663" lon="4.786477340385318">
        <ele>36.899999999999999</ele>
        <time>2022-05-26T09:02:00Z</time>
      </trkpt>
      <trkpt lat="50.947012351825833" lon="4.786896770820022">
        <ele>36.799999999999997</ele>
        <time>2022-05-26T09:02:10Z</time>
      </trkpt>
      <trkpt lat="50.947168590500951" lon="4.787289882078767">
        <ele>34.5</ele>
        <time>2022-05-26T09:02:19Z</time>
      </trkpt>
      <trkpt lat="50.947309155017138" lon="4.787837136536837">
        <ele>34.560000000000002</ele>
        <time>2022-05-26T09:02:30Z</time>
      </trkpt>
      <trkpt lat="50.947397835552692" lon="4.788211975246668">
        <ele>34.630000000000003</ele>
        <time>2022-05-26T09:02:40Z</time>
      </trkpt>
      <trkpt lat="50.947411833330989" lon="4.788369638845325">
        <ele>34.649999999999999</ele>
        <time>2022-05-26T09:02:45Z</time>
      </trkpt>
      <trkpt lat="50.947419041767716" lon="4.788401406258345">
        <ele>34.649999999999999</ele>
        <time>2022-05-26T09:02:46Z</time>
      </trkpt>
      <trkpt lat="50.947425328195095" lon="4.78843342512846">
        <ele>34.649999999999999</ele>
        <time>2022-05-26T09:02:47Z</time>
      </trkpt>
      <trkpt lat="50.947556085884571" lon="4.78888051584363">
        <ele>34.659999999999997</ele>
        <time>2022-05-26T09:03:00Z</time>
      </trkpt>
      <trkpt lat="50.947787091135979" lon="4.789325091987848">
        <ele>34.649999999999999</ele>
        <time>2022-05-26T09:03:12Z</time>
      </trkpt>
      <trkpt lat="50.947964368388057" lon="4.789778804406524">
        <ele>33.799999999999997</ele>
        <time>2022-05-26T09:03:22Z</time>
      </trkpt>
      <trkpt lat="50.948150027543306" lon="4.79022815823555">
        <ele>32.859999999999999</ele>
        <time>2022-05-26T09:03:32Z</time>
      </trkpt>
      <trkpt lat="50.948379021137953" lon="4.79074465110898">
        <ele>31.989999999999998</ele>
        <time>2022-05-26T09:03:44Z</time>
      </trkpt>
      <trkpt lat="50.94843995757401" lon="4.790848838165402">
        <ele>31.989999999999998</ele>
        <time>2022-05-26T09:03:47Z</time>
      </trkpt>
      <trkpt lat="50.948481699451804" lon="4.790907595306635">
        <ele>31.949999999999999</ele>
        <time>2022-05-26T09:03:57Z</time>
      </trkpt>
      <trkpt lat="50.948500810191035" lon="4.790934752672911">
        <ele>31.93</ele>
        <time>2022-05-26T09:03:59Z</time>
      </trkpt>
      <trkpt lat="50.948260333389044" lon="4.791362565010786">
        <ele>30.960000000000001</ele>
        <time>2022-05-26T09:04:10Z</time>
      </trkpt>
      <trkpt lat="50.94836812466383" lon="4.792012413963676">
        <ele>30.16</ele>
        <time>2022-05-26T09:04:22Z</time>
      </trkpt>
      <trkpt lat="50.949868317693472" lon="4.795030737295747">
        <ele>27.890000000000001</ele>
        <time>2022-05-26T09:07:33Z</time>
      </trkpt>
      <trkpt lat="50.950083900243044" lon="4.795550666749477">
        <ele>27.890000000000001</ele>
        <time>2022-05-26T09:07:34Z</time>
      </trkpt>
      <trkpt lat="50.950245670974255" lon="4.796113846823573">
        <ele>27.859999999999999</ele>
        <time>2022-05-26T09:07:36Z</time>
      </trkpt>
      <trkpt lat="50.951206823810935" lon="4.802237162366509">
        <ele>29.949999999999999</ele>
        <time>2022-05-26T09:12:36Z</time>
      </trkpt>
      <trkpt lat="50.951377479359508" lon="4.803002597764134">
        <ele>29.969999999999999</ele>
        <time>2022-05-26T09:12:37Z</time>
      </trkpt>
      <trkpt lat="50.952617162838578" lon="4.802482668310404">
        <ele>29.890000000000001</ele>
        <time>2022-05-26T09:12:49Z</time>
      </trkpt>
      <trkpt lat="50.95369566231966" lon="4.801585888490081">
        <ele>29.789999999999999</ele>
        <time>2022-05-26T09:13:09Z</time>
      </trkpt>
      <trkpt lat="50.953727932646871" lon="4.801595862954855">
        <ele>29.789999999999999</ele>
        <time>2022-05-26T09:13:12Z</time>
      </trkpt>
      <trkpt lat="50.953743103891611" lon="4.801593851298094">
        <ele>29.789999999999999</ele>
        <time>2022-05-26T09:13:13Z</time>
      </trkpt>
      <trkpt lat="50.953759029507637" lon="4.801597455516458">
        <ele>29.789999999999999</ele>
        <time>2022-05-26T09:13:14Z</time>
      </trkpt>
      <trkpt lat="50.95384226180613" lon="4.801594689488411">
        <ele>29.789999999999999</ele>
        <time>2022-05-26T09:13:20Z</time>
      </trkpt>
      <trkpt lat="50.953853577375412" lon="4.801588570699096">
        <ele>29.789999999999999</ele>
        <time>2022-05-26T09:13:21Z</time>
      </trkpt>
      <trkpt lat="50.953894648700953" lon="4.801590498536825">
        <ele>29.77</ele>
        <time>2022-05-26T09:13:25Z</time>
      </trkpt>
      <trkpt lat="50.953908981755376" lon="4.801594689488411">
        <ele>29.77</ele>
        <time>2022-05-26T09:13:26Z</time>
      </trkpt>
      <trkpt lat="50.953922728076577" lon="4.801600053906441">
        <ele>29.77</ele>
        <time>2022-05-26T09:13:27Z</time>
      </trkpt>
      <trkpt lat="50.953938402235508" lon="4.801602149382234">
        <ele>29.760000000000002</ele>
        <time>2022-05-26T09:13:28Z</time>
      </trkpt>
      <trkpt lat="50.953978383913636" lon="4.801563089713454">
        <ele>29.75</ele>
        <time>2022-05-26T09:13:32Z</time>
      </trkpt>
      <trkpt lat="50.954089276492596" lon="4.801427386701107">
        <ele>29.710000000000001</ele>
        <time>2022-05-26T09:13:42Z</time>
      </trkpt>
      <trkpt lat="50.954207377508283" lon="4.801135696470738">
        <ele>30.41</ele>
        <time>2022-05-26T09:13:57Z</time>
      </trkpt>
      <trkpt lat="50.954236965626478" lon="4.801091942936182">
        <ele>30.390000000000001</ele>
        <time>2022-05-26T09:13:59Z</time>
      </trkpt>
      <trkpt lat="50.954268146306276" lon="4.801069647073746">
        <ele>30.390000000000001</ele>
        <time>2022-05-26T09:14:00Z</time>
      </trkpt>
      <trkpt lat="50.954293208196759" lon="4.801056403666735">
        <ele>30.379999999999999</ele>
        <time>2022-05-26T09:14:01Z</time>
      </trkpt>
      <trkpt lat="50.954457493498921" lon="4.800937883555889">
        <ele>31.969999999999999</ele>
        <time>2022-05-26T09:14:14Z</time>
      </trkpt>
      <trkpt lat="50.954525889828801" lon="4.800880216062069">
        <ele>31.93</ele>
        <time>2022-05-26T09:14:21Z</time>
      </trkpt>
      <trkpt lat="50.954539803788066" lon="4.800869738683105">
        <ele>31.899999999999999</ele>
        <time>2022-05-26T09:14:22Z</time>
      </trkpt>
      <trkpt lat="50.954549610614777" lon="4.800861943513155">
        <ele>31.870000000000001</ele>
        <time>2022-05-26T09:14:23Z</time>
      </trkpt>
      <trkpt lat="50.954559585079551" lon="4.800853729248047">
        <ele>31.870000000000001</ele>
        <time>2022-05-26T09:14:24Z</time>
      </trkpt>
      <trkpt lat="50.954569894820452" lon="4.800846520811319">
        <ele>32.640000000000001</ele>
        <time>2022-05-26T09:14:25Z</time>
      </trkpt>
      <trkpt lat="50.954597555100918" lon="4.8008250631392">
        <ele>32.619999999999997</ele>
        <time>2022-05-26T09:14:28Z</time>
      </trkpt>
      <trkpt lat="50.95460400916636" lon="4.800813915207982">
        <ele>32.630000000000003</ele>
        <time>2022-05-26T09:14:29Z</time>
      </trkpt>
      <trkpt lat="50.95477550290525" lon="4.800651976838708">
        <ele>34.090000000000003</ele>
        <time>2022-05-26T09:14:43Z</time>
      </trkpt>
      <trkpt lat="50.954962335526943" lon="4.80037210509181">
        <ele>35.530000000000001</ele>
        <time>2022-05-26T09:15:02Z</time>
      </trkpt>
      <trkpt lat="50.955049423500896" lon="4.800203712657094">
        <ele>35.439999999999998</ele>
        <time>2022-05-26T09:15:10Z</time>
      </trkpt>
      <trkpt lat="50.95509946346283" lon="4.800164150074124">
        <ele>36.170000000000002</ele>
        <time>2022-05-26T09:15:14Z</time>
      </trkpt>
      <trkpt lat="50.95518940128386" lon="4.800109751522541">
        <ele>36.07</ele>
        <time>2022-05-26T09:15:20Z</time>
      </trkpt>
      <trkpt lat="50.95520013011992" lon="4.800105644389987">
        <ele>36.07</ele>
        <time>2022-05-26T09:15:21Z</time>
      </trkpt>
      <trkpt lat="50.955372797325253" lon="4.799902718514204">
        <ele>38.539999999999999</ele>
        <time>2022-05-26T09:15:35Z</time>
      </trkpt>
      <trkpt lat="50.955517888069153" lon="4.799714963883162">
        <ele>39.289999999999999</ele>
        <time>2022-05-26T09:15:46Z</time>
      </trkpt>
      <trkpt lat="50.955532556399703" lon="4.799705073237419">
        <ele>39.280000000000001</ele>
        <time>2022-05-26T09:15:47Z</time>
      </trkpt>
      <trkpt lat="50.955646047368646" lon="4.799599377438426">
        <ele>39.990000000000002</ele>
        <time>2022-05-26T09:15:56Z</time>
      </trkpt>
      <trkpt lat="50.955660548061132" lon="4.799595437943935">
        <ele>40</ele>
        <time>2022-05-26T09:15:57Z</time>
      </trkpt>
      <trkpt lat="50.955675970762968" lon="4.799596024677157">
        <ele>39.990000000000002</ele>
        <time>2022-05-26T09:15:58Z</time>
      </trkpt>
      <trkpt lat="50.95569021999836" lon="4.79959174990654">
        <ele>39.979999999999997</ele>
        <time>2022-05-26T09:15:59Z</time>
      </trkpt>
      <trkpt lat="50.955708744004369" lon="4.799581188708544">
        <ele>39.979999999999997</ele>
        <time>2022-05-26T09:16:00Z</time>
      </trkpt>
      <trkpt lat="50.955899264663458" lon="4.799418160691857">
        <ele>40.710000000000001</ele>
        <time>2022-05-26T09:16:14Z</time>
      </trkpt>
      <trkpt lat="50.955861546099186" lon="4.799140552058816">
        <ele>40.659999999999997</ele>
        <time>2022-05-26T09:16:28Z</time>
      </trkpt>
      <trkpt lat="50.955764232203364" lon="4.798921532928944">
        <ele>42.490000000000002</ele>
        <time>2022-05-26T09:16:39Z</time>
      </trkpt>
      <trkpt lat="50.955635318532586" lon="4.798599751666188">
        <ele>42.450000000000003</ele>
        <time>2022-05-26T09:16:56Z</time>
      </trkpt>
      <trkpt lat="50.955499531701207" lon="4.798301104456186">
        <ele>42.450000000000003</ele>
        <time>2022-05-26T09:17:12Z</time>
      </trkpt>
      <trkpt lat="50.955419987440109" lon="4.798126677051187">
        <ele>39.990000000000002</ele>
        <time>2022-05-26T09:17:22Z</time>
      </trkpt>
      <trkpt lat="50.955408923327923" lon="4.798108404502273">
        <ele>40</ele>
        <time>2022-05-26T09:17:23Z</time>
      </trkpt>
      <trkpt lat="50.955399619415402" lon="4.798092311248183">
        <ele>40.009999999999998</ele>
        <time>2022-05-26T09:17:24Z</time>
      </trkpt>
      <trkpt lat="50.955389393493533" lon="4.798083091154695">
        <ele>40</ele>
        <time>2022-05-26T09:17:25Z</time>
      </trkpt>
      <trkpt lat="50.955378748476505" lon="4.79806968010962">
        <ele>40.009999999999998</ele>
        <time>2022-05-26T09:17:26Z</time>
      </trkpt>
      <trkpt lat="50.955368354916573" lon="4.798055598512292">
        <ele>40.020000000000003</ele>
        <time>2022-05-26T09:17:27Z</time>
      </trkpt>
      <trkpt lat="50.955360056832433" lon="4.798039337620139">
        <ele>40.020000000000003</ele>
        <time>2022-05-26T09:17:28Z</time>
      </trkpt>
      <trkpt lat="50.955353602766991" lon="4.798022238537669">
        <ele>40.020000000000003</ele>
        <time>2022-05-26T09:17:29Z</time>
      </trkpt>
      <trkpt lat="50.955240949988365" lon="4.797815624624491">
        <ele>40.090000000000003</ele>
        <time>2022-05-26T09:17:43Z</time>
      </trkpt>
      <trkpt lat="50.955096445977688" lon="4.797524185851216">
        <ele>40.140000000000001</ele>
        <time>2022-05-26T09:17:57Z</time>
      </trkpt>
      <trkpt lat="50.954932998865843" lon="4.79732452891767">
        <ele>40.200000000000003</ele>
        <time>2022-05-26T09:18:11Z</time>
      </trkpt>
      <trkpt lat="50.954821268096566" lon="4.797155885025859">
        <ele>42.659999999999997</ele>
        <time>2022-05-26T09:18:24Z</time>
      </trkpt>
      <trkpt lat="50.954814981669188" lon="4.796798899769783">
        <ele>42.770000000000003</ele>
        <time>2022-05-26T09:18:37Z</time>
      </trkpt>
      <trkpt lat="50.954795703291893" lon="4.796262457966805">
        <ele>44.75</ele>
        <time>2022-05-26T09:18:49Z</time>
      </trkpt>
      <trkpt lat="50.954786734655499" lon="4.795759879052639">
        <ele>45.82</ele>
        <time>2022-05-26T09:18:59Z</time>
      </trkpt>
      <trkpt lat="50.954763768240809" lon="4.7952991258353">
        <ele>45.899999999999999</ele>
        <time>2022-05-26T09:19:09Z</time>
      </trkpt>
      <trkpt lat="50.95473401248455" lon="4.794968375936151">
        <ele>45.93</ele>
        <time>2022-05-26T09:19:20Z</time>
      </trkpt>
      <trkpt lat="50.954727223142982" lon="4.794534780085087">
        <ele>45.990000000000002</ele>
        <time>2022-05-26T09:19:37Z</time>
      </trkpt>
      <trkpt lat="50.954714063555002" lon="4.794086683541536">
        <ele>46.909999999999997</ele>
        <time>2022-05-26T09:19:52Z</time>
      </trkpt>
      <trkpt lat="50.954715069383383" lon="4.793693907558918">
        <ele>47</ele>
        <time>2022-05-26T09:20:07Z</time>
      </trkpt>
      <trkpt lat="50.954728564247489" lon="4.793350752443075">
        <ele>47.07</ele>
        <time>2022-05-26T09:20:21Z</time>
      </trkpt>
      <trkpt lat="50.954739460721612" lon="4.793024780228734">
        <ele>47.130000000000003</ele>
        <time>2022-05-26T09:20:35Z</time>
      </trkpt>
      <trkpt lat="50.95475890673697" lon="4.792655557394028">
        <ele>47.960000000000001</ele>
        <time>2022-05-26T09:20:51Z</time>
      </trkpt>
      <trkpt lat="50.954747842624784" lon="4.792303601279855">
        <ele>48.840000000000003</ele>
        <time>2022-05-26T09:21:07Z</time>
      </trkpt>
      <trkpt lat="50.954741137102246" lon="4.791964720934629">
        <ele>48.890000000000001</ele>
        <time>2022-05-26T09:21:22Z</time>
      </trkpt>
      <trkpt lat="50.954725295305252" lon="4.791697673499584">
        <ele>51.049999999999997</ele>
        <time>2022-05-26T09:21:34Z</time>
      </trkpt>
      <trkpt lat="50.95473937690258" lon="4.791534226387739">
        <ele>51.07</ele>
        <time>2022-05-26T09:21:41Z</time>
      </trkpt>
      <trkpt lat="50.954743819311261" lon="4.791520647704601">
        <ele>51.07</ele>
        <time>2022-05-26T09:21:42Z</time>
      </trkpt>
      <trkpt lat="50.954751363024116" lon="4.791506733745337">
        <ele>51.07</ele>
        <time>2022-05-26T09:21:43Z</time>
      </trkpt>
      <trkpt lat="50.954755553975701" lon="4.791488628834486">
        <ele>51.07</ele>
        <time>2022-05-26T09:21:44Z</time>
      </trkpt>
      <trkpt lat="50.954757230356336" lon="4.791468009352684">
        <ele>51.060000000000002</ele>
        <time>2022-05-26T09:21:45Z</time>
      </trkpt>
      <trkpt lat="50.954758571460843" lon="4.791444204747677">
        <ele>51.07</ele>
        <time>2022-05-26T09:21:46Z</time>
      </trkpt>
      <trkpt lat="50.954757146537304" lon="4.791423920542002">
        <ele>51.07</ele>
        <time>2022-05-26T09:21:47Z</time>
      </trkpt>
      <trkpt lat="50.954754799604416" lon="4.79140137322247">
        <ele>51.079999999999998</ele>
        <time>2022-05-26T09:21:48Z</time>
      </trkpt>
      <trkpt lat="50.954753458499908" lon="4.791379915550351">
        <ele>51.090000000000003</ele>
        <time>2022-05-26T09:21:49Z</time>
      </trkpt>
      <trkpt lat="50.954766618087888" lon="4.791251169517636">
        <ele>51.109999999999999</ele>
        <time>2022-05-26T09:21:55Z</time>
      </trkpt>
      <trkpt lat="50.954760750755668" lon="4.7912323102355">
        <ele>51.100000000000001</ele>
        <time>2022-05-26T09:21:56Z</time>
      </trkpt>
      <trkpt lat="50.954759158194065" lon="4.791209008544684">
        <ele>51.090000000000003</ele>
        <time>2022-05-26T09:21:57Z</time>
      </trkpt>
      <trkpt lat="50.954753961414099" lon="4.791187634691596">
        <ele>51.090000000000003</ele>
        <time>2022-05-26T09:21:58Z</time>
      </trkpt>
      <trkpt lat="50.954750692471862" lon="4.791168523952365">
        <ele>51.100000000000001</ele>
        <time>2022-05-26T09:21:59Z</time>
      </trkpt>
      <trkpt lat="50.954748596996069" lon="4.791149077937007">
        <ele>51.100000000000001</ele>
        <time>2022-05-26T09:22:00Z</time>
      </trkpt>
      <trkpt lat="50.954745914787054" lon="4.791128374636173">
        <ele>51.100000000000001</ele>
        <time>2022-05-26T09:22:01Z</time>
      </trkpt>
      <trkpt lat="50.95470417290926" lon="4.790780944749713">
        <ele>51.899999999999999</ele>
        <time>2022-05-26T09:22:16Z</time>
      </trkpt>
      <trkpt lat="50.954687492921948" lon="4.790614061057568">
        <ele>51.890000000000001</ele>
        <time>2022-05-26T09:22:23Z</time>
      </trkpt>
      <trkpt lat="50.95468464307487" lon="4.790586484596133">
        <ele>51.880000000000003</ele>
        <time>2022-05-26T09:22:24Z</time>
      </trkpt>
      <trkpt lat="50.954681290313601" lon="4.790559411048889">
        <ele>51.890000000000001</ele>
        <time>2022-05-26T09:22:25Z</time>
      </trkpt>
      <trkpt lat="50.954682882875204" lon="4.790531666949391">
        <ele>51.890000000000001</ele>
        <time>2022-05-26T09:22:26Z</time>
      </trkpt>
      <trkpt lat="50.954681374132633" lon="4.790503084659576">
        <ele>51.880000000000003</ele>
        <time>2022-05-26T09:22:27Z</time>
      </trkpt>
      <trkpt lat="50.954678105190396" lon="4.790476346388459">
        <ele>51.890000000000001</ele>
        <time>2022-05-26T09:22:28Z</time>
      </trkpt>
      <trkpt lat="50.95467584207654" lon="4.790454553440213">
        <ele>51.890000000000001</ele>
        <time>2022-05-26T09:22:29Z</time>
      </trkpt>
      <trkpt lat="50.954672237858176" lon="4.790432760491967">
        <ele>51.890000000000001</ele>
        <time>2022-05-26T09:22:30Z</time>
      </trkpt>
      <trkpt lat="50.954668717458844" lon="4.790398729965091">
        <ele>51.890000000000001</ele>
        <time>2022-05-26T09:22:31Z</time>
      </trkpt>
      <trkpt lat="50.954669723287225" lon="4.790374087169766">
        <ele>51.890000000000001</ele>
        <time>2022-05-26T09:22:32Z</time>
      </trkpt>
      <trkpt lat="50.954671399667859" lon="4.79034885764122">
        <ele>51.890000000000001</ele>
        <time>2022-05-26T09:22:33Z</time>
      </trkpt>
      <trkpt lat="50.954620437696576" lon="4.789941916242242">
        <ele>51.920000000000002</ele>
        <time>2022-05-26T09:22:47Z</time>
      </trkpt>
      <trkpt lat="50.954590430483222" lon="4.789582332596183">
        <ele>52.740000000000002</ele>
        <time>2022-05-26T09:23:02Z</time>
      </trkpt>
      <trkpt lat="50.954561177641153" lon="4.789200704544783">
        <ele>52.810000000000002</ele>
        <time>2022-05-26T09:23:18Z</time>
      </trkpt>
      <trkpt lat="50.954593699425459" lon="4.787795394659042">
        <ele>55.109999999999999</ele>
        <time>2022-05-26T09:24:21Z</time>
      </trkpt>
      <trkpt lat="50.954597303643823" lon="4.787775948643684">
        <ele>55.109999999999999</ele>
        <time>2022-05-26T09:24:22Z</time>
      </trkpt>
      <trkpt lat="50.954636698588729" lon="4.787439834326506">
        <ele>55.159999999999997</ele>
        <time>2022-05-26T09:24:37Z</time>
      </trkpt>
      <trkpt lat="50.954646337777376" lon="4.7870256844908">
        <ele>55.240000000000002</ele>
        <time>2022-05-26T09:24:54Z</time>
      </trkpt>
      <trkpt lat="50.954634686931968" lon="4.786727372556925">
        <ele>55.289999999999999</ele>
        <time>2022-05-26T09:25:07Z</time>
      </trkpt>
      <trkpt lat="50.954627813771367" lon="4.786402238532901">
        <ele>56.18</ele>
        <time>2022-05-26T09:25:21Z</time>
      </trkpt>
      <trkpt lat="50.954634603112936" lon="4.786007283255458">
        <ele>56.259999999999998</ele>
        <time>2022-05-26T09:25:37Z</time>
      </trkpt>
      <trkpt lat="50.954635106027126" lon="4.785922123119235">
        <ele>56.270000000000003</ele>
        <time>2022-05-26T09:25:40Z</time>
      </trkpt>
      <trkpt lat="50.954639464616776" lon="4.785899827256799">
        <ele>56.270000000000003</ele>
        <time>2022-05-26T09:25:41Z</time>
      </trkpt>
      <trkpt lat="50.954641560092568" lon="4.785875771194696">
        <ele>56.280000000000001</ele>
        <time>2022-05-26T09:25:42Z</time>
      </trkpt>
      <trkpt lat="50.954667963087559" lon="4.785596318542957">
        <ele>56.329999999999998</ele>
        <time>2022-05-26T09:25:55Z</time>
      </trkpt>
      <trkpt lat="50.954667963087559" lon="4.78557444177568">
        <ele>56.329999999999998</ele>
        <time>2022-05-26T09:25:56Z</time>
      </trkpt>
      <trkpt lat="50.95466653816402" lon="4.785550972446799">
        <ele>56.329999999999998</ele>
        <time>2022-05-26T09:25:57Z</time>
      </trkpt>
      <trkpt lat="50.954666454344988" lon="4.785526245832443">
        <ele>56.340000000000003</ele>
        <time>2022-05-26T09:25:58Z</time>
      </trkpt>
      <trkpt lat="50.954669388011098" lon="4.785502357408404">
        <ele>56.340000000000003</ele>
        <time>2022-05-26T09:25:59Z</time>
      </trkpt>
      <trkpt lat="50.954671148210764" lon="4.785479055717588">
        <ele>56.340000000000003</ele>
        <time>2022-05-26T09:26:00Z</time>
      </trkpt>
      <trkpt lat="50.954672992229462" lon="4.785456424579024">
        <ele>56.340000000000003</ele>
        <time>2022-05-26T09:26:01Z</time>
      </trkpt>
      <trkpt lat="50.95467290841043" lon="4.785436308011413">
        <ele>56.350000000000001</ele>
        <time>2022-05-26T09:26:02Z</time>
      </trkpt>
      <trkpt lat="50.954670812934637" lon="4.785410827025771">
        <ele>56.350000000000001</ele>
        <time>2022-05-26T09:26:03Z</time>
      </trkpt>
      <trkpt lat="50.954664191231132" lon="4.785387273877859">
        <ele>56.350000000000001</ele>
        <time>2022-05-26T09:26:04Z</time>
      </trkpt>
      <trkpt lat="50.954655222594738" lon="4.785372102633119">
        <ele>56.359999999999999</ele>
        <time>2022-05-26T09:26:05Z</time>
      </trkpt>
      <trkpt lat="50.954604931175709" lon="4.785321392118931">
        <ele>56.369999999999997</ele>
        <time>2022-05-26T09:26:09Z</time>
      </trkpt>
      <trkpt lat="50.954585820436478" lon="4.785305466502905">
        <ele>56.380000000000003</ele>
        <time>2022-05-26T09:26:10Z</time>
      </trkpt>
      <trkpt lat="50.954314582049847" lon="4.785253079608083">
        <ele>56.420000000000002</ele>
        <time>2022-05-26T09:26:25Z</time>
      </trkpt>
      <trkpt lat="50.954091958701611" lon="4.785278057679534">
        <ele>56.439999999999998</ele>
        <time>2022-05-26T09:26:38Z</time>
      </trkpt>
      <trkpt lat="50.953936642035842" lon="4.78524754755199">
        <ele>56.43</ele>
        <time>2022-05-26T09:26:47Z</time>
      </trkpt>
      <trkpt lat="50.953920632600784" lon="4.785245368257165">
        <ele>56.43</ele>
        <time>2022-05-26T09:26:48Z</time>
      </trkpt>
      <trkpt lat="50.953696416690946" lon="4.785222904756665">
        <ele>56.43</ele>
        <time>2022-05-26T09:27:02Z</time>
      </trkpt>
      <trkpt lat="50.953454934060574" lon="4.785141851752996">
        <ele>56.43</ele>
        <time>2022-05-26T09:27:18Z</time>
      </trkpt>
      <trkpt lat="50.953396763652563" lon="4.785110000520945">
        <ele>56.450000000000003</ele>
        <time>2022-05-26T09:27:25Z</time>
      </trkpt>
      <trkpt lat="50.95337362959981" lon="4.784959042444825">
        <ele>56.460000000000001</ele>
        <time>2022-05-26T09:27:32Z</time>
      </trkpt>
      <trkpt lat="50.953375138342381" lon="4.784931298345327">
        <ele>56.450000000000003</ele>
        <time>2022-05-26T09:27:33Z</time>
      </trkpt>
      <trkpt lat="50.953375976532698" lon="4.78490456007421">
        <ele>56.460000000000001</ele>
        <time>2022-05-26T09:27:34Z</time>
      </trkpt>
      <trkpt lat="50.953376479446888" lon="4.784833732992411">
        <ele>56.469999999999999</ele>
        <time>2022-05-26T09:27:37Z</time>
      </trkpt>
      <trkpt lat="50.953375305980444" lon="4.784811604768038">
        <ele>56.469999999999999</ele>
        <time>2022-05-26T09:27:38Z</time>
      </trkpt>
      <trkpt lat="50.953375473618507" lon="4.784788219258189">
        <ele>56.469999999999999</ele>
        <time>2022-05-26T09:27:39Z</time>
      </trkpt>
      <trkpt lat="50.953375641256571" lon="4.784754440188408">
        <ele>56.479999999999997</ele>
        <time>2022-05-26T09:27:40Z</time>
      </trkpt>
      <trkpt lat="50.953376647084951" lon="4.784722505137324">
        <ele>56.479999999999997</ele>
        <time>2022-05-26T09:27:41Z</time>
      </trkpt>
      <trkpt lat="50.953377149999142" lon="4.784694258123636">
        <ele>56.479999999999997</ele>
        <time>2022-05-26T09:27:42Z</time>
      </trkpt>
      <trkpt lat="50.953421071171761" lon="4.784278851002455">
        <ele>56.479999999999997</ele>
        <time>2022-05-26T09:27:57Z</time>
      </trkpt>
      <trkpt lat="50.953456358984113" lon="4.783829748630524">
        <ele>56.490000000000002</ele>
        <time>2022-05-26T09:28:13Z</time>
      </trkpt>
      <trkpt lat="50.953477984294295" lon="4.783446108922362">
        <ele>56.509999999999998</ele>
        <time>2022-05-26T09:28:28Z</time>
      </trkpt>
      <trkpt lat="50.95351436175406" lon="4.782914025709033">
        <ele>56.530000000000001</ele>
        <time>2022-05-26T09:28:40Z</time>
      </trkpt>
      <trkpt lat="50.953513775020838" lon="4.782459810376167">
        <ele>57.450000000000003</ele>
        <time>2022-05-26T09:28:51Z</time>
      </trkpt>
      <trkpt lat="50.953492233529687" lon="4.781935522332788">
        <ele>58.289999999999999</ele>
        <time>2022-05-26T09:29:02Z</time>
      </trkpt>
      <trkpt lat="50.953478068113327" lon="4.781400337815285">
        <ele>59.18</ele>
        <time>2022-05-26T09:29:13Z</time>
      </trkpt>
      <trkpt lat="50.953446133062243" lon="4.781004125252366">
        <ele>59.130000000000003</ele>
        <time>2022-05-26T09:29:23Z</time>
      </trkpt>
      <trkpt lat="50.953386621549726" lon="4.780617300421">
        <ele>59.979999999999997</ele>
        <time>2022-05-26T09:29:29Z</time>
      </trkpt>
      <trkpt lat="50.953211020678282" lon="4.779880279675126">
        <ele>60.960000000000001</ele>
        <time>2022-05-26T09:29:38Z</time>
      </trkpt>
      <trkpt lat="50.953186796978116" lon="4.779798639938235">
        <ele>61.93</ele>
        <time>2022-05-26T09:29:39Z</time>
      </trkpt>
      <trkpt lat="50.95295931212604" lon="4.778826422989368">
        <ele>62.789999999999999</ele>
        <time>2022-05-26T09:29:51Z</time>
      </trkpt>
      <trkpt lat="50.952884880825877" lon="4.778432976454496">
        <ele>63.759999999999998</ele>
        <time>2022-05-26T09:29:56Z</time>
      </trkpt>
      <trkpt lat="50.952850179746747" lon="4.778292076662183">
        <ele>64.5</ele>
        <time>2022-05-26T09:29:58Z</time>
      </trkpt>
      <trkpt lat="50.952647253870964" lon="4.777477523311973">
        <ele>64.469999999999999</ele>
        <time>2022-05-26T09:30:09Z</time>
      </trkpt>
      <trkpt lat="50.952615235000849" lon="4.777235956862569">
        <ele>64.450000000000003</ele>
        <time>2022-05-26T09:30:12Z</time>
      </trkpt>
      <trkpt lat="50.952513478696346" lon="4.776603123173118">
        <ele>64.409999999999997</ele>
        <time>2022-05-26T09:30:22Z</time>
      </trkpt>
      <trkpt lat="50.952506689354777" lon="4.776563225314021">
        <ele>64.409999999999997</ele>
        <time>2022-05-26T09:30:23Z</time>
      </trkpt>
      <trkpt lat="50.952501408755779" lon="4.776522070169449">
        <ele>64.409999999999997</ele>
        <time>2022-05-26T09:30:24Z</time>
      </trkpt>
      <trkpt lat="50.9524848125875" lon="4.776457361876965">
        <ele>64.409999999999997</ele>
        <time>2022-05-26T09:30:25Z</time>
      </trkpt>
      <trkpt lat="50.95247458666563" lon="4.776410171762109">
        <ele>64.400000000000006</ele>
        <time>2022-05-26T09:30:26Z</time>
      </trkpt>
      <trkpt lat="50.952472239732742" lon="4.776372872292996">
        <ele>64.400000000000006</ele>
        <time>2022-05-26T09:30:27Z</time>
      </trkpt>
      <trkpt lat="50.952395377680659" lon="4.776031980291009">
        <ele>64.400000000000006</ele>
        <time>2022-05-26T09:30:38Z</time>
      </trkpt>
      <trkpt lat="50.95234994776547" lon="4.775944137945771">
        <ele>64.390000000000001</ele>
        <time>2022-05-26T09:30:51Z</time>
      </trkpt>
      <trkpt lat="50.95232798717916" lon="4.775873310863972">
        <ele>64.349999999999994</ele>
        <time>2022-05-26T09:31:17Z</time>
      </trkpt>
      <trkpt lat="50.95235682092607" lon="4.775872053578496">
        <ele>64.340000000000003</ele>
        <time>2022-05-26T09:31:24Z</time>
      </trkpt>
      <trkpt lat="50.952357491478324" lon="4.775883369147778">
        <ele>64.340000000000003</ele>
        <time>2022-05-26T09:31:25Z</time>
      </trkpt>
      <trkpt lat="50.952353635802865" lon="4.775894600898027">
        <ele>64.349999999999994</ele>
        <time>2022-05-26T09:31:26Z</time>
      </trkpt>
      <trkpt lat="50.95232748426497" lon="4.77588202804327">
        <ele>64.349999999999994</ele>
        <time>2022-05-26T09:31:40Z</time>
      </trkpt>
      <trkpt lat="50.952329328283668" lon="4.77587616071105">
        <ele>64.359999999999999</ele>
        <time>2022-05-26T09:32:01Z</time>
      </trkpt>
      <trkpt lat="50.952320108190179" lon="4.775858893990517">
        <ele>64.370000000000005</ele>
        <time>2022-05-26T09:32:29Z</time>
      </trkpt>
      <trkpt lat="50.952316587790847" lon="4.775858139619231">
        <ele>64.370000000000005</ele>
        <time>2022-05-26T09:32:55Z</time>
      </trkpt>
      <trkpt lat="50.952319353818893" lon="4.775852942839265">
        <ele>64.370000000000005</ele>
        <time>2022-05-26T09:33:21Z</time>
      </trkpt>
      <trkpt lat="50.952313989400864" lon="4.775860570371151">
        <ele>64.370000000000005</ele>
        <time>2022-05-26T09:33:52Z</time>
      </trkpt>
      <trkpt lat="50.952300829812884" lon="4.775814805179834">
        <ele>64.370000000000005</ele>
        <time>2022-05-26T09:34:03Z</time>
      </trkpt>
      <trkpt lat="50.95225665718317" lon="4.775552619248629">
        <ele>64.370000000000005</ele>
        <time>2022-05-26T09:34:09Z</time>
      </trkpt>
      <trkpt lat="50.952224554494023" lon="4.77539143525064">
        <ele>61.770000000000003</ele>
        <time>2022-05-26T09:34:11Z</time>
      </trkpt>
      <trkpt lat="50.952011905610561" lon="4.774404298514128">
        <ele>61.759999999999998</ele>
        <time>2022-05-26T09:34:23Z</time>
      </trkpt>
      <trkpt lat="50.951970666646957" lon="4.77425686083734">
        <ele>61.759999999999998</ele>
        <time>2022-05-26T09:34:25Z</time>
      </trkpt>
      <trkpt lat="50.951951639726758" lon="4.774178741499782">
        <ele>61.759999999999998</ele>
        <time>2022-05-26T09:34:26Z</time>
      </trkpt>
      <trkpt lat="50.951918363571167" lon="4.774032644927502">
        <ele>61.840000000000003</ele>
        <time>2022-05-26T09:34:28Z</time>
      </trkpt>
      <trkpt lat="50.951874693855643" lon="4.773812787607312">
        <ele>61.759999999999998</ele>
        <time>2022-05-26T09:34:31Z</time>
      </trkpt>
      <trkpt lat="50.951854661107063" lon="4.773740284144878">
        <ele>61.869999999999997</ele>
        <time>2022-05-26T09:34:32Z</time>
      </trkpt>
      <trkpt lat="50.951788863167167" lon="4.773430656641722">
        <ele>64.099999999999994</ele>
        <time>2022-05-26T09:34:36Z</time>
      </trkpt>
      <trkpt lat="50.951581327244639" lon="4.772474868223071">
        <ele>64.969999999999999</ele>
        <time>2022-05-26T09:34:48Z</time>
      </trkpt>
      <trkpt lat="50.951555678620934" lon="4.772390965372324">
        <ele>64.920000000000002</ele>
        <time>2022-05-26T09:34:49Z</time>
      </trkpt>
      <trkpt lat="50.95141670666635" lon="4.771808004006743">
        <ele>64.909999999999997</ele>
        <time>2022-05-26T09:34:56Z</time>
      </trkpt>
      <trkpt lat="50.951298689469695" lon="4.771182462573052">
        <ele>64.890000000000001</ele>
        <time>2022-05-26T09:35:03Z</time>
      </trkpt>
      <trkpt lat="50.951243285089731" lon="4.77103284560144">
        <ele>64.900000000000006</ele>
        <time>2022-05-26T09:35:05Z</time>
      </trkpt>
      <trkpt lat="50.951208332553506" lon="4.770960593596101">
        <ele>64.890000000000001</ele>
        <time>2022-05-26T09:35:06Z</time>
      </trkpt>
      <trkpt lat="50.951172122731805" lon="4.770896220579743">
        <ele>64.870000000000005</ele>
        <time>2022-05-26T09:35:07Z</time>
      </trkpt>
      <trkpt lat="50.951139600947499" lon="4.77083595469594">
        <ele>64.859999999999999</ele>
        <time>2022-05-26T09:35:08Z</time>
      </trkpt>
      <trkpt lat="50.951106073334813" lon="4.770774934440851">
        <ele>64.859999999999999</ele>
        <time>2022-05-26T09:35:09Z</time>
      </trkpt>
      <trkpt lat="50.951070198789239" lon="4.770714920014143">
        <ele>64.769999999999996</ele>
        <time>2022-05-26T09:35:10Z</time>
      </trkpt>
      <trkpt lat="50.950950002297759" lon="4.77054426446557">
        <ele>62.369999999999997</ele>
        <time>2022-05-26T09:35:14Z</time>
      </trkpt>
      <trkpt lat="50.950873894616961" lon="4.770314348861575">
        <ele>62.329999999999998</ele>
        <time>2022-05-26T09:35:21Z</time>
      </trkpt>
      <trkpt lat="50.950877498835325" lon="4.770291717723012">
        <ele>62.200000000000003</ele>
        <time>2022-05-26T09:35:22Z</time>
      </trkpt>
      <trkpt lat="50.950881941244006" lon="4.770271936431527">
        <ele>62.200000000000003</ele>
        <time>2022-05-26T09:35:23Z</time>
      </trkpt>
      <trkpt lat="50.950888143852353" lon="4.77025156840682">
        <ele>62.189999999999998</ele>
        <time>2022-05-26T09:35:24Z</time>
      </trkpt>
      <trkpt lat="50.950893592089415" lon="4.770228015258908">
        <ele>62.329999999999998</ele>
        <time>2022-05-26T09:35:25Z</time>
      </trkpt>
      <trkpt lat="50.950900381430984" lon="4.770205719396472">
        <ele>62.210000000000001</ele>
        <time>2022-05-26T09:35:26Z</time>
      </trkpt>
      <trkpt lat="50.950909266248345" lon="4.770185016095638">
        <ele>62.32</ele>
        <time>2022-05-26T09:35:27Z</time>
      </trkpt>
      <trkpt lat="50.950913541018963" lon="4.770148973912001">
        <ele>62.189999999999998</ele>
        <time>2022-05-26T09:35:28Z</time>
      </trkpt>
      <trkpt lat="50.951114539057016" lon="4.769871449097991">
        <ele>60.549999999999997</ele>
        <time>2022-05-26T09:35:45Z</time>
      </trkpt>
      <trkpt lat="50.95133556984365" lon="4.769612532109022">
        <ele>59.579999999999998</ele>
        <time>2022-05-26T09:36:03Z</time>
      </trkpt>
      <trkpt lat="50.951563222333789" lon="4.769415473565459">
        <ele>58.079999999999998</ele>
        <time>2022-05-26T09:36:20Z</time>
      </trkpt>
      <trkpt lat="50.951822474598885" lon="4.76921078749001">
        <ele>55.469999999999999</ele>
        <time>2022-05-26T09:36:40Z</time>
      </trkpt>
      <trkpt lat="50.951967565342784" lon="4.769039377570152">
        <ele>53.670000000000002</ele>
        <time>2022-05-26T09:36:54Z</time>
      </trkpt>
      <trkpt lat="50.95220142044127" lon="4.768852796405554">
        <ele>52.079999999999998</ele>
        <time>2022-05-26T09:37:09Z</time>
      </trkpt>
      <trkpt lat="50.952473413199186" lon="4.768633358180523">
        <ele>50.189999999999998</ele>
        <time>2022-05-26T09:37:26Z</time>
      </trkpt>
      <trkpt lat="50.95260894857347" lon="4.768475359305739">
        <ele>49.289999999999999</ele>
        <time>2022-05-26T09:37:38Z</time>
      </trkpt>
      <trkpt lat="50.952611295506358" lon="4.768455578014255">
        <ele>49.270000000000003</ele>
        <time>2022-05-26T09:37:39Z</time>
      </trkpt>
      <trkpt lat="50.952610122039914" lon="4.768438311293721">
        <ele>49.289999999999999</ele>
        <time>2022-05-26T09:37:40Z</time>
      </trkpt>
      <trkpt lat="50.952602494508028" lon="4.768283665180206">
        <ele>48.479999999999997</ele>
        <time>2022-05-26T09:37:56Z</time>
      </trkpt>
      <trkpt lat="50.952510042116046" lon="4.768002536147833">
        <ele>48.439999999999998</ele>
        <time>2022-05-26T09:38:15Z</time>
      </trkpt>
      <trkpt lat="50.95242035575211" lon="4.767572628334165">
        <ele>48.170000000000002</ele>
        <time>2022-05-26T09:38:29Z</time>
      </trkpt>
      <trkpt lat="50.952457403764129" lon="4.767403230071068">
        <ele>46.920000000000002</ele>
        <time>2022-05-26T09:38:41Z</time>
      </trkpt>
      <trkpt lat="50.952458074316382" lon="4.767228718847036">
        <ele>43.899999999999999</ele>
        <time>2022-05-26T09:38:55Z</time>
      </trkpt>
      <trkpt lat="50.952471317723393" lon="4.767141630873084">
        <ele>40.219999999999999</ele>
        <time>2022-05-26T09:39:08Z</time>
      </trkpt>
      <trkpt lat="50.952480956912041" lon="4.767046831548214">
        <ele>36.399999999999999</ele>
        <time>2022-05-26T09:39:22Z</time>
      </trkpt>
      <trkpt lat="50.952521357685328" lon="4.767050938680768">
        <ele>33.270000000000003</ele>
        <time>2022-05-26T09:39:33Z</time>
      </trkpt>
      <trkpt lat="50.952847497537732" lon="4.767081532627344">
        <ele>31.550000000000001</ele>
        <time>2022-05-26T09:39:45Z</time>
      </trkpt>
      <trkpt lat="50.952933914959431" lon="4.767069881781936">
        <ele>30.75</ele>
        <time>2022-05-26T09:39:48Z</time>
      </trkpt>
      <trkpt lat="50.952985128387809" lon="4.767067953944206">
        <ele>30.890000000000001</ele>
        <time>2022-05-26T09:39:50Z</time>
      </trkpt>
      <trkpt lat="50.953017482534051" lon="4.767060242593288">
        <ele>30.690000000000001</ele>
        <time>2022-05-26T09:39:51Z</time>
      </trkpt>
      <trkpt lat="50.953450575470924" lon="4.767043059691787">
        <ele>26.93</ele>
        <time>2022-05-26T09:40:11Z</time>
      </trkpt>
      <trkpt lat="50.953664565458894" lon="4.767065271735191">
        <ele>23.91</ele>
        <time>2022-05-26T09:40:30Z</time>
      </trkpt>
      <trkpt lat="50.953699769452214" lon="4.767088489606977">
        <ele>23.829999999999998</ele>
        <time>2022-05-26T09:40:34Z</time>
      </trkpt>
      <trkpt lat="50.95379238948226" lon="4.767356878146529">
        <ele>22.73</ele>
        <time>2022-05-26T09:40:54Z</time>
      </trkpt>
      <trkpt lat="50.953910322859883" lon="4.767756946384907">
        <ele>22.190000000000001</ele>
        <time>2022-05-26T09:41:14Z</time>
      </trkpt>
      <trkpt lat="50.954168317839503" lon="4.768063053488731">
        <ele>21.57</ele>
        <time>2022-05-26T09:41:35Z</time>
      </trkpt>
      <trkpt lat="50.954388761892915" lon="4.768446106463671">
        <ele>21.02</ele>
        <time>2022-05-26T09:41:54Z</time>
      </trkpt>
      <trkpt lat="50.954564781859517" lon="4.768736036494374">
        <ele>19.82</ele>
        <time>2022-05-26T09:42:12Z</time>
      </trkpt>
      <trkpt lat="50.954681541770697" lon="4.769122274592519">
        <ele>19.25</ele>
        <time>2022-05-26T09:42:32Z</time>
      </trkpt>
      <trkpt lat="50.954961162060499" lon="4.769525695592165">
        <ele>18.739999999999998</ele>
        <time>2022-05-26T09:42:49Z</time>
      </trkpt>
      <trkpt lat="50.955007513985038" lon="4.769586129114032">
        <ele>17.93</ele>
        <time>2022-05-26T09:42:51Z</time>
      </trkpt>
      <trkpt lat="50.955105582252145" lon="4.769774554297328">
        <ele>17.640000000000001</ele>
        <time>2022-05-26T09:43:03Z</time>
      </trkpt>
      <trkpt lat="50.955176241695881" lon="4.76977463811636">
        <ele>16.59</ele>
        <time>2022-05-26T09:43:09Z</time>
      </trkpt>
      <trkpt lat="50.955450413748622" lon="4.769737757742405">
        <ele>14.59</ele>
        <time>2022-05-26T09:43:26Z</time>
      </trkpt>
      <trkpt lat="50.955507326871157" lon="4.76973406970501">
        <ele>14.52</ele>
        <time>2022-05-26T09:43:30Z</time>
      </trkpt>
      <trkpt lat="50.955588966608047" lon="4.769988544285297">
        <ele>14.27</ele>
        <time>2022-05-26T09:43:43Z</time>
      </trkpt>
      <trkpt lat="50.955620398744941" lon="4.770354498177767">
        <ele>13.92</ele>
        <time>2022-05-26T09:43:59Z</time>
      </trkpt>
      <trkpt lat="50.955693405121565" lon="4.770656665787101">
        <ele>13.65</ele>
        <time>2022-05-26T09:44:12Z</time>
      </trkpt>
      <trkpt lat="50.955830030143261" lon="4.77080661803484">
        <ele>13.460000000000001</ele>
        <time>2022-05-26T09:44:19Z</time>
      </trkpt>
      <trkpt lat="50.95591988414526" lon="4.770903596654534">
        <ele>13.33</ele>
        <time>2022-05-26T09:44:24Z</time>
      </trkpt>
      <trkpt lat="50.956046869978309" lon="4.771307604387403">
        <ele>13.09</ele>
        <time>2022-05-26T09:44:40Z</time>
      </trkpt>
      <trkpt lat="50.956096407026052" lon="4.771345155313611">
        <ele>13.07</ele>
        <time>2022-05-26T09:44:42Z</time>
      </trkpt>
      <trkpt lat="50.956285167485476" lon="4.77171647362411">
        <ele>12.94</ele>
        <time>2022-05-26T09:44:58Z</time>
      </trkpt>
      <trkpt lat="50.956395976245403" lon="4.771910179406405">
        <ele>12.93</ele>
        <time>2022-05-26T09:45:09Z</time>
      </trkpt>
      <trkpt lat="50.956477448344231" lon="4.772177143022418">
        <ele>12.970000000000001</ele>
        <time>2022-05-26T09:45:22Z</time>
      </trkpt>
      <trkpt lat="50.956635698676109" lon="4.772541085258126">
        <ele>12.99</ele>
        <time>2022-05-26T09:45:40Z</time>
      </trkpt>
      <trkpt lat="50.956757487729192" lon="4.772769073024392">
        <ele>12.26</ele>
        <time>2022-05-26T09:45:54Z</time>
      </trkpt>
      <trkpt lat="50.956837618723512" lon="4.772936291992664">
        <ele>12.33</ele>
        <time>2022-05-26T09:46:04Z</time>
      </trkpt>
      <trkpt lat="50.956953037530184" lon="4.773379862308502">
        <ele>12.390000000000001</ele>
        <time>2022-05-26T09:46:24Z</time>
      </trkpt>
      <trkpt lat="50.95701296813786" lon="4.773567533120513">
        <ele>12.41</ele>
        <time>2022-05-26T09:46:32Z</time>
      </trkpt>
      <trkpt lat="50.957038952037692" lon="4.773725531995297">
        <ele>12.44</ele>
        <time>2022-05-26T09:46:39Z</time>
      </trkpt>
      <trkpt lat="50.957097876816988" lon="4.77408729493618">
        <ele>12.460000000000001</ele>
        <time>2022-05-26T09:46:56Z</time>
      </trkpt>
      <trkpt lat="50.957124782726169" lon="4.774194080382586">
        <ele>12.44</ele>
        <time>2022-05-26T09:47:01Z</time>
      </trkpt>
      <trkpt lat="50.957232657819986" lon="4.774604793637991">
        <ele>12.51</ele>
        <time>2022-05-26T09:47:20Z</time>
      </trkpt>
      <trkpt lat="50.957245565950871" lon="4.774817191064358">
        <ele>12.59</ele>
        <time>2022-05-26T09:47:29Z</time>
      </trkpt>
      <trkpt lat="50.957245230674744" lon="4.774861531332135">
        <ele>12.6</ele>
        <time>2022-05-26T09:47:31Z</time>
      </trkpt>
      <trkpt lat="50.957312621176243" lon="4.775187000632286">
        <ele>12.619999999999999</ele>
        <time>2022-05-26T09:47:45Z</time>
      </trkpt>
      <trkpt lat="50.957315806299448" lon="4.775210218504071">
        <ele>12.619999999999999</ele>
        <time>2022-05-26T09:47:46Z</time>
      </trkpt>
      <trkpt lat="50.957341706380248" lon="4.775288421660662">
        <ele>12.619999999999999</ele>
        <time>2022-05-26T09:47:50Z</time>
      </trkpt>
      <trkpt lat="50.95734229311347" lon="4.775442397221923">
        <ele>12.619999999999999</ele>
        <time>2022-05-26T09:47:56Z</time>
      </trkpt>
      <trkpt lat="50.957417981699109" lon="4.77580432780087">
        <ele>12.65</ele>
        <time>2022-05-26T09:48:13Z</time>
      </trkpt>
      <trkpt lat="50.957442289218307" lon="4.775977749377489">
        <ele>12.65</ele>
        <time>2022-05-26T09:48:20Z</time>
      </trkpt>
      <trkpt lat="50.957492664456367" lon="4.776144130155444">
        <ele>14.890000000000001</ele>
        <time>2022-05-26T09:48:27Z</time>
      </trkpt>
      <trkpt lat="50.957550583407283" lon="4.776395335793495">
        <ele>14.890000000000001</ele>
        <time>2022-05-26T09:48:40Z</time>
      </trkpt>
      <trkpt lat="50.9576809220016" lon="4.776595663279295">
        <ele>14.859999999999999</ele>
        <time>2022-05-26T09:48:53Z</time>
      </trkpt>
      <trkpt lat="50.957694333046675" lon="4.776629861444235">
        <ele>14.859999999999999</ele>
        <time>2022-05-26T09:48:55Z</time>
      </trkpt>
      <trkpt lat="50.957763735204935" lon="4.776682583615184">
        <ele>14.85</ele>
        <time>2022-05-26T09:48:59Z</time>
      </trkpt>
      <trkpt lat="50.957950986921787" lon="4.77691937237978">
        <ele>16.329999999999998</ele>
        <time>2022-05-26T09:49:13Z</time>
      </trkpt>
      <trkpt lat="50.95811334438622" lon="4.777169153094292">
        <ele>16.32</ele>
        <time>2022-05-26T09:49:29Z</time>
      </trkpt>
      <trkpt lat="50.958202863112092" lon="4.777393033728004">
        <ele>16.219999999999999</ele>
        <time>2022-05-26T09:49:41Z</time>
      </trkpt>
      <trkpt lat="50.95829900354147" lon="4.777730908244848">
        <ele>16.079999999999998</ele>
        <time>2022-05-26T09:49:59Z</time>
      </trkpt>
      <trkpt lat="50.958345187827945" lon="4.777963254600763">
        <ele>15.94</ele>
        <time>2022-05-26T09:50:12Z</time>
      </trkpt>
      <trkpt lat="50.958384331315756" lon="4.778351252898574">
        <ele>15.720000000000001</ele>
        <time>2022-05-26T09:50:29Z</time>
      </trkpt>
      <trkpt lat="50.958490194752812" lon="4.77860908024013">
        <ele>15.550000000000001</ele>
        <time>2022-05-26T09:50:40Z</time>
      </trkpt>
      <trkpt lat="50.958489272743464" lon="4.778649732470512">
        <ele>13.210000000000001</ele>
        <time>2022-05-26T09:50:42Z</time>
      </trkpt>
      <trkpt lat="50.958548616617918" lon="4.778959192335606">
        <ele>13.01</ele>
        <time>2022-05-26T09:50:56Z</time>
      </trkpt>
      <trkpt lat="50.958639224991202" lon="4.779177121818066">
        <ele>12.039999999999999</ele>
        <time>2022-05-26T09:51:09Z</time>
      </trkpt>
      <trkpt lat="50.95868457108736" lon="4.779220037162304">
        <ele>12</ele>
        <time>2022-05-26T09:51:13Z</time>
      </trkpt>
      <trkpt lat="50.958705190569162" lon="4.779417682439089">
        <ele>11.84</ele>
        <time>2022-05-26T09:51:26Z</time>
      </trkpt>
      <trkpt lat="50.958674261346459" lon="4.779518265277147">
        <ele>11.779999999999999</ele>
        <time>2022-05-26T09:51:32Z</time>
      </trkpt>
      <trkpt lat="50.958644589409232" lon="4.779558163136244">
        <ele>14.130000000000001</ele>
        <time>2022-05-26T09:51:35Z</time>
      </trkpt>
      <trkpt lat="50.958644170314074" lon="4.779592277482152">
        <ele>14.109999999999999</ele>
        <time>2022-05-26T09:51:36Z</time>
      </trkpt>
      <trkpt lat="50.958574349060655" lon="4.779747594147921">
        <ele>14.9</ele>
        <time>2022-05-26T09:51:46Z</time>
      </trkpt>
      <trkpt lat="50.958322556689382" lon="4.780020928010345">
        <ele>17.129999999999999</ele>
        <time>2022-05-26T09:52:01Z</time>
      </trkpt>
      <trkpt lat="50.958270840346813" lon="4.78007691912353">
        <ele>17.010000000000002</ele>
        <time>2022-05-26T09:52:05Z</time>
      </trkpt>
      <trkpt lat="50.958069087937474" lon="4.780251681804657">
        <ele>20.02</ele>
        <time>2022-05-26T09:52:22Z</time>
      </trkpt>
      <trkpt lat="50.957842692732811" lon="4.780446477234364">
        <ele>22.079999999999998</ele>
        <time>2022-05-26T09:52:36Z</time>
      </trkpt>
      <trkpt lat="50.957752503454685" lon="4.780525350943208">
        <ele>22.77</ele>
        <time>2022-05-26T09:52:41Z</time>
      </trkpt>
      <trkpt lat="50.957535412162542" lon="4.780601793900132">
        <ele>25.460000000000001</ele>
        <time>2022-05-26T09:52:58Z</time>
      </trkpt>
      <trkpt lat="50.9573442209512" lon="4.78080983273685">
        <ele>27.989999999999998</ele>
        <time>2022-05-26T09:53:18Z</time>
      </trkpt>
      <trkpt lat="50.957054877653718" lon="4.780943524092436">
        <ele>30.719999999999999</ele>
        <time>2022-05-26T09:53:38Z</time>
      </trkpt>
      <trkpt lat="50.956615079194307" lon="4.781085764989257">
        <ele>32.939999999999998</ele>
        <time>2022-05-26T09:54:03Z</time>
      </trkpt>
      <trkpt lat="50.95659663900733" lon="4.781089285388589">
        <ele>32.890000000000001</ele>
        <time>2022-05-26T09:54:04Z</time>
      </trkpt>
      <trkpt lat="50.956530841067433" lon="4.781138151884079">
        <ele>33.57</ele>
        <time>2022-05-26T09:54:09Z</time>
      </trkpt>
      <trkpt lat="50.956413745880127" lon="4.781545931473374">
        <ele>32.840000000000003</ele>
        <time>2022-05-26T09:54:23Z</time>
      </trkpt>
      <trkpt lat="50.956411818042397" lon="4.781650369986892">
        <ele>32.600000000000001</ele>
        <time>2022-05-26T09:54:28Z</time>
      </trkpt>
      <trkpt lat="50.956323137506843" lon="4.781625056639314">
        <ele>32.810000000000002</ele>
        <time>2022-05-26T09:54:42Z</time>
      </trkpt>
      <trkpt lat="50.956118367612362" lon="4.781675599515438">
        <ele>33.060000000000002</ele>
        <time>2022-05-26T09:54:56Z</time>
      </trkpt>
      <trkpt lat="50.956010492518544" lon="4.781686076894403">
        <ele>32.780000000000001</ele>
        <time>2022-05-26T09:55:04Z</time>
      </trkpt>
      <trkpt lat="50.955952489748597" lon="4.78165271691978">
        <ele>32.659999999999997</ele>
        <time>2022-05-26T09:55:08Z</time>
      </trkpt>
      <trkpt lat="50.955868754535913" lon="4.781668055802584">
        <ele>32.460000000000001</ele>
        <time>2022-05-26T09:55:14Z</time>
      </trkpt>
      <trkpt lat="50.955773117020726" lon="4.78195178322494">
        <ele>32.82</ele>
        <time>2022-05-26T09:55:28Z</time>
      </trkpt>
      <trkpt lat="50.955719221383333" lon="4.782486045733094">
        <ele>32.310000000000002</ele>
        <time>2022-05-26T09:55:45Z</time>
      </trkpt>
      <trkpt lat="50.955734392628074" lon="4.782896423712373">
        <ele>31.91</ele>
        <time>2022-05-26T09:56:04Z</time>
      </trkpt>
      <trkpt lat="50.955729279667139" lon="4.783110329881311">
        <ele>31.710000000000001</ele>
        <time>2022-05-26T09:56:19Z</time>
      </trkpt>
      <trkpt lat="50.955726932734251" lon="4.783245110884309">
        <ele>31.59</ele>
        <time>2022-05-26T09:56:57Z</time>
      </trkpt>
      <trkpt lat="50.955738080665469" lon="4.783280482515693">
        <ele>31.59</ele>
        <time>2022-05-26T09:56:58Z</time>
      </trkpt>
      <trkpt lat="50.955747049301863" lon="4.783317698165774">
        <ele>31.59</ele>
        <time>2022-05-26T09:56:59Z</time>
      </trkpt>
      <trkpt lat="50.955822318792343" lon="4.783671665936709">
        <ele>31.620000000000001</ele>
        <time>2022-05-26T09:57:11Z</time>
      </trkpt>
      <trkpt lat="50.955818630754948" lon="4.784837421029806">
        <ele>32.100000000000001</ele>
        <time>2022-05-26T09:58:01Z</time>
      </trkpt>
      <trkpt lat="50.955776888877153" lon="4.785176469013095">
        <ele>32.25</ele>
        <time>2022-05-26T09:58:17Z</time>
      </trkpt>
      <trkpt lat="50.955650489777327" lon="4.785406803712249">
        <ele>32.439999999999998</ele>
        <time>2022-05-26T09:58:33Z</time>
      </trkpt>
      <trkpt lat="50.95543909817934" lon="4.785319967195392">
        <ele>32.57</ele>
        <time>2022-05-26T09:58:47Z</time>
      </trkpt>
      <trkpt lat="50.955423004925251" lon="4.785320973023772">
        <ele>32.590000000000003</ele>
        <time>2022-05-26T09:58:48Z</time>
      </trkpt>
      <trkpt lat="50.955408252775669" lon="4.785319464281201">
        <ele>32.590000000000003</ele>
        <time>2022-05-26T09:58:49Z</time>
      </trkpt>
      <trkpt lat="50.955393081530929" lon="4.785317201167345">
        <ele>32.590000000000003</ele>
        <time>2022-05-26T09:58:50Z</time>
      </trkpt>
      <trkpt lat="50.95521722920239" lon="4.785298174247146">
        <ele>32.719999999999999</ele>
        <time>2022-05-26T09:59:03Z</time>
      </trkpt>
      <trkpt lat="50.955033414065838" lon="4.785299515351653">
        <ele>33.719999999999999</ele>
        <time>2022-05-26T09:59:18Z</time>
      </trkpt>
      <trkpt lat="50.954819088801742" lon="4.785235896706581">
        <ele>34.670000000000002</ele>
        <time>2022-05-26T09:59:33Z</time>
      </trkpt>
      <trkpt lat="50.954593364149332" lon="4.785263556987047">
        <ele>35.549999999999997</ele>
        <time>2022-05-26T09:59:50Z</time>
      </trkpt>
      <trkpt lat="50.954371746629477" lon="4.785217707976699">
        <ele>35.640000000000001</ele>
        <time>2022-05-26T10:00:04Z</time>
      </trkpt>
      <trkpt lat="50.95414761453867" lon="4.785240758210421">
        <ele>35.729999999999997</ele>
        <time>2022-05-26T10:00:18Z</time>
      </trkpt>
      <trkpt lat="50.9539301879704" lon="4.785268334671855">
        <ele>35.799999999999997</ele>
        <time>2022-05-26T10:00:31Z</time>
      </trkpt>
      <trkpt lat="50.953687196597457" lon="4.785310998558998">
        <ele>35.890000000000001</ele>
        <time>2022-05-26T10:00:45Z</time>
      </trkpt>
      <trkpt lat="50.953444959595799" lon="4.785302113741636">
        <ele>35.939999999999998</ele>
        <time>2022-05-26T10:01:01Z</time>
      </trkpt>
      <trkpt lat="50.953301377594471" lon="4.785319045186043">
        <ele>35.979999999999997</ele>
        <time>2022-05-26T10:01:12Z</time>
      </trkpt>
      <trkpt lat="50.953204985707998" lon="4.785283086821437">
        <ele>36.039999999999999</ele>
        <time>2022-05-26T10:01:26Z</time>
      </trkpt>
      <trkpt lat="50.953122675418854" lon="4.78521334938705">
        <ele>33.770000000000003</ele>
        <time>2022-05-26T10:01:33Z</time>
      </trkpt>
      <trkpt lat="50.952888652682304" lon="4.785009836778045">
        <ele>31.120000000000001</ele>
        <time>2022-05-26T10:01:56Z</time>
      </trkpt>
      <trkpt lat="50.952687906101346" lon="4.784865332767367">
        <ele>27.350000000000001</ele>
        <time>2022-05-26T10:02:16Z</time>
      </trkpt>
      <trkpt lat="50.952510461211205" lon="4.784698700532317">
        <ele>23.66</ele>
        <time>2022-05-26T10:02:34Z</time>
      </trkpt>
      <trkpt lat="50.95232455059886" lon="4.784486554563046">
        <ele>20.16</ele>
        <time>2022-05-26T10:02:53Z</time>
      </trkpt>
      <trkpt lat="50.952178034931421" lon="4.784364178776741">
        <ele>16.66</ele>
        <time>2022-05-26T10:03:06Z</time>
      </trkpt>
      <trkpt lat="50.951990196481347" lon="4.78418187238276">
        <ele>13.49</ele>
        <time>2022-05-26T10:03:23Z</time>
      </trkpt>
      <trkpt lat="50.951827503740788" lon="4.78371717967093">
        <ele>11.27</ele>
        <time>2022-05-26T10:03:42Z</time>
      </trkpt>
      <trkpt lat="50.951630864292383" lon="4.783457256853581">
        <ele>10.789999999999999</ele>
        <time>2022-05-26T10:03:59Z</time>
      </trkpt>
      <trkpt lat="50.951344119384885" lon="4.783510649576783">
        <ele>7.33</ele>
        <time>2022-05-26T10:04:16Z</time>
      </trkpt>
      <trkpt lat="50.951339844614267" lon="4.783512158319354">
        <ele>7.26</ele>
        <time>2022-05-26T10:04:17Z</time>
      </trkpt>
      <trkpt lat="50.951262647286057" lon="4.783609807491303">
        <ele>6.21</ele>
        <time>2022-05-26T10:04:29Z</time>
      </trkpt>
      <trkpt lat="50.951139684766531" lon="4.783577201887965">
        <ele>2.42</ele>
        <time>2022-05-26T10:04:40Z</time>
      </trkpt>
      <trkpt lat="50.950916139408946" lon="4.783661523833871">
        <ele>-0.43</ele>
        <time>2022-05-26T10:05:00Z</time>
      </trkpt>
      <trkpt lat="50.950889987871051" lon="4.783703181892633">
        <ele>-0.44</ele>
        <time>2022-05-26T10:05:02Z</time>
      </trkpt>
      <trkpt lat="50.950791081413627" lon="4.784147590398789">
        <ele>-1.44</ele>
        <time>2022-05-26T10:05:21Z</time>
      </trkpt>
      <trkpt lat="50.950723187997937" lon="4.784529721364379">
        <ele>-1.58</ele>
        <time>2022-05-26T10:05:35Z</time>
      </trkpt>
      <trkpt lat="50.950772808864713" lon="4.784685792401433">
        <ele>-1.73</ele>
        <time>2022-05-26T10:05:49Z</time>
      </trkpt>
      <trkpt lat="50.950821507722139" lon="4.784909589216113">
        <ele>-1.86</ele>
        <time>2022-05-26T10:06:03Z</time>
      </trkpt>
      <trkpt lat="50.950953019782901" lon="4.785290127620101">
        <ele>-4</ele>
        <time>2022-05-26T10:06:20Z</time>
      </trkpt>
      <trkpt lat="50.95097254961729" lon="4.785451563075185">
        <ele>-4.04</ele>
        <time>2022-05-26T10:06:28Z</time>
      </trkpt>
      <trkpt lat="50.951013537123799" lon="4.785616183653474">
        <ele>-4.07</ele>
        <time>2022-05-26T10:06:33Z</time>
      </trkpt>
      <trkpt lat="50.951071288436651" lon="4.78569321334362">
        <ele>-4.09</ele>
        <time>2022-05-26T10:06:36Z</time>
      </trkpt>
      <trkpt lat="50.951225347816944" lon="4.785999655723572">
        <ele>-4.18</ele>
        <time>2022-05-26T10:06:47Z</time>
      </trkpt>
      <trkpt lat="50.951252337545156" lon="4.786060256883502">
        <ele>-1.92</ele>
        <time>2022-05-26T10:06:49Z</time>
      </trkpt>
      <trkpt lat="50.951480073854327" lon="4.786491757258773">
        <ele>-0.34</ele>
        <time>2022-05-26T10:07:00Z</time>
      </trkpt>
      <trkpt lat="50.951722394675016" lon="4.787131631746888">
        <ele>0.3</ele>
        <time>2022-05-26T10:07:12Z</time>
      </trkpt>
      <trkpt lat="50.951936384662986" lon="4.787785755470395">
        <ele>0.21</ele>
        <time>2022-05-26T10:07:24Z</time>
      </trkpt>
      <trkpt lat="50.952174095436931" lon="4.788347845897079">
        <ele>1.01</ele>
        <time>2022-05-26T10:07:36Z</time>
      </trkpt>
      <trkpt lat="50.952361766248941" lon="4.789329953491688">
        <ele>2</ele>
        <time>2022-05-26T10:07:52Z</time>
      </trkpt>
      <trkpt lat="50.952588496729732" lon="4.790102513507009">
        <ele>2.12</ele>
        <time>2022-05-26T10:08:07Z</time>
      </trkpt>
      <trkpt lat="50.952802151441574" lon="4.790549352765083">
        <ele>3.09</ele>
        <time>2022-05-26T10:08:19Z</time>
      </trkpt>
      <trkpt lat="50.952846072614193" lon="4.790617497637868">
        <ele>3.11</ele>
        <time>2022-05-26T10:08:22Z</time>
      </trkpt>
      <trkpt lat="50.952912960201502" lon="4.7907988820225">
        <ele>3.16</ele>
        <time>2022-05-26T10:08:30Z</time>
      </trkpt>
      <trkpt lat="50.95298470929265" lon="4.791296431794763">
        <ele>4.78</ele>
        <time>2022-05-26T10:08:50Z</time>
      </trkpt>
      <trkpt lat="50.953055787831545" lon="4.791470691561699">
        <ele>5.56</ele>
        <time>2022-05-26T10:09:01Z</time>
      </trkpt>
      <trkpt lat="50.953066516667604" lon="4.791464824229479">
        <ele>5.57</ele>
        <time>2022-05-26T10:09:02Z</time>
      </trkpt>
      <trkpt lat="50.953195597976446" lon="4.791570939123631">
        <ele>9.58</ele>
        <time>2022-05-26T10:09:16Z</time>
      </trkpt>
      <trkpt lat="50.953360972926021" lon="4.791689543053508">
        <ele>11.210000000000001</ele>
        <time>2022-05-26T10:09:29Z</time>
      </trkpt>
      <trkpt lat="50.953412689268589" lon="4.791929349303246">
        <ele>13.52</ele>
        <time>2022-05-26T10:09:42Z</time>
      </trkpt>
      <trkpt lat="50.953427609056234" lon="4.791954662650824">
        <ele>13.58</ele>
        <time>2022-05-26T10:09:44Z</time>
      </trkpt>
      <trkpt lat="50.953524336218834" lon="4.792066477239132">
        <ele>16.07</ele>
        <time>2022-05-26T10:09:52Z</time>
      </trkpt>
      <trkpt lat="50.953649813309312" lon="4.792130012065172">
        <ele>19.870000000000001</ele>
        <time>2022-05-26T10:10:03Z</time>
      </trkpt>
      <trkpt lat="50.953823821619153" lon="4.792260183021426">
        <ele>21.010000000000002</ele>
        <time>2022-05-26T10:10:20Z</time>
      </trkpt>
      <trkpt lat="50.953875202685595" lon="4.79259068146348">
        <ele>20.640000000000001</ele>
        <time>2022-05-26T10:10:39Z</time>
      </trkpt>
      <trkpt lat="50.953929265961051" lon="4.792809532955289">
        <ele>20.370000000000001</ele>
        <time>2022-05-26T10:10:52Z</time>
      </trkpt>
      <trkpt lat="50.953922644257545" lon="4.793148748576641">
        <ele>20.82</ele>
        <time>2022-05-26T10:11:11Z</time>
      </trkpt>
      <trkpt lat="50.953917782753706" lon="4.793421160429716">
        <ele>20.579999999999998</ele>
        <time>2022-05-26T10:11:24Z</time>
      </trkpt>
      <trkpt lat="50.953825497999787" lon="4.793678903952241">
        <ele>18.09</ele>
        <time>2022-05-26T10:11:36Z</time>
      </trkpt>
      <trkpt lat="50.953815104439855" lon="4.79369793087244">
        <ele>18.079999999999998</ele>
        <time>2022-05-26T10:11:37Z</time>
      </trkpt>
      <trkpt lat="50.953678060323" lon="4.793937066569924">
        <ele>16.93</ele>
        <time>2022-05-26T10:11:50Z</time>
      </trkpt>
      <trkpt lat="50.953522408381104" lon="4.794135801494122">
        <ele>15.82</ele>
        <time>2022-05-26T10:12:06Z</time>
      </trkpt>
      <trkpt lat="50.953395422548056" lon="4.794290950521827">
        <ele>18.260000000000002</ele>
        <time>2022-05-26T10:12:17Z</time>
      </trkpt>
      <trkpt lat="50.953362062573433" lon="4.794448027387261">
        <ele>20.100000000000001</ele>
        <time>2022-05-26T10:12:27Z</time>
      </trkpt>
      <trkpt lat="50.953339179977775" lon="4.794880198314786">
        <ele>17.510000000000002</ele>
        <time>2022-05-26T10:12:48Z</time>
      </trkpt>
      <trkpt lat="50.953339515253901" lon="4.794894279912114">
        <ele>17.5</ele>
        <time>2022-05-26T10:12:49Z</time>
      </trkpt>
      <trkpt lat="50.953315291553736" lon="4.794999221339822">
        <ele>17.559999999999999</ele>
        <time>2022-05-26T10:12:57Z</time>
      </trkpt>
      <trkpt lat="50.953320907428861" lon="4.795075999572873">
        <ele>17.559999999999999</ele>
        <time>2022-05-26T10:13:05Z</time>
      </trkpt>
      <trkpt lat="50.953326104208827" lon="4.795117909088731">
        <ele>17.559999999999999</ele>
        <time>2022-05-26T10:13:08Z</time>
      </trkpt>
      <trkpt lat="50.953338425606489" lon="4.795181779190898">
        <ele>17.489999999999998</ele>
        <time>2022-05-26T10:13:13Z</time>
      </trkpt>
      <trkpt lat="50.953239519149065" lon="4.79543105699122">
        <ele>17.399999999999999</ele>
        <time>2022-05-26T10:13:29Z</time>
      </trkpt>
      <trkpt lat="50.953220408409834" lon="4.795789970085025">
        <ele>17.300000000000001</ele>
        <time>2022-05-26T10:13:49Z</time>
      </trkpt>
      <trkpt lat="50.953221078962088" lon="4.795900695025921">
        <ele>17.309999999999999</ele>
        <time>2022-05-26T10:13:55Z</time>
      </trkpt>
      <trkpt lat="50.953222755342722" lon="4.796029189601541">
        <ele>19.609999999999999</ele>
        <time>2022-05-26T10:14:03Z</time>
      </trkpt>
      <trkpt lat="50.953332306817174" lon="4.796370500698686">
        <ele>19.440000000000001</ele>
        <time>2022-05-26T10:14:27Z</time>
      </trkpt>
      <trkpt lat="50.953347980976105" lon="4.797003921121359">
        <ele>19.93</ele>
        <time>2022-05-26T10:14:49Z</time>
      </trkpt>
      <trkpt lat="50.953468764200807" lon="4.797317823395133">
        <ele>19.719999999999999</ele>
        <time>2022-05-26T10:15:06Z</time>
      </trkpt>
      <trkpt lat="50.953593654558063" lon="4.797520330175757">
        <ele>19.489999999999998</ele>
        <time>2022-05-26T10:15:29Z</time>
      </trkpt>
      <trkpt lat="50.95359742641449" lon="4.797507086768746">
        <ele>20.239999999999998</ele>
        <time>2022-05-26T10:15:31Z</time>
      </trkpt>
      <trkpt lat="50.953678730875254" lon="4.797429889440537">
        <ele>19.98</ele>
        <time>2022-05-26T10:15:45Z</time>
      </trkpt>
      <trkpt lat="50.953722819685936" lon="4.79747305624187">
        <ele>19.879999999999999</ele>
        <time>2022-05-26T10:15:49Z</time>
      </trkpt>
      <trkpt lat="50.953796915709972" lon="4.797455202788115">
        <ele>19.84</ele>
        <time>2022-05-26T10:15:52Z</time>
      </trkpt>
      <trkpt lat="50.953814769163728" lon="4.797424525022507">
        <ele>19.800000000000001</ele>
        <time>2022-05-26T10:15:55Z</time>
      </trkpt>
      <trkpt lat="50.954090198501945" lon="4.797356463968754">
        <ele>17.350000000000001</ele>
        <time>2022-05-26T10:16:06Z</time>
      </trkpt>
      <trkpt lat="50.954348109662533" lon="4.797300389036536">
        <ele>17.399999999999999</ele>
        <time>2022-05-26T10:16:20Z</time>
      </trkpt>
      <trkpt lat="50.954585317522287" lon="4.797247415408492">
        <ele>16.66</ele>
        <time>2022-05-26T10:16:34Z</time>
      </trkpt>
      <trkpt lat="50.954777682200074" lon="4.797295359894633">
        <ele>14.69</ele>
        <time>2022-05-26T10:16:49Z</time>
      </trkpt>
      <trkpt lat="50.95498027279973" lon="4.797578668221831">
        <ele>13.85</ele>
        <time>2022-05-26T10:17:05Z</time>
      </trkpt>
      <trkpt lat="50.955088566988707" lon="4.79783222079277">
        <ele>13.960000000000001</ele>
        <time>2022-05-26T10:17:18Z</time>
      </trkpt>
      <trkpt lat="50.955167021602392" lon="4.798157103359699">
        <ele>14.140000000000001</ele>
        <time>2022-05-26T10:17:34Z</time>
      </trkpt>
      <trkpt lat="50.955205410718918" lon="4.798409231007099">
        <ele>14.26</ele>
        <time>2022-05-26T10:17:45Z</time>
      </trkpt>
      <trkpt lat="50.955274980515242" lon="4.798737047240138">
        <ele>14.43</ele>
        <time>2022-05-26T10:18:00Z</time>
      </trkpt>
      <trkpt lat="50.955313621088862" lon="4.798831678926945">
        <ele>14.49</ele>
        <time>2022-05-26T10:18:05Z</time>
      </trkpt>
      <trkpt lat="50.955327199772" lon="4.79884416796267">
        <ele>14.49</ele>
        <time>2022-05-26T10:18:06Z</time>
      </trkpt>
      <trkpt lat="50.955509841442108" lon="4.798985738307238">
        <ele>14.57</ele>
        <time>2022-05-26T10:18:19Z</time>
      </trkpt>
      <trkpt lat="50.955676725134254" lon="4.799182377755642">
        <ele>14.74</ele>
        <time>2022-05-26T10:18:33Z</time>
      </trkpt>
      <trkpt lat="50.955812679603696" lon="4.799359068274498">
        <ele>14.82</ele>
        <time>2022-05-26T10:18:45Z</time>
      </trkpt>
      <trkpt lat="50.955857774242759" lon="4.799412712454796">
        <ele>14.869999999999999</ele>
        <time>2022-05-26T10:18:49Z</time>
      </trkpt>
      <trkpt lat="50.955864982679486" lon="4.79943199083209">
        <ele>14.869999999999999</ele>
        <time>2022-05-26T10:18:50Z</time>
      </trkpt>
      <trkpt lat="50.955865988507867" lon="4.799469877034426">
        <ele>14.890000000000001</ele>
        <time>2022-05-26T10:18:52Z</time>
      </trkpt>
      <trkpt lat="50.95586271956563" lon="4.799484545364976">
        <ele>14.9</ele>
        <time>2022-05-26T10:18:53Z</time>
      </trkpt>
      <trkpt lat="50.955855846405029" lon="4.799493178725243">
        <ele>14.9</ele>
        <time>2022-05-26T10:18:54Z</time>
      </trkpt>
      <trkpt lat="50.955841429531574" lon="4.799494100734592">
        <ele>14.92</ele>
        <time>2022-05-26T10:18:56Z</time>
      </trkpt>
      <trkpt lat="50.955831119790673" lon="4.79949158616364">
        <ele>14.93</ele>
        <time>2022-05-26T10:18:57Z</time>
      </trkpt>
      <trkpt lat="50.95582215115428" lon="4.799489490687847">
        <ele>14.94</ele>
        <time>2022-05-26T10:18:58Z</time>
      </trkpt>
      <trkpt lat="50.955813936889172" lon="4.799489742144942">
        <ele>14.94</ele>
        <time>2022-05-26T10:18:59Z</time>
      </trkpt>
      <trkpt lat="50.955804046243429" lon="4.799489323049784">
        <ele>14.949999999999999</ele>
        <time>2022-05-26T10:19:00Z</time>
      </trkpt>
      <trkpt lat="50.955601204186678" lon="4.79962988756597">
        <ele>13.449999999999999</ele>
        <time>2022-05-26T10:19:18Z</time>
      </trkpt>
      <trkpt lat="50.955429123714566" lon="4.799818312749267">
        <ele>11.970000000000001</ele>
        <time>2022-05-26T10:19:35Z</time>
      </trkpt>
      <trkpt lat="50.95522116869688" lon="4.800089802592993">
        <ele>9.470000000000001</ele>
        <time>2022-05-26T10:19:55Z</time>
      </trkpt>
      <trkpt lat="50.955187724903226" lon="4.800120228901506">
        <ele>9.51</ele>
        <time>2022-05-26T10:19:58Z</time>
      </trkpt>
      <trkpt lat="50.95498463138938" lon="4.800327932462096">
        <ele>8.75</ele>
        <time>2022-05-26T10:20:12Z</time>
      </trkpt>
      <trkpt lat="50.954826297238469" lon="4.8004952352494">
        <ele>6.41</ele>
        <time>2022-05-26T10:20:28Z</time>
      </trkpt>
      <trkpt lat="50.954695539548993" lon="4.800644936040044">
        <ele>5.47</ele>
        <time>2022-05-26T10:20:39Z</time>
      </trkpt>
      <trkpt lat="50.954676764085889" lon="4.800670081749558">
        <ele>5.47</ele>
        <time>2022-05-26T10:20:40Z</time>
      </trkpt>
      <trkpt lat="50.954541563987732" lon="4.800767311826348">
        <ele>4.78</ele>
        <time>2022-05-26T10:20:53Z</time>
      </trkpt>
      <trkpt lat="50.954317934811115" lon="4.801100492477417">
        <ele>2.5</ele>
        <time>2022-05-26T10:21:13Z</time>
      </trkpt>
      <trkpt lat="50.954111488536" lon="4.80129562318325">
        <ele>2.65</ele>
        <time>2022-05-26T10:21:29Z</time>
      </trkpt>
      <trkpt lat="50.953870257362723" lon="4.801586056128144">
        <ele>2.75</ele>
        <time>2022-05-26T10:21:38Z</time>
      </trkpt>
      <trkpt lat="50.953725837171078" lon="4.801713209599257">
        <ele>2.02</ele>
        <time>2022-05-26T10:21:49Z</time>
      </trkpt>
      <trkpt lat="50.953534059226513" lon="4.80194597505033">
        <ele>2.19</ele>
        <time>2022-05-26T10:22:04Z</time>
      </trkpt>
      <trkpt lat="50.953465243801475" lon="4.802004396915436">
        <ele>2.25</ele>
        <time>2022-05-26T10:22:10Z</time>
      </trkpt>
      <trkpt lat="50.953276734799147" lon="4.802175555378199">
        <ele>2.43</ele>
        <time>2022-05-26T10:22:26Z</time>
      </trkpt>
      <trkpt lat="50.953057045117021" lon="4.80234419927001">
        <ele>2.56</ele>
        <time>2022-05-26T10:22:40Z</time>
      </trkpt>
      <trkpt lat="50.952928718179464" lon="4.80244729667902">
        <ele>2.67</ele>
        <time>2022-05-26T10:22:54Z</time>
      </trkpt>
      <trkpt lat="50.952736856415868" lon="4.802535977214575">
        <ele>2.84</ele>
        <time>2022-05-26T10:23:07Z</time>
      </trkpt>
      <trkpt lat="50.952514233067632" lon="4.80262759141624">
        <ele>3.04</ele>
        <time>2022-05-26T10:23:26Z</time>
      </trkpt>
      <trkpt lat="50.952312061563134" lon="4.802657514810562">
        <ele>5.48</ele>
        <time>2022-05-26T10:23:40Z</time>
      </trkpt>
      <trkpt lat="50.952111482620239" lon="4.802717696875334">
        <ele>5.6</ele>
        <time>2022-05-26T10:23:57Z</time>
      </trkpt>
      <trkpt lat="50.951954154297709" lon="4.802823895588517">
        <ele>5.68</ele>
        <time>2022-05-26T10:24:13Z</time>
      </trkpt>
      <trkpt lat="50.951938899233937" lon="4.802820207551122">
        <ele>5.69</ele>
        <time>2022-05-26T10:24:14Z</time>
      </trkpt>
      <trkpt lat="50.951922386884689" lon="4.802822135388851">
        <ele>5.7</ele>
        <time>2022-05-26T10:24:15Z</time>
      </trkpt>
      <trkpt lat="50.951809985563159" lon="4.802889609709382">
        <ele>6.57</ele>
        <time>2022-05-26T10:24:24Z</time>
      </trkpt>
      <trkpt lat="50.951707474887371" lon="4.802938895300031">
        <ele>7.64</ele>
        <time>2022-05-26T10:24:36Z</time>
      </trkpt>
      <trkpt lat="50.951691633090377" lon="4.802947277203202">
        <ele>7.65</ele>
        <time>2022-05-26T10:24:38Z</time>
      </trkpt>
      <trkpt lat="50.951637234538794" lon="4.802989605814219">
        <ele>7.63</ele>
        <time>2022-05-26T10:24:55Z</time>
      </trkpt>
      <trkpt lat="50.951440427452326" lon="4.803143162280321">
        <ele>11.34</ele>
        <time>2022-05-26T10:25:16Z</time>
      </trkpt>
      <trkpt lat="50.95126180909574" lon="4.803225556388497">
        <ele>13.19</ele>
        <time>2022-05-26T10:25:30Z</time>
      </trkpt>
      <trkpt lat="50.951138427481055" lon="4.803341897204518">
        <ele>15.6</ele>
        <time>2022-05-26T10:25:40Z</time>
      </trkpt>
      <trkpt lat="50.951123842969537" lon="4.803343992680311">
        <ele>15.59</ele>
        <time>2022-05-26T10:25:41Z</time>
      </trkpt>
      <trkpt lat="50.950951091945171" lon="4.803309794515371">
        <ele>17.260000000000002</ele>
        <time>2022-05-26T10:25:59Z</time>
      </trkpt>
      <trkpt lat="50.950681697577238" lon="4.803407276049256">
        <ele>20.82</ele>
        <time>2022-05-26T10:26:17Z</time>
      </trkpt>
      <trkpt lat="50.95037835650146" lon="4.803680945187807">
        <ele>23.129999999999999</ele>
        <time>2022-05-26T10:26:35Z</time>
      </trkpt>
      <trkpt lat="50.950243743136525" lon="4.803823940455914">
        <ele>24.629999999999999</ele>
        <time>2022-05-26T10:26:45Z</time>
      </trkpt>
      <trkpt lat="50.94970746897161" lon="4.804058717563748">
        <ele>29.579999999999998</ele>
        <time>2022-05-26T10:27:16Z</time>
      </trkpt>
      <trkpt lat="50.949436482042074" lon="4.804161228239536">
        <ele>30.210000000000001</ele>
        <time>2022-05-26T10:27:30Z</time>
      </trkpt>
      <trkpt lat="50.94918217509985" lon="4.804340936243534">
        <ele>31</ele>
        <time>2022-05-26T10:27:44Z</time>
      </trkpt>
      <trkpt lat="50.949020152911544" lon="4.804363483563066">
        <ele>30.949999999999999</ele>
        <time>2022-05-26T10:27:57Z</time>
      </trkpt>
      <trkpt lat="50.949007580056787" lon="4.804372871294618">
        <ele>30.949999999999999</ele>
        <time>2022-05-26T10:27:58Z</time>
      </trkpt>
      <trkpt lat="50.948896016925573" lon="4.804316125810146">
        <ele>30.920000000000002</ele>
        <time>2022-05-26T10:28:06Z</time>
      </trkpt>
      <trkpt lat="50.948874643072486" lon="4.804311096668243">
        <ele>30.91</ele>
        <time>2022-05-26T10:28:07Z</time>
      </trkpt>
      <trkpt lat="50.948863495141268" lon="4.804320903494954">
        <ele>30.91</ele>
        <time>2022-05-26T10:28:08Z</time>
      </trkpt>
      <trkpt lat="50.948672806844115" lon="4.804412350058556">
        <ele>30.879999999999999</ele>
        <time>2022-05-26T10:28:25Z</time>
      </trkpt>
      <trkpt lat="50.948518831282854" lon="4.804561631754041">
        <ele>30.850000000000001</ele>
        <time>2022-05-26T10:28:41Z</time>
      </trkpt>
      <trkpt lat="50.948344403877854" lon="4.804573114961386">
        <ele>30.780000000000001</ele>
        <time>2022-05-26T10:28:59Z</time>
      </trkpt>
      <trkpt lat="50.948256645351648" lon="4.80473848991096">
        <ele>28.440000000000001</ele>
        <time>2022-05-26T10:29:07Z</time>
      </trkpt>
      <trkpt lat="50.94822739250958" lon="4.804755756631494">
        <ele>26.48</ele>
        <time>2022-05-26T10:29:12Z</time>
      </trkpt>
      <trkpt lat="50.94819420017302" lon="4.804702447727323">
        <ele>25.579999999999998</ele>
        <time>2022-05-26T10:29:21Z</time>
      </trkpt>
      <trkpt lat="50.948132257908583" lon="4.804447218775749">
        <ele>24.309999999999999</ele>
        <time>2022-05-26T10:29:33Z</time>
      </trkpt>
      <trkpt lat="50.948076182976365" lon="4.804259967058897">
        <ele>20.940000000000001</ele>
        <time>2022-05-26T10:29:46Z</time>
      </trkpt>
      <trkpt lat="50.947980461642146" lon="4.803886888548732">
        <ele>18.399999999999999</ele>
        <time>2022-05-26T10:30:03Z</time>
      </trkpt>
      <trkpt lat="50.947894128039479" lon="4.803475001826882">
        <ele>16.649999999999999</ele>
        <time>2022-05-26T10:30:24Z</time>
      </trkpt>
      <trkpt lat="50.947655159980059" lon="4.802548885345459">
        <ele>13.09</ele>
        <time>2022-05-26T10:31:00Z</time>
      </trkpt>
      <trkpt lat="50.947492048144341" lon="4.80222987011075">
        <ele>9.6</ele>
        <time>2022-05-26T10:31:20Z</time>
      </trkpt>
      <trkpt lat="50.947438068687916" lon="4.802053514868021">
        <ele>8.74</ele>
        <time>2022-05-26T10:31:35Z</time>
      </trkpt>
      <trkpt lat="50.947398841381073" lon="4.80180524289608">
        <ele>6.05</ele>
        <time>2022-05-26T10:31:55Z</time>
      </trkpt>
      <trkpt lat="50.947352489456534" lon="4.801372569054365">
        <ele>5.16</ele>
        <time>2022-05-26T10:32:12Z</time>
      </trkpt>
      <trkpt lat="50.947327176108956" lon="4.801113484427333">
        <ele>2.45</ele>
        <time>2022-05-26T10:32:33Z</time>
      </trkpt>
      <trkpt lat="50.947239166125655" lon="4.800741579383612">
        <ele>1.56</ele>
        <time>2022-05-26T10:32:48Z</time>
      </trkpt>
      <trkpt lat="50.947115952149034" lon="4.80018300935626">
        <ele>-0.34</ele>
        <time>2022-05-26T10:33:09Z</time>
      </trkpt>
      <trkpt lat="50.947002125903964" lon="4.799689147621393">
        <ele>-1.35</ele>
        <time>2022-05-26T10:33:30Z</time>
      </trkpt>
      <trkpt lat="50.946902884170413" lon="4.799516228958964">
        <ele>-2.26</ele>
        <time>2022-05-26T10:33:43Z</time>
      </trkpt>
      <trkpt lat="50.946890478953719" lon="4.799449760466814">
        <ele>-2.51</ele>
        <time>2022-05-26T10:34:05Z</time>
      </trkpt>
      <trkpt lat="50.946810515597463" lon="4.799435762688518">
        <ele>-3.38</ele>
        <time>2022-05-26T10:34:15Z</time>
      </trkpt>
      <trkpt lat="50.946558304131031" lon="4.799368875101209">
        <ele>-4.28</ele>
        <time>2022-05-26T10:34:33Z</time>
      </trkpt>
      <trkpt lat="50.946393935009837" lon="4.799371222034097">
        <ele>-4.3</ele>
        <time>2022-05-26T10:34:43Z</time>
      </trkpt>
      <trkpt lat="50.946372058242559" lon="4.799382537603378">
        <ele>-4.31</ele>
        <time>2022-05-26T10:34:44Z</time>
      </trkpt>
      <trkpt lat="50.946351690217853" lon="4.799388907849789">
        <ele>-4.3</ele>
        <time>2022-05-26T10:34:45Z</time>
      </trkpt>
      <trkpt lat="50.946329310536385" lon="4.79939041659236">
        <ele>-4.31</ele>
        <time>2022-05-26T10:34:46Z</time>
      </trkpt>
      <trkpt lat="50.946310451254249" lon="4.799391254782677">
        <ele>-4.31</ele>
        <time>2022-05-26T10:34:47Z</time>
      </trkpt>
      <trkpt lat="50.946289161220193" lon="4.799394104629755">
        <ele>-4.31</ele>
        <time>2022-05-26T10:34:48Z</time>
      </trkpt>
      <trkpt lat="50.946083134040236" lon="4.799470966681838">
        <ele>-5.91</ele>
        <time>2022-05-26T10:35:00Z</time>
      </trkpt>
      <trkpt lat="50.946064945310354" lon="4.799478091299534">
        <ele>-5.91</ele>
        <time>2022-05-26T10:35:01Z</time>
      </trkpt>
      <trkpt lat="50.94573587179184" lon="4.799686968326569">
        <ele>-7.7</ele>
        <time>2022-05-26T10:35:19Z</time>
      </trkpt>
      <trkpt lat="50.945497071370482" lon="4.799813367426395">
        <ele>-9.699999999999999</ele>
        <time>2022-05-26T10:35:34Z</time>
      </trkpt>
      <trkpt lat="50.945228850468993" lon="4.799943789839745">
        <ele>-10.199999999999999</ele>
        <time>2022-05-26T10:35:52Z</time>
      </trkpt>
      <trkpt lat="50.944964485242963" lon="4.80010824277997">
        <ele>-9.91</ele>
        <time>2022-05-26T10:36:09Z</time>
      </trkpt>
      <trkpt lat="50.944706154987216" lon="4.800235312432051">
        <ele>-10.550000000000001</ele>
        <time>2022-05-26T10:36:26Z</time>
      </trkpt>
      <trkpt lat="50.944453775882721" lon="4.800404543057084">
        <ele>-12.130000000000001</ele>
        <time>2022-05-26T10:36:42Z</time>
      </trkpt>
      <trkpt lat="50.944236852228642" lon="4.800554746761918">
        <ele>-11.85</ele>
        <time>2022-05-26T10:36:58Z</time>
      </trkpt>
      <trkpt lat="50.944094359874725" lon="4.800585843622685">
        <ele>-11.44</ele>
        <time>2022-05-26T10:37:25Z</time>
      </trkpt>
      <trkpt lat="50.944115901365876" lon="4.800879880785942">
        <ele>-11.220000000000001</ele>
        <time>2022-05-26T10:37:38Z</time>
      </trkpt>
      <trkpt lat="50.944166528061032" lon="4.801230328157544">
        <ele>-11</ele>
        <time>2022-05-26T10:37:53Z</time>
      </trkpt>
      <trkpt lat="50.944224949926138" lon="4.801433505490422">
        <ele>-10.890000000000001</ele>
        <time>2022-05-26T10:38:02Z</time>
      </trkpt>
      <trkpt lat="50.944321341812611" lon="4.801778672263026">
        <ele>-10.77</ele>
        <time>2022-05-26T10:38:18Z</time>
      </trkpt>
      <trkpt lat="50.94443567097187" lon="4.802164239808917">
        <ele>-10.66</ele>
        <time>2022-05-26T10:38:35Z</time>
      </trkpt>
      <trkpt lat="50.944517645984888" lon="4.802542766556144">
        <ele>-10.56</ele>
        <time>2022-05-26T10:38:51Z</time>
      </trkpt>
      <trkpt lat="50.944623257964849" lon="4.802740160375834">
        <ele>-10.51</ele>
        <time>2022-05-26T10:39:02Z</time>
      </trkpt>
      <trkpt lat="50.944714872166514" lon="4.802694898098707">
        <ele>-10.48</ele>
        <time>2022-05-26T10:39:08Z</time>
      </trkpt>
      <trkpt lat="50.944824004545808" lon="4.802675535902381">
        <ele>14.52</ele>
        <time>2022-05-26T11:22:29Z</time>
      </trkpt>
      <trkpt lat="50.944691067561507" lon="4.802695820108056">
        <ele>14.550000000000001</ele>
        <time>2022-05-26T11:22:39Z</time>
      </trkpt>
      <trkpt lat="50.944586964324117" lon="4.802352329716086">
        <ele>14.59</ele>
        <time>2022-05-26T11:22:56Z</time>
      </trkpt>
      <trkpt lat="50.944481771439314" lon="4.801993584260345">
        <ele>13.82</ele>
        <time>2022-05-26T11:23:14Z</time>
      </trkpt>
      <trkpt lat="50.94437163323164" lon="4.801631653681397">
        <ele>13.08</ele>
        <time>2022-05-26T11:23:29Z</time>
      </trkpt>
      <trkpt lat="50.944287898018956" lon="4.801357397809625">
        <ele>13.09</ele>
        <time>2022-05-26T11:23:42Z</time>
      </trkpt>
      <trkpt lat="50.94423970207572" lon="4.801172995939851">
        <ele>13.1</ele>
        <time>2022-05-26T11:23:50Z</time>
      </trkpt>
      <trkpt lat="50.944155547767878" lon="4.800744345411658">
        <ele>13.109999999999999</ele>
        <time>2022-05-26T11:24:10Z</time>
      </trkpt>
      <trkpt lat="50.944155463948846" lon="4.800589699298143">
        <ele>13.119999999999999</ele>
        <time>2022-05-26T11:24:21Z</time>
      </trkpt>
      <trkpt lat="50.944222519174218" lon="4.800558350980282">
        <ele>13.119999999999999</ele>
        <time>2022-05-26T11:24:26Z</time>
      </trkpt>
      <trkpt lat="50.944311115890741" lon="4.800506131723523">
        <ele>15.4</ele>
        <time>2022-05-26T11:24:33Z</time>
      </trkpt>
      <trkpt lat="50.944467606022954" lon="4.800402279943228">
        <ele>15.4</ele>
        <time>2022-05-26T11:24:46Z</time>
      </trkpt>
      <trkpt lat="50.944674387574196" lon="4.800299433991313">
        <ele>16.149999999999999</ele>
        <time>2022-05-26T11:25:02Z</time>
      </trkpt>
      <trkpt lat="50.945006562396884" lon="4.800088126212359">
        <ele>16.93</ele>
        <time>2022-05-26T11:25:16Z</time>
      </trkpt>
      <trkpt lat="50.945456502959132" lon="4.79985854588449">
        <ele>18.609999999999999</ele>
        <time>2022-05-26T11:25:31Z</time>
      </trkpt>
      <trkpt lat="50.94584290869534" lon="4.799679676070809">
        <ele>21.25</ele>
        <time>2022-05-26T11:25:44Z</time>
      </trkpt>
      <trkpt lat="50.94623233191669" lon="4.799486808478832">
        <ele>22.289999999999999</ele>
        <time>2022-05-26T11:25:58Z</time>
      </trkpt>
      <trkpt lat="50.946319168433547" lon="4.799467781558633">
        <ele>23.170000000000002</ele>
        <time>2022-05-26T11:26:09Z</time>
      </trkpt>
      <trkpt lat="50.946429222822189" lon="4.799403073266149">
        <ele>25.670000000000002</ele>
        <time>2022-05-26T11:26:23Z</time>
      </trkpt>
      <trkpt lat="50.946482364088297" lon="4.799332162365317">
        <ele>27.600000000000001</ele>
        <time>2022-05-26T11:26:25Z</time>
      </trkpt>
      <trkpt lat="50.946627454832196" lon="4.798879204317927">
        <ele>27.469999999999999</ele>
        <time>2022-05-26T11:26:40Z</time>
      </trkpt>
      <trkpt lat="50.946636004373431" lon="4.798653395846486">
        <ele>27.379999999999999</ele>
        <time>2022-05-26T11:26:48Z</time>
      </trkpt>
      <trkpt lat="50.946633405983448" lon="4.798624226823449">
        <ele>27.359999999999999</ele>
        <time>2022-05-26T11:26:49Z</time>
      </trkpt>
      <trkpt lat="50.946634327992797" lon="4.798594890162349">
        <ele>27.350000000000001</ele>
        <time>2022-05-26T11:26:50Z</time>
      </trkpt>
      <trkpt lat="50.946620833128691" lon="4.798238156363368">
        <ele>27.190000000000001</ele>
        <time>2022-05-26T11:27:03Z</time>
      </trkpt>
      <trkpt lat="50.946623431518674" lon="4.798214938491583">
        <ele>27.18</ele>
        <time>2022-05-26T11:27:04Z</time>
      </trkpt>
      <trkpt lat="50.946629885584116" lon="4.798193229362369">
        <ele>27.170000000000002</ele>
        <time>2022-05-26T11:27:05Z</time>
      </trkpt>
      <trkpt lat="50.946633070707321" lon="4.798179650679231">
        <ele>27.16</ele>
        <time>2022-05-26T11:27:06Z</time>
      </trkpt>
      <trkpt lat="50.946635166183114" lon="4.798158528283238">
        <ele>27.149999999999999</ele>
        <time>2022-05-26T11:27:07Z</time>
      </trkpt>
      <trkpt lat="50.946636004373431" lon="4.798136316239834">
        <ele>27.129999999999999</ele>
        <time>2022-05-26T11:27:08Z</time>
      </trkpt>
      <trkpt lat="50.946638938039541" lon="4.798116451129317">
        <ele>27.120000000000001</ele>
        <time>2022-05-26T11:27:09Z</time>
      </trkpt>
      <trkpt lat="50.94663055613637" lon="4.79802081361413">
        <ele>27.079999999999998</ele>
        <time>2022-05-26T11:27:13Z</time>
      </trkpt>
      <trkpt lat="50.946624521166086" lon="4.798003630712628">
        <ele>27.059999999999999</ele>
        <time>2022-05-26T11:27:14Z</time>
      </trkpt>
      <trkpt lat="50.946576995775104" lon="4.797644298523665">
        <ele>26.93</ele>
        <time>2022-05-26T11:27:27Z</time>
      </trkpt>
      <trkpt lat="50.946525447070599" lon="4.797279601916671">
        <ele>27.620000000000001</ele>
        <time>2022-05-26T11:27:41Z</time>
      </trkpt>
      <trkpt lat="50.946482699364424" lon="4.796859920024872">
        <ele>27.609999999999999</ele>
        <time>2022-05-26T11:27:58Z</time>
      </trkpt>
      <trkpt lat="50.946480017155409" lon="4.796474268659949">
        <ele>27.530000000000001</ele>
        <time>2022-05-26T11:28:14Z</time>
      </trkpt>
      <trkpt lat="50.946422684937716" lon="4.796064561232925">
        <ele>28.600000000000001</ele>
        <time>2022-05-26T11:28:28Z</time>
      </trkpt>
      <trkpt lat="50.946313301101327" lon="4.795544045045972">
        <ele>28.489999999999998</ele>
        <time>2022-05-26T11:28:41Z</time>
      </trkpt>
      <trkpt lat="50.946233253926039" lon="4.795074239373207">
        <ele>26.149999999999999</ele>
        <time>2022-05-26T11:28:53Z</time>
      </trkpt>
      <trkpt lat="50.946224369108677" lon="4.795023864135146">
        <ele>26.140000000000001</ele>
        <time>2022-05-26T11:28:54Z</time>
      </trkpt>
      <trkpt lat="50.946124121546745" lon="4.794576438143849">
        <ele>25</ele>
        <time>2022-05-26T11:29:02Z</time>
      </trkpt>
      <trkpt lat="50.946098137646914" lon="4.794512148946524">
        <ele>25.050000000000001</ele>
        <time>2022-05-26T11:29:03Z</time>
      </trkpt>
      <trkpt lat="50.946060754358768" lon="4.794427659362555">
        <ele>24.949999999999999</ele>
        <time>2022-05-26T11:29:04Z</time>
      </trkpt>
      <trkpt lat="50.946004847064614" lon="4.794262368232012">
        <ele>24.890000000000001</ele>
        <time>2022-05-26T11:29:06Z</time>
      </trkpt>
      <trkpt lat="50.945978611707687" lon="4.794172933325172">
        <ele>24.870000000000001</ele>
        <time>2022-05-26T11:29:07Z</time>
      </trkpt>
      <trkpt lat="50.945953465998173" lon="4.794089030474424">
        <ele>24.050000000000001</ele>
        <time>2022-05-26T11:29:08Z</time>
      </trkpt>
      <trkpt lat="50.94587073661387" lon="4.793834891170263">
        <ele>24.100000000000001</ele>
        <time>2022-05-26T11:29:11Z</time>
      </trkpt>
      <trkpt lat="50.945747271180153" lon="4.793531382456422">
        <ele>24.16</ele>
        <time>2022-05-26T11:29:15Z</time>
      </trkpt>
      <trkpt lat="50.945718437433243" lon="4.793451754376292">
        <ele>24.079999999999998</ele>
        <time>2022-05-26T11:29:16Z</time>
      </trkpt>
      <trkpt lat="50.945669068023562" lon="4.793294174596667">
        <ele>22.68</ele>
        <time>2022-05-26T11:29:18Z</time>
      </trkpt>
      <trkpt lat="50.945635372772813" lon="4.793165931478143">
        <ele>22.670000000000002</ele>
        <time>2022-05-26T11:29:20Z</time>
      </trkpt>
      <trkpt lat="50.945630595088005" lon="4.793107006698847">
        <ele>22.77</ele>
        <time>2022-05-26T11:29:21Z</time>
      </trkpt>
      <trkpt lat="50.94560687430203" lon="4.792901063337922">
        <ele>22.75</ele>
        <time>2022-05-26T11:29:26Z</time>
      </trkpt>
      <trkpt lat="50.945593379437923" lon="4.792869882658124">
        <ele>22.73</ele>
        <time>2022-05-26T11:29:27Z</time>
      </trkpt>
      <trkpt lat="50.945551134645939" lon="4.7927519492805">
        <ele>22.68</ele>
        <time>2022-05-26T11:29:30Z</time>
      </trkpt>
      <trkpt lat="50.945541746914387" lon="4.792656395584345">
        <ele>22.629999999999999</ele>
        <time>2022-05-26T11:29:31Z</time>
      </trkpt>
      <trkpt lat="50.945523139089346" lon="4.792586155235767">
        <ele>22.670000000000002</ele>
        <time>2022-05-26T11:29:32Z</time>
      </trkpt>
      <trkpt lat="50.945500591769814" lon="4.792468305677176">
        <ele>22.670000000000002</ele>
        <time>2022-05-26T11:29:33Z</time>
      </trkpt>
      <trkpt lat="50.945474440231919" lon="4.792385995388031">
        <ele>22.710000000000001</ele>
        <time>2022-05-26T11:29:34Z</time>
      </trkpt>
      <trkpt lat="50.945448707789183" lon="4.792222799733281">
        <ele>22.690000000000001</ele>
        <time>2022-05-26T11:29:35Z</time>
      </trkpt>
      <trkpt lat="50.945377293974161" lon="4.791929014027119">
        <ele>22.710000000000001</ele>
        <time>2022-05-26T11:29:38Z</time>
      </trkpt>
      <trkpt lat="50.94529221765697" lon="4.791676886379719">
        <ele>22.59</ele>
        <time>2022-05-26T11:29:44Z</time>
      </trkpt>
      <trkpt lat="50.945255924016237" lon="4.791428195312619">
        <ele>24.84</ele>
        <time>2022-05-26T11:29:53Z</time>
      </trkpt>
      <trkpt lat="50.945088118314743" lon="4.790874989703298">
        <ele>24.329999999999998</ele>
        <time>2022-05-26T11:30:11Z</time>
      </trkpt>
      <trkpt lat="50.944896340370178" lon="4.790089353919029">
        <ele>24.68</ele>
        <time>2022-05-26T11:30:35Z</time>
      </trkpt>
      <trkpt lat="50.944687630981207" lon="4.789189053699374">
        <ele>22.280000000000001</ele>
        <time>2022-05-26T11:31:16Z</time>
      </trkpt>
      <trkpt lat="50.944682937115431" lon="4.789158627390862">
        <ele>22.25</ele>
        <time>2022-05-26T11:31:17Z</time>
      </trkpt>
      <trkpt lat="50.944680757820606" lon="4.789112778380513">
        <ele>22.210000000000001</ele>
        <time>2022-05-26T11:31:19Z</time>
      </trkpt>
      <trkpt lat="50.944605991244316" lon="4.78885461576283">
        <ele>21.98</ele>
        <time>2022-05-26T11:31:32Z</time>
      </trkpt>
      <trkpt lat="50.944590233266354" lon="4.788760738447309">
        <ele>21.940000000000001</ele>
        <time>2022-05-26T11:31:35Z</time>
      </trkpt>
      <trkpt lat="50.944576235488057" lon="4.788720924407244">
        <ele>21.91</ele>
        <time>2022-05-26T11:31:36Z</time>
      </trkpt>
      <trkpt lat="50.944569362327456" lon="4.788683792576194">
        <ele>21.890000000000001</ele>
        <time>2022-05-26T11:31:37Z</time>
      </trkpt>
      <trkpt lat="50.944519992917776" lon="4.788507772609592">
        <ele>21.809999999999999</ele>
        <time>2022-05-26T11:31:42Z</time>
      </trkpt>
      <trkpt lat="50.94452066347003" lon="4.788487991318107">
        <ele>21.789999999999999</ele>
        <time>2022-05-26T11:31:43Z</time>
      </trkpt>
      <trkpt lat="50.944519490003586" lon="4.788466366007924">
        <ele>21.780000000000001</ele>
        <time>2022-05-26T11:31:44Z</time>
      </trkpt>
      <trkpt lat="50.944517394527793" lon="4.7884451597929">
        <ele>21.77</ele>
        <time>2022-05-26T11:31:45Z</time>
      </trkpt>
      <trkpt lat="50.94452066347003" lon="4.788417080417275">
        <ele>21.75</ele>
        <time>2022-05-26T11:31:46Z</time>
      </trkpt>
      <trkpt lat="50.944502558559179" lon="4.788310211151838">
        <ele>21.68</ele>
        <time>2022-05-26T11:31:50Z</time>
      </trkpt>
      <trkpt lat="50.94449719414115" lon="4.788288166746497">
        <ele>21.670000000000002</ele>
        <time>2022-05-26T11:31:51Z</time>
      </trkpt>
      <trkpt lat="50.944440281018615" lon="4.788038386031985">
        <ele>21.510000000000002</ele>
        <time>2022-05-26T11:32:02Z</time>
      </trkpt>
      <trkpt lat="50.944436760619283" lon="4.787891367450357">
        <ele>21.41</ele>
        <time>2022-05-26T11:32:08Z</time>
      </trkpt>
      <trkpt lat="50.944431396201253" lon="4.787813918665052">
        <ele>21.370000000000001</ele>
        <time>2022-05-26T11:32:10Z</time>
      </trkpt>
      <trkpt lat="50.944388564676046" lon="4.78769020177424">
        <ele>21.309999999999999</ele>
        <time>2022-05-26T11:32:14Z</time>
      </trkpt>
      <trkpt lat="50.944386553019285" lon="4.787658518180251">
        <ele>21.289999999999999</ele>
        <time>2022-05-26T11:32:15Z</time>
      </trkpt>
      <trkpt lat="50.944371046498418" lon="4.78759003803134">
        <ele>21.219999999999999</ele>
        <time>2022-05-26T11:32:18Z</time>
      </trkpt>
      <trkpt lat="50.944366017356515" lon="4.787558941170573">
        <ele>21.190000000000001</ele>
        <time>2022-05-26T11:32:19Z</time>
      </trkpt>
      <trkpt lat="50.944359814748168" lon="4.787528347223997">
        <ele>21.16</ele>
        <time>2022-05-26T11:32:20Z</time>
      </trkpt>
      <trkpt lat="50.944344475865364" lon="4.787342939525843">
        <ele>19.16</ele>
        <time>2022-05-26T11:32:30Z</time>
      </trkpt>
      <trkpt lat="50.944364424794912" lon="4.78714395314455">
        <ele>19.010000000000002</ele>
        <time>2022-05-26T11:32:41Z</time>
      </trkpt>
      <trkpt lat="50.944370878860354" lon="4.786745477467775">
        <ele>17.920000000000002</ele>
        <time>2022-05-26T11:32:55Z</time>
      </trkpt>
      <trkpt lat="50.944374399259686" lon="4.786712704226375">
        <ele>17.920000000000002</ele>
        <time>2022-05-26T11:32:56Z</time>
      </trkpt>
      <trkpt lat="50.94437456689775" lon="4.786682110279799">
        <ele>17.899999999999999</ele>
        <time>2022-05-26T11:32:57Z</time>
      </trkpt>
      <trkpt lat="50.944354450330138" lon="4.78634943254292">
        <ele>17.68</ele>
        <time>2022-05-26T11:33:09Z</time>
      </trkpt>
      <trkpt lat="50.944347744807601" lon="4.786253795027733">
        <ele>17.609999999999999</ele>
        <time>2022-05-26T11:33:13Z</time>
      </trkpt>
      <trkpt lat="50.944351181387901" lon="4.786235773935914">
        <ele>17.600000000000001</ele>
        <time>2022-05-26T11:33:14Z</time>
      </trkpt>
      <trkpt lat="50.944351349025965" lon="4.786214232444763">
        <ele>17.579999999999998</ele>
        <time>2022-05-26T11:33:15Z</time>
      </trkpt>
      <trkpt lat="50.944354617968202" lon="4.78603083640337">
        <ele>17.41</ele>
        <time>2022-05-26T11:33:22Z</time>
      </trkpt>
      <trkpt lat="50.944342967122793" lon="4.786003176122904">
        <ele>17.399999999999999</ele>
        <time>2022-05-26T11:33:23Z</time>
      </trkpt>
      <trkpt lat="50.94434330239892" lon="4.785973755642772">
        <ele>17.379999999999999</ele>
        <time>2022-05-26T11:33:24Z</time>
      </trkpt>
      <trkpt lat="50.944349337369204" lon="4.785829335451126">
        <ele>17.23</ele>
        <time>2022-05-26T11:33:29Z</time>
      </trkpt>
      <trkpt lat="50.944346990436316" lon="4.785802680999041">
        <ele>17.210000000000001</ele>
        <time>2022-05-26T11:33:30Z</time>
      </trkpt>
      <trkpt lat="50.944345481693745" lon="4.785785162821412">
        <ele>17.190000000000001</ele>
        <time>2022-05-26T11:33:31Z</time>
      </trkpt>
      <trkpt lat="50.944341039285064" lon="4.785762531682849">
        <ele>17.16</ele>
        <time>2022-05-26T11:33:32Z</time>
      </trkpt>
      <trkpt lat="50.944339111447334" lon="4.785736966878176">
        <ele>17.129999999999999</ele>
        <time>2022-05-26T11:33:33Z</time>
      </trkpt>
      <trkpt lat="50.944341123104095" lon="4.78571224026382">
        <ele>17.109999999999999</ele>
        <time>2022-05-26T11:33:34Z</time>
      </trkpt>
      <trkpt lat="50.944336596876383" lon="4.785685585811734">
        <ele>17.100000000000001</ele>
        <time>2022-05-26T11:33:35Z</time>
      </trkpt>
      <trkpt lat="50.944333747029305" lon="4.785659098997712">
        <ele>17.079999999999998</ele>
        <time>2022-05-26T11:33:36Z</time>
      </trkpt>
      <trkpt lat="50.944344978779554" lon="4.785510236397386">
        <ele>17.010000000000002</ele>
        <time>2022-05-26T11:33:42Z</time>
      </trkpt>
      <trkpt lat="50.944404574111104" lon="4.785256013274193">
        <ele>16.949999999999999</ele>
        <time>2022-05-26T11:33:53Z</time>
      </trkpt>
      <trkpt lat="50.944410525262356" lon="4.78523732163012">
        <ele>16.949999999999999</ele>
        <time>2022-05-26T11:33:54Z</time>
      </trkpt>
      <trkpt lat="50.944417817518115" lon="4.785220557823777">
        <ele>16.93</ele>
        <time>2022-05-26T11:33:55Z</time>
      </trkpt>
      <trkpt lat="50.94442586414516" lon="4.785205135121942">
        <ele>16.93</ele>
        <time>2022-05-26T11:33:56Z</time>
      </trkpt>
      <trkpt lat="50.944433156400919" lon="4.785184180364013">
        <ele>16.920000000000002</ele>
        <time>2022-05-26T11:33:57Z</time>
      </trkpt>
      <trkpt lat="50.944442208856344" lon="4.785162387415767">
        <ele>16.91</ele>
        <time>2022-05-26T11:33:58Z</time>
      </trkpt>
      <trkpt lat="50.94445176422596" lon="4.785137576982379">
        <ele>16.899999999999999</ele>
        <time>2022-05-26T11:33:59Z</time>
      </trkpt>
      <trkpt lat="50.944460900500417" lon="4.785113520920277">
        <ele>16.890000000000001</ele>
        <time>2022-05-26T11:34:00Z</time>
      </trkpt>
      <trkpt lat="50.944540780037642" lon="4.784822501242161">
        <ele>16.699999999999999</ele>
        <time>2022-05-26T11:34:13Z</time>
      </trkpt>
      <trkpt lat="50.944575984030962" lon="4.784696437418461">
        <ele>16.66</ele>
        <time>2022-05-26T11:34:18Z</time>
      </trkpt>
      <trkpt lat="50.944583276286721" lon="4.784672884270549">
        <ele>16.640000000000001</ele>
        <time>2022-05-26T11:34:19Z</time>
      </trkpt>
      <trkpt lat="50.944589981809258" lon="4.784646229818463">
        <ele>16.640000000000001</ele>
        <time>2022-05-26T11:34:20Z</time>
      </trkpt>
      <trkpt lat="50.944590819999576" lon="4.784618737176061">
        <ele>16.629999999999999</ele>
        <time>2022-05-26T11:34:21Z</time>
      </trkpt>
      <trkpt lat="50.944591909646988" lon="4.784596441313624">
        <ele>16.609999999999999</ele>
        <time>2022-05-26T11:34:22Z</time>
      </trkpt>
      <trkpt lat="50.944592831656337" lon="4.784573055803776">
        <ele>16.59</ele>
        <time>2022-05-26T11:34:23Z</time>
      </trkpt>
      <trkpt lat="50.944591155275702" lon="4.784546485170722">
        <ele>16.57</ele>
        <time>2022-05-26T11:34:24Z</time>
      </trkpt>
      <trkpt lat="50.944590903818607" lon="4.784518321976066">
        <ele>16.57</ele>
        <time>2022-05-26T11:34:25Z</time>
      </trkpt>
      <trkpt lat="50.944591825827956" lon="4.784494265913963">
        <ele>16.550000000000001</ele>
        <time>2022-05-26T11:34:26Z</time>
      </trkpt>
      <trkpt lat="50.944587215781212" lon="4.784465683624148">
        <ele>16.539999999999999</ele>
        <time>2022-05-26T11:34:27Z</time>
      </trkpt>
      <trkpt lat="50.944585287943482" lon="4.784437520429492">
        <ele>16.52</ele>
        <time>2022-05-26T11:34:28Z</time>
      </trkpt>
      <trkpt lat="50.944579923525453" lon="4.784415056928992">
        <ele>16.510000000000002</ele>
        <time>2022-05-26T11:34:29Z</time>
      </trkpt>
      <trkpt lat="50.944573804736137" lon="4.784392761066556">
        <ele>16.489999999999998</ele>
        <time>2022-05-26T11:34:30Z</time>
      </trkpt>
      <trkpt lat="50.944573888555169" lon="4.784369962289929">
        <ele>16.489999999999998</ele>
        <time>2022-05-26T11:34:31Z</time>
      </trkpt>
      <trkpt lat="50.944575313478708" lon="4.784347750246525">
        <ele>16.469999999999999</ele>
        <time>2022-05-26T11:34:32Z</time>
      </trkpt>
      <trkpt lat="50.94457539729774" lon="4.784326208755374">
        <ele>16.460000000000001</ele>
        <time>2022-05-26T11:34:33Z</time>
      </trkpt>
      <trkpt lat="50.944577073678374" lon="4.784298716112971">
        <ele>16.43</ele>
        <time>2022-05-26T11:34:34Z</time>
      </trkpt>
      <trkpt lat="50.944576486945152" lon="4.784270888194442">
        <ele>16.420000000000002</ele>
        <time>2022-05-26T11:34:35Z</time>
      </trkpt>
      <trkpt lat="50.944572798907757" lon="4.784245993942022">
        <ele>16.399999999999999</ele>
        <time>2022-05-26T11:34:36Z</time>
      </trkpt>
      <trkpt lat="50.944562321528792" lon="4.784168628975749">
        <ele>16.370000000000001</ele>
        <time>2022-05-26T11:34:39Z</time>
      </trkpt>
      <trkpt lat="50.94456173479557" lon="4.78414130397141">
        <ele>16.379999999999999</ele>
        <time>2022-05-26T11:34:40Z</time>
      </trkpt>
      <trkpt lat="50.944565422832966" lon="4.78402990847826">
        <ele>18.57</ele>
        <time>2022-05-26T11:34:45Z</time>
      </trkpt>
      <trkpt lat="50.94455586746335" lon="4.783942066133022">
        <ele>18.539999999999999</ele>
        <time>2022-05-26T11:34:48Z</time>
      </trkpt>
      <trkpt lat="50.944552849978209" lon="4.783914154395461">
        <ele>18.530000000000001</ele>
        <time>2022-05-26T11:34:49Z</time>
      </trkpt>
      <trkpt lat="50.944537678733468" lon="4.783718436956406">
        <ele>18.460000000000001</ele>
        <time>2022-05-26T11:34:56Z</time>
      </trkpt>
      <trkpt lat="50.944540277123451" lon="4.783696895465255">
        <ele>19.239999999999998</ele>
        <time>2022-05-26T11:34:57Z</time>
      </trkpt>
      <trkpt lat="50.94453533180058" lon="4.783661272376776">
        <ele>19.23</ele>
        <time>2022-05-26T11:34:59Z</time>
      </trkpt>
      <trkpt lat="50.944528710097075" lon="4.783561024814844">
        <ele>19.109999999999999</ele>
        <time>2022-05-26T11:35:04Z</time>
      </trkpt>
      <trkpt lat="50.944523680955172" lon="4.783334042876959">
        <ele>18.98</ele>
        <time>2022-05-26T11:35:15Z</time>
      </trkpt>
      <trkpt lat="50.944529045373201" lon="4.783308729529381">
        <ele>18.969999999999999</ele>
        <time>2022-05-26T11:35:16Z</time>
      </trkpt>
      <trkpt lat="50.944550251588225" lon="4.783146539703012">
        <ele>18.899999999999999</ele>
        <time>2022-05-26T11:35:22Z</time>
      </trkpt>
      <trkpt lat="50.944548575207591" lon="4.783110748976469">
        <ele>18.899999999999999</ele>
        <time>2022-05-26T11:35:23Z</time>
      </trkpt>
      <trkpt lat="50.944547234103084" lon="4.783087782561779">
        <ele>18.879999999999999</ele>
        <time>2022-05-26T11:35:24Z</time>
      </trkpt>
      <trkpt lat="50.94454606063664" lon="4.783051572740078">
        <ele>18.859999999999999</ele>
        <time>2022-05-26T11:35:25Z</time>
      </trkpt>
      <trkpt lat="50.944542372599244" lon="4.783026343211532">
        <ele>18.850000000000001</ele>
        <time>2022-05-26T11:35:26Z</time>
      </trkpt>
      <trkpt lat="50.944536505267024" lon="4.782965155318379">
        <ele>18.82</ele>
        <time>2022-05-26T11:35:29Z</time>
      </trkpt>
      <trkpt lat="50.944535583257675" lon="4.782941685989499">
        <ele>16.539999999999999</ele>
        <time>2022-05-26T11:35:30Z</time>
      </trkpt>
      <trkpt lat="50.944531979039311" lon="4.782922407612205">
        <ele>16.510000000000002</ele>
        <time>2022-05-26T11:35:31Z</time>
      </trkpt>
      <trkpt lat="50.944535080343485" lon="4.78288552723825">
        <ele>16.489999999999998</ele>
        <time>2022-05-26T11:35:33Z</time>
      </trkpt>
      <trkpt lat="50.944505576044321" lon="4.782650247216225">
        <ele>15.539999999999999</ele>
        <time>2022-05-26T11:35:46Z</time>
      </trkpt>
      <trkpt lat="50.944541031494737" lon="4.782273899763823">
        <ele>14.449999999999999</ele>
        <time>2022-05-26T11:36:02Z</time>
      </trkpt>
      <trkpt lat="50.944571625441313" lon="4.78200601413846">
        <ele>14.27</ele>
        <time>2022-05-26T11:36:12Z</time>
      </trkpt>
      <trkpt lat="50.944575062021613" lon="4.781866958364844">
        <ele>14.19</ele>
        <time>2022-05-26T11:36:17Z</time>
      </trkpt>
      <trkpt lat="50.944573385640979" lon="4.781839046627283">
        <ele>14.17</ele>
        <time>2022-05-26T11:36:18Z</time>
      </trkpt>
      <trkpt lat="50.944589814171195" lon="4.781764196231961">
        <ele>13.27</ele>
        <time>2022-05-26T11:36:22Z</time>
      </trkpt>
      <trkpt lat="50.944601967930794" lon="4.781646681949496">
        <ele>13.17</ele>
        <time>2022-05-26T11:36:27Z</time>
      </trkpt>
      <trkpt lat="50.944605991244316" lon="4.781622961163521">
        <ele>13.15</ele>
        <time>2022-05-26T11:36:28Z</time>
      </trkpt>
      <trkpt lat="50.94457883387804" lon="4.781456161290407">
        <ele>12.24</ele>
        <time>2022-05-26T11:36:36Z</time>
      </trkpt>
      <trkpt lat="50.944580677896738" lon="4.781418610364199">
        <ele>12.220000000000001</ele>
        <time>2022-05-26T11:36:37Z</time>
      </trkpt>
      <trkpt lat="50.944572379812598" lon="4.781402181833983">
        <ele>12.199999999999999</ele>
        <time>2022-05-26T11:36:38Z</time>
      </trkpt>
      <trkpt lat="50.944488979876041" lon="4.781331522390246">
        <ele>12.09</ele>
        <time>2022-05-26T11:36:46Z</time>
      </trkpt>
      <trkpt lat="50.944334752857685" lon="4.781261784955859">
        <ele>11.84</ele>
        <time>2022-05-26T11:36:59Z</time>
      </trkpt>
      <trkpt lat="50.944150183349848" lon="4.781270921230316">
        <ele>11.51</ele>
        <time>2022-05-26T11:37:10Z</time>
      </trkpt>
      <trkpt lat="50.943909371271729" lon="4.781263209879398">
        <ele>11.300000000000001</ele>
        <time>2022-05-26T11:37:23Z</time>
      </trkpt>
      <trkpt lat="50.943737290799618" lon="4.781341161578894">
        <ele>10.359999999999999</ele>
        <time>2022-05-26T11:37:35Z</time>
      </trkpt>
      <trkpt lat="50.943470494821668" lon="4.781424561515451">
        <ele>8.380000000000001</ele>
        <time>2022-05-26T11:37:52Z</time>
      </trkpt>
      <trkpt lat="50.943185510113835" lon="4.78152958676219">
        <ele>7.39</ele>
        <time>2022-05-26T11:38:08Z</time>
      </trkpt>
      <trkpt lat="50.9429438598454" lon="4.781646430492401">
        <ele>6.37</ele>
        <time>2022-05-26T11:38:23Z</time>
      </trkpt>
      <trkpt lat="50.942691564559937" lon="4.781716000288725">
        <ele>6.34</ele>
        <time>2022-05-26T11:38:39Z</time>
      </trkpt>
      <trkpt lat="50.942523591220379" lon="4.781752629205585">
        <ele>5.46</ele>
        <time>2022-05-26T11:38:51Z</time>
      </trkpt>
      <trkpt lat="50.942480424419045" lon="4.781751539558172">
        <ele>4.45</ele>
        <time>2022-05-26T11:38:59Z</time>
      </trkpt>
      <trkpt lat="50.942466426640749" lon="4.78175044991076">
        <ele>4.45</ele>
        <time>2022-05-26T11:39:00Z</time>
      </trkpt>
      <trkpt lat="50.942457290366292" lon="4.781740223988891">
        <ele>4.46</ele>
        <time>2022-05-26T11:39:01Z</time>
      </trkpt>
      <trkpt lat="50.942454021424055" lon="4.781722957268357">
        <ele>4.45</ele>
        <time>2022-05-26T11:39:02Z</time>
      </trkpt>
      <trkpt lat="50.942455613985658" lon="4.781703678891063">
        <ele>4.46</ele>
        <time>2022-05-26T11:39:03Z</time>
      </trkpt>
      <trkpt lat="50.942458128556609" lon="4.7816844843328">
        <ele>4.47</ele>
        <time>2022-05-26T11:39:04Z</time>
      </trkpt>
      <trkpt lat="50.942462822422385" lon="4.781663361936808">
        <ele>4.47</ele>
        <time>2022-05-26T11:39:05Z</time>
      </trkpt>
      <trkpt lat="50.942465923726559" lon="4.781639808788896">
        <ele>4.47</ele>
        <time>2022-05-26T11:39:06Z</time>
      </trkpt>
      <trkpt lat="50.942465253174305" lon="4.78161659091711">
        <ele>4.49</ele>
        <time>2022-05-26T11:39:07Z</time>
      </trkpt>
      <trkpt lat="50.942465085536242" lon="4.78159605525434">
        <ele>4.5</ele>
        <time>2022-05-26T11:39:08Z</time>
      </trkpt>
      <trkpt lat="50.942466510459781" lon="4.781575184315443">
        <ele>4.5</ele>
        <time>2022-05-26T11:39:09Z</time>
      </trkpt>
      <trkpt lat="50.942507246509194" lon="4.781329007819295">
        <ele>4.56</ele>
        <time>2022-05-26T11:39:20Z</time>
      </trkpt>
      <trkpt lat="50.9425138682127" lon="4.781306628137827">
        <ele>4.57</ele>
        <time>2022-05-26T11:39:21Z</time>
      </trkpt>
      <trkpt lat="50.942495344206691" lon="4.780924832448363">
        <ele>4.54</ele>
        <time>2022-05-26T11:39:42Z</time>
      </trkpt>
      <trkpt lat="50.942462403327227" lon="4.780670776963234">
        <ele>3.8</ele>
        <time>2022-05-26T11:39:52Z</time>
      </trkpt>
      <trkpt lat="50.942462822422385" lon="4.780644122511149">
        <ele>3.8</ele>
        <time>2022-05-26T11:39:53Z</time>
      </trkpt>
      <trkpt lat="50.942465169355273" lon="4.780616965144873">
        <ele>3.8</ele>
        <time>2022-05-26T11:39:54Z</time>
      </trkpt>
      <trkpt lat="50.94250749796629" lon="4.780236510559917">
        <ele>3.78</ele>
        <time>2022-05-26T11:40:10Z</time>
      </trkpt>
      <trkpt lat="50.94252560287714" lon="4.78004171513021">
        <ele>3.8</ele>
        <time>2022-05-26T11:40:19Z</time>
      </trkpt>
      <trkpt lat="50.942514454945922" lon="4.780022855848074">
        <ele>3.79</ele>
        <time>2022-05-26T11:40:20Z</time>
      </trkpt>
      <trkpt lat="50.942488051950932" lon="4.780004499480128">
        <ele>3.79</ele>
        <time>2022-05-26T11:40:22Z</time>
      </trkpt>
      <trkpt lat="50.942241456359625" lon="4.779981700703502">
        <ele>3.74</ele>
        <time>2022-05-26T11:40:37Z</time>
      </trkpt>
      <trkpt lat="50.942002655938268" lon="4.779984131455421">
        <ele>3.73</ele>
        <time>2022-05-26T11:40:52Z</time>
      </trkpt>
      <trkpt lat="50.941712222993374" lon="4.77995278313756">
        <ele>3.06</ele>
        <time>2022-05-26T11:41:11Z</time>
      </trkpt>
      <trkpt lat="50.941512733697891" lon="4.77994984947145">
        <ele>3.1</ele>
        <time>2022-05-26T11:41:24Z</time>
      </trkpt>
      <trkpt lat="50.941497730091214" lon="4.779932415112853">
        <ele>3.12</ele>
        <time>2022-05-26T11:41:26Z</time>
      </trkpt>
      <trkpt lat="50.941513739526272" lon="4.77976318448782">
        <ele>3.16</ele>
        <time>2022-05-26T11:41:35Z</time>
      </trkpt>
      <trkpt lat="50.941487839445472" lon="4.77943679317832">
        <ele>3.19</ele>
        <time>2022-05-26T11:41:48Z</time>
      </trkpt>
      <trkpt lat="50.941482307389379" lon="4.779413994401693">
        <ele>3.19</ele>
        <time>2022-05-26T11:41:49Z</time>
      </trkpt>
      <trkpt lat="50.941470991820097" lon="4.779306370764971">
        <ele>2.4</ele>
        <time>2022-05-26T11:41:54Z</time>
      </trkpt>
      <trkpt lat="50.94148431904614" lon="4.778920887038112">
        <ele>2.39</ele>
        <time>2022-05-26T11:42:10Z</time>
      </trkpt>
      <trkpt lat="50.941484654322267" lon="4.778520232066512">
        <ele>2.4</ele>
        <time>2022-05-26T11:42:27Z</time>
      </trkpt>
      <trkpt lat="50.941526228561997" lon="4.778146147727966">
        <ele>2.46</ele>
        <time>2022-05-26T11:42:43Z</time>
      </trkpt>
      <trkpt lat="50.94153662212193" lon="4.777721017599106">
        <ele>2.52</ele>
        <time>2022-05-26T11:43:01Z</time>
      </trkpt>
      <trkpt lat="50.941593116149306" lon="4.777344753965735">
        <ele>2.63</ele>
        <time>2022-05-26T11:43:17Z</time>
      </trkpt>
      <trkpt lat="50.941626392304897" lon="4.777006627991796">
        <ele>2.66</ele>
        <time>2022-05-26T11:43:31Z</time>
      </trkpt>
      <trkpt lat="50.94167098402977" lon="4.776616785675287">
        <ele>2.77</ele>
        <time>2022-05-26T11:43:47Z</time>
      </trkpt>
      <trkpt lat="50.941670145839453" lon="4.776545455679297">
        <ele>2.78</ele>
        <time>2022-05-26T11:43:50Z</time>
      </trkpt>
      <trkpt lat="50.941667966544628" lon="4.776447722688317">
        <ele>2.79</ele>
        <time>2022-05-26T11:43:54Z</time>
      </trkpt>
      <trkpt lat="50.941601162776351" lon="4.77612535469234">
        <ele>2.84</ele>
        <time>2022-05-26T11:44:08Z</time>
      </trkpt>
      <trkpt lat="50.941499741747975" lon="4.775819331407547">
        <ele>2.91</ele>
        <time>2022-05-26T11:44:23Z</time>
      </trkpt>
      <trkpt lat="50.941465543583035" lon="4.775697039440274">
        <ele>2.9</ele>
        <time>2022-05-26T11:44:30Z</time>
      </trkpt>
      <trkpt lat="50.94134802930057" lon="4.775391016155481">
        <ele>2.87</ele>
        <time>2022-05-26T11:44:45Z</time>
      </trkpt>
      <trkpt lat="50.941216852515936" lon="4.775047861039639">
        <ele>1.96</ele>
        <time>2022-05-26T11:45:00Z</time>
      </trkpt>
      <trkpt lat="50.941092381253839" lon="4.774719877168536">
        <ele>1.94</ele>
        <time>2022-05-26T11:45:18Z</time>
      </trkpt>
      <trkpt lat="50.940981488674879" lon="4.774466073140502">
        <ele>1.92</ele>
        <time>2022-05-26T11:45:33Z</time>
      </trkpt>
      <trkpt lat="50.940835559740663" lon="4.774169018492103">
        <ele>1.91</ele>
        <time>2022-05-26T11:45:49Z</time>
      </trkpt>
      <trkpt lat="50.940678734332323" lon="4.774024849757552">
        <ele>1.92</ele>
        <time>2022-05-26T11:46:03Z</time>
      </trkpt>
      <trkpt lat="50.940421829000115" lon="4.773996267467737">
        <ele>1.91</ele>
        <time>2022-05-26T11:46:20Z</time>
      </trkpt>
      <trkpt lat="50.940168276429176" lon="4.773989981040359">
        <ele>1.91</ele>
        <time>2022-05-26T11:46:36Z</time>
      </trkpt>
      <trkpt lat="50.93993685208261" lon="4.773966427892447">
        <ele>1.94</ele>
        <time>2022-05-26T11:46:52Z</time>
      </trkpt>
      <trkpt lat="50.939718503504992" lon="4.773929044604302">
        <ele>1.97</ele>
        <time>2022-05-26T11:47:06Z</time>
      </trkpt>
      <trkpt lat="50.939490515738726" lon="4.773896858096123">
        <ele>1.99</ele>
        <time>2022-05-26T11:47:21Z</time>
      </trkpt>
      <trkpt lat="50.93924542888999" lon="4.773855535313487">
        <ele>2.01</ele>
        <time>2022-05-26T11:47:37Z</time>
      </trkpt>
      <trkpt lat="50.939010148867965" lon="4.773848662152886">
        <ele>2.03</ele>
        <time>2022-05-26T11:47:52Z</time>
      </trkpt>
      <trkpt lat="50.938803954049945" lon="4.773828377947211">
        <ele>2.02</ele>
        <time>2022-05-26T11:48:06Z</time>
      </trkpt>
      <trkpt lat="50.938587030395865" lon="4.773737182840705">
        <ele>2.03</ele>
        <time>2022-05-26T11:48:22Z</time>
      </trkpt>
      <trkpt lat="50.938448309898376" lon="4.773704241961241">
        <ele>0.56</ele>
        <time>2022-05-26T11:48:30Z</time>
      </trkpt>
      <trkpt lat="50.938352672383189" lon="4.77357180789113">
        <ele>2.92</ele>
        <time>2022-05-26T11:48:39Z</time>
      </trkpt>
      <trkpt lat="50.938356947153807" lon="4.773201830685139">
        <ele>2.88</ele>
        <time>2022-05-26T11:48:54Z</time>
      </trkpt>
      <trkpt lat="50.938354851678014" lon="4.772999240085483">
        <ele>3.72</ele>
        <time>2022-05-26T11:49:02Z</time>
      </trkpt>
      <trkpt lat="50.938134491443634" lon="4.771790904924274">
        <ele>3.8</ele>
        <time>2022-05-26T11:49:36Z</time>
      </trkpt>
      <trkpt lat="50.938071627169847" lon="4.771235939115286">
        <ele>3.84</ele>
        <time>2022-05-26T11:49:47Z</time>
      </trkpt>
      <trkpt lat="50.938087552785873" lon="4.770693378522992">
        <ele>3.87</ele>
        <time>2022-05-26T11:49:58Z</time>
      </trkpt>
      <trkpt lat="50.938092079013586" lon="4.770361706614494">
        <ele>1.23</ele>
        <time>2022-05-26T11:50:04Z</time>
      </trkpt>
      <trkpt lat="50.938142789527774" lon="4.770026849582791">
        <ele>1.24</ele>
        <time>2022-05-26T11:50:11Z</time>
      </trkpt>
      <trkpt lat="50.938151255249977" lon="4.769979156553745">
        <ele>1.24</ele>
        <time>2022-05-26T11:50:12Z</time>
      </trkpt>
      <trkpt lat="50.93816164880991" lon="4.769926937296987">
        <ele>1.24</ele>
        <time>2022-05-26T11:50:13Z</time>
      </trkpt>
      <trkpt lat="50.938241025432944" lon="4.769438020884991">
        <ele>1.24</ele>
        <time>2022-05-26T11:50:23Z</time>
      </trkpt>
      <trkpt lat="50.938311768695712" lon="4.768890431150794">
        <ele>1.21</ele>
        <time>2022-05-26T11:50:34Z</time>
      </trkpt>
      <trkpt lat="50.938392570242286" lon="4.768383912742138">
        <ele>1.22</ele>
        <time>2022-05-26T11:50:45Z</time>
      </trkpt>
      <trkpt lat="50.938461720943451" lon="4.768006894737482">
        <ele>1.19</ele>
        <time>2022-05-26T11:50:55Z</time>
      </trkpt>
      <trkpt lat="50.938522908836603" lon="4.767648316919804">
        <ele>1.14</ele>
        <time>2022-05-26T11:51:07Z</time>
      </trkpt>
      <trkpt lat="50.938541600480676" lon="4.767624847590923">
        <ele>1.14</ele>
        <time>2022-05-26T11:51:08Z</time>
      </trkpt>
      <trkpt lat="50.938555933535099" lon="4.767599534243345">
        <ele>1.13</ele>
        <time>2022-05-26T11:51:09Z</time>
      </trkpt>
      <trkpt lat="50.938563477247953" lon="4.76757631637156">
        <ele>1.12</ele>
        <time>2022-05-26T11:51:10Z</time>
      </trkpt>
      <trkpt lat="50.938570098951459" lon="4.767554104328156">
        <ele>1.12</ele>
        <time>2022-05-26T11:51:11Z</time>
      </trkpt>
      <trkpt lat="50.938575798645616" lon="4.766657659783959">
        <ele>0.08</ele>
        <time>2022-05-26T11:52:06Z</time>
      </trkpt>
      <trkpt lat="50.938611840829253" lon="4.765955088660121">
        <ele>-0.13</ele>
        <time>2022-05-26T11:52:33Z</time>
      </trkpt>
      <trkpt lat="50.938625084236264" lon="4.765925668179989">
        <ele>-0.14</ele>
        <time>2022-05-26T11:52:34Z</time>
      </trkpt>
      <trkpt lat="50.938639584928751" lon="4.765892224386334">
        <ele>-0.14</ele>
        <time>2022-05-26T11:52:35Z</time>
      </trkpt>
      <trkpt lat="50.93864981085062" lon="4.765844447538257">
        <ele>-0.16</ele>
        <time>2022-05-26T11:52:36Z</time>
      </trkpt>
      <trkpt lat="50.938653582707047" lon="4.765806896612048">
        <ele>-0.17</ele>
        <time>2022-05-26T11:52:37Z</time>
      </trkpt>
      <trkpt lat="50.93868057243526" lon="4.765282440930605">
        <ele>-0.32</ele>
        <time>2022-05-26T11:52:54Z</time>
      </trkpt>
      <trkpt lat="50.938687780871987" lon="4.7648492641747">
        <ele>-0.43</ele>
        <time>2022-05-26T11:53:09Z</time>
      </trkpt>
      <trkpt lat="50.938663557171822" lon="4.764521447941661">
        <ele>-0.49</ele>
        <time>2022-05-26T11:53:23Z</time>
      </trkpt>
      <trkpt lat="50.93867470510304" lon="4.763609413057566">
        <ele>-0.62</ele>
        <time>2022-05-26T11:54:01Z</time>
      </trkpt>
      <trkpt lat="50.93865710310638" lon="4.763408750295639">
        <ele>-0.64</ele>
        <time>2022-05-26T11:54:11Z</time>
      </trkpt>
      <trkpt lat="50.938645033165812" lon="4.763345131650567">
        <ele>-0.66</ele>
        <time>2022-05-26T11:54:14Z</time>
      </trkpt>
      <trkpt lat="50.938638662919402" lon="4.763317387551069">
        <ele>-0.67</ele>
        <time>2022-05-26T11:54:15Z</time>
      </trkpt>
      <trkpt lat="50.938631454482675" lon="4.763290649279952">
        <ele>-0.67</ele>
        <time>2022-05-26T11:54:16Z</time>
      </trkpt>
      <trkpt lat="50.938625419512391" lon="4.763262988999486">
        <ele>-0.66</ele>
        <time>2022-05-26T11:54:17Z</time>
      </trkpt>
      <trkpt lat="50.938595412299037" lon="4.763139272108674">
        <ele>-0.68</ele>
        <time>2022-05-26T11:54:23Z</time>
      </trkpt>
      <trkpt lat="50.938592227175832" lon="4.763117479160428">
        <ele>-0.69</ele>
        <time>2022-05-26T11:54:24Z</time>
      </trkpt>
      <trkpt lat="50.938579067587852" lon="4.763084286823869">
        <ele>-0.69</ele>
        <time>2022-05-26T11:54:26Z</time>
      </trkpt>
      <trkpt lat="50.938576133921742" lon="4.763059224933386">
        <ele>-0.7</ele>
        <time>2022-05-26T11:54:27Z</time>
      </trkpt>
      <trkpt lat="50.938569093123078" lon="4.763034833595157">
        <ele>-0.72</ele>
        <time>2022-05-26T11:54:28Z</time>
      </trkpt>
      <trkpt lat="50.938561046496034" lon="4.763016141951084">
        <ele>-0.73</ele>
        <time>2022-05-26T11:54:29Z</time>
      </trkpt>
      <trkpt lat="50.938557861372828" lon="4.762993762269616">
        <ele>-0.72</ele>
        <time>2022-05-26T11:54:30Z</time>
      </trkpt>
      <trkpt lat="50.93854964710772" lon="4.762950679287314">
        <ele>-0.73</ele>
        <time>2022-05-26T11:54:32Z</time>
      </trkpt>
      <trkpt lat="50.938546881079674" lon="4.762932742014527">
        <ele>-0.74</ele>
        <time>2022-05-26T11:54:33Z</time>
      </trkpt>
      <trkpt lat="50.938441855832934" lon="4.762741466984153">
        <ele>-0.83</ele>
        <time>2022-05-26T11:54:46Z</time>
      </trkpt>
      <trkpt lat="50.938420733436942" lon="4.762705843895674">
        <ele>-0.84</ele>
        <time>2022-05-26T11:54:48Z</time>
      </trkpt>
      <trkpt lat="50.938406400382519" lon="4.762684218585491">
        <ele>-0.86</ele>
        <time>2022-05-26T11:54:49Z</time>
      </trkpt>
      <trkpt lat="50.938311936333776" lon="4.762359084561467">
        <ele>-0.94</ele>
        <time>2022-05-26T11:55:00Z</time>
      </trkpt>
      <trkpt lat="50.938210180029273" lon="4.762055743485689">
        <ele>-1.03</ele>
        <time>2022-05-26T11:55:12Z</time>
      </trkpt>
      <trkpt lat="50.938148405402899" lon="4.761917944997549">
        <ele>-1.09</ele>
        <time>2022-05-26T11:55:19Z</time>
      </trkpt>
      <trkpt lat="50.938067687675357" lon="4.761595409363508">
        <ele>-1.18</ele>
        <time>2022-05-26T11:55:32Z</time>
      </trkpt>
      <trkpt lat="50.938007086515427" lon="4.761274131014943">
        <ele>-1.31</ele>
        <time>2022-05-26T11:55:48Z</time>
      </trkpt>
      <trkpt lat="50.937974313274026" lon="4.760917648673058">
        <ele>-1.48</ele>
        <time>2022-05-26T11:56:05Z</time>
      </trkpt>
      <trkpt lat="50.937950341030955" lon="4.760728720575571">
        <ele>-1.62</ele>
        <time>2022-05-26T11:56:16Z</time>
      </trkpt>
      <trkpt lat="50.937935505062342" lon="4.760619839653373">
        <ele>-1.69</ele>
        <time>2022-05-26T11:56:22Z</time>
      </trkpt>
      <trkpt lat="50.937947072088718" lon="4.760516658425331">
        <ele>-1.71</ele>
        <time>2022-05-26T11:56:25Z</time>
      </trkpt>
      <trkpt lat="50.937957465648651" lon="4.760475335642695">
        <ele>-1.73</ele>
        <time>2022-05-26T11:56:26Z</time>
      </trkpt>
      <trkpt lat="50.937954531982541" lon="4.760432587936521">
        <ele>-1.74</ele>
        <time>2022-05-26T11:56:27Z</time>
      </trkpt>
      <trkpt lat="50.937877669930458" lon="4.760080715641379">
        <ele>-1.94</ele>
        <time>2022-05-26T11:56:42Z</time>
      </trkpt>
      <trkpt lat="50.937873646616936" lon="4.760061353445053">
        <ele>-1.96</ele>
        <time>2022-05-26T11:56:43Z</time>
      </trkpt>
      <trkpt lat="50.937870629131794" lon="4.760039979591966">
        <ele>-1.97</ele>
        <time>2022-05-26T11:56:44Z</time>
      </trkpt>
      <trkpt lat="50.937785971909761" lon="4.759665979072452">
        <ele>-2.19</ele>
        <time>2022-05-26T11:57:00Z</time>
      </trkpt>
      <trkpt lat="50.937824528664351" lon="4.759560115635395">
        <ele>-2.31</ele>
        <time>2022-05-26T11:57:07Z</time>
      </trkpt>
      <trkpt lat="50.937835089862347" lon="4.759513176977634">
        <ele>-2.34</ele>
        <time>2022-05-26T11:57:09Z</time>
      </trkpt>
      <trkpt lat="50.937871383503079" lon="4.758444484323263">
        <ele>-2.83</ele>
        <time>2022-05-26T11:57:46Z</time>
      </trkpt>
      <trkpt lat="50.937877837568521" lon="4.758132258430123">
        <ele>-4.03</ele>
        <time>2022-05-26T11:57:57Z</time>
      </trkpt>
      <trkpt lat="50.937889404594898" lon="4.757683239877224">
        <ele>-4.06</ele>
        <time>2022-05-26T11:58:13Z</time>
      </trkpt>
      <trkpt lat="50.93775562942028" lon="4.757358273491263">
        <ele>-4.02</ele>
        <time>2022-05-26T11:58:27Z</time>
      </trkpt>
      <trkpt lat="50.937716737389565" lon="4.757300522178412">
        <ele>-3.94</ele>
        <time>2022-05-26T11:58:43Z</time>
      </trkpt>
      <trkpt lat="50.937700560316443" lon="4.75727453827858">
        <ele>-3.83</ele>
        <time>2022-05-26T11:59:02Z</time>
      </trkpt>
      <trkpt lat="50.937581034377217" lon="4.757044287398458">
        <ele>-3.76</ele>
        <time>2022-05-26T11:59:16Z</time>
      </trkpt>
      <trkpt lat="50.93744826503098" lon="4.756833147257567">
        <ele>-3.69</ele>
        <time>2022-05-26T11:59:29Z</time>
      </trkpt>
      <trkpt lat="50.937310634180903" lon="4.756674645468593">
        <ele>-3.65</ele>
        <time>2022-05-26T11:59:41Z</time>
      </trkpt>
      <trkpt lat="50.937251709401608" lon="4.756594933569431">
        <ele>-3.63</ele>
        <time>2022-05-26T11:59:46Z</time>
      </trkpt>
      <trkpt lat="50.937245506793261" lon="4.756575236096978">
        <ele>-3.63</ele>
        <time>2022-05-26T11:59:47Z</time>
      </trkpt>
      <trkpt lat="50.937205776572227" lon="4.756403993815184">
        <ele>-3.6</ele>
        <time>2022-05-26T12:00:00Z</time>
      </trkpt>
      <trkpt lat="50.937068313360214" lon="4.756158236414194">
        <ele>-3.63</ele>
        <time>2022-05-26T12:00:16Z</time>
      </trkpt>
      <trkpt lat="50.93695817515254" lon="4.755884231999517">
        <ele>-3.7</ele>
        <time>2022-05-26T12:00:30Z</time>
      </trkpt>
      <trkpt lat="50.936964377760887" lon="4.755736626684666">
        <ele>-3.75</ele>
        <time>2022-05-26T12:00:36Z</time>
      </trkpt>
      <trkpt lat="50.936943087726831" lon="4.755672672763467">
        <ele>-3.76</ele>
        <time>2022-05-26T12:00:38Z</time>
      </trkpt>
      <trkpt lat="50.936813754960895" lon="4.755191802978516">
        <ele>-1.79</ele>
        <time>2022-05-26T12:01:05Z</time>
      </trkpt>
      <trkpt lat="50.936583755537868" lon="4.755307054147124">
        <ele>-1.97</ele>
        <time>2022-05-26T12:01:17Z</time>
      </trkpt>
      <trkpt lat="50.93640505336225" lon="4.755375618115068">
        <ele>-2.17</ele>
        <time>2022-05-26T12:01:30Z</time>
      </trkpt>
      <trkpt lat="50.936212772503495" lon="4.75546220317483">
        <ele>-2.38</ele>
        <time>2022-05-26T12:01:42Z</time>
      </trkpt>
      <trkpt lat="50.936027783900499" lon="4.755524732172489">
        <ele>-2.62</ele>
        <time>2022-05-26T12:01:55Z</time>
      </trkpt>
      <trkpt lat="50.936009176075459" lon="4.755537556484342">
        <ele>-2.66</ele>
        <time>2022-05-26T12:01:57Z</time>
      </trkpt>
      <trkpt lat="50.935962740331888" lon="4.755557924509049">
        <ele>-2.72</ele>
        <time>2022-05-26T12:02:00Z</time>
      </trkpt>
      <trkpt lat="50.935854278504848" lon="4.755586255341768">
        <ele>-2.85</ele>
        <time>2022-05-26T12:02:07Z</time>
      </trkpt>
      <trkpt lat="50.935688735917211" lon="4.755723048001528">
        <ele>-3.07</ele>
        <time>2022-05-26T12:02:19Z</time>
      </trkpt>
      <trkpt lat="50.93550936318934" lon="4.755794042721391">
        <ele>-3.38</ele>
        <time>2022-05-26T12:02:35Z</time>
      </trkpt>
      <trkpt lat="50.935227731242776" lon="4.755916837602854">
        <ele>-3.82</ele>
        <time>2022-05-26T12:02:56Z</time>
      </trkpt>
      <trkpt lat="50.935104936361313" lon="4.755963021889329">
        <ele>-4.01</ele>
        <time>2022-05-26T12:03:05Z</time>
      </trkpt>
      <trkpt lat="50.934894718229771" lon="4.756131917238236">
        <ele>-4.28</ele>
        <time>2022-05-26T12:03:18Z</time>
      </trkpt>
      <trkpt lat="50.93461912125349" lon="4.75627482868731">
        <ele>-4.53</ele>
        <time>2022-05-26T12:03:31Z</time>
      </trkpt>
      <trkpt lat="50.934418374672532" lon="4.756425954401493">
        <ele>-4.61</ele>
        <time>2022-05-26T12:03:36Z</time>
      </trkpt>
      <trkpt lat="50.933669116348028" lon="4.756910093128681">
        <ele>-4.74</ele>
        <time>2022-05-26T12:03:50Z</time>
      </trkpt>
      <trkpt lat="50.933387316763401" lon="4.757130201905966">
        <ele>-4.76</ele>
        <time>2022-05-26T12:03:59Z</time>
      </trkpt>
      <trkpt lat="50.933221857994795" lon="4.757252745330334">
        <ele>-4.72</ele>
        <time>2022-05-26T12:04:12Z</time>
      </trkpt>
      <trkpt lat="50.933176763355732" lon="4.757278310135007">
        <ele>-4.71</ele>
        <time>2022-05-26T12:04:15Z</time>
      </trkpt>
      <trkpt lat="50.933158658444881" lon="4.75728283636272">
        <ele>-4.7</ele>
        <time>2022-05-26T12:04:16Z</time>
      </trkpt>
      <trkpt lat="50.933144744485617" lon="4.757291469722986">
        <ele>-4.69</ele>
        <time>2022-05-26T12:04:17Z</time>
      </trkpt>
      <trkpt lat="50.93305598013103" lon="4.757316196337342">
        <ele>-4.63</ele>
        <time>2022-05-26T12:04:31Z</time>
      </trkpt>
      <trkpt lat="50.932800164446235" lon="4.757438153028488">
        <ele>-4.58</ele>
        <time>2022-05-26T12:04:41Z</time>
      </trkpt>
      <trkpt lat="50.932673094794154" lon="4.757531108334661">
        <ele>-4.58</ele>
        <time>2022-05-26T12:04:44Z</time>
      </trkpt>
      <trkpt lat="50.932622887194157" lon="4.757570084184408">
        <ele>-4.58</ele>
        <time>2022-05-26T12:04:45Z</time>
      </trkpt>
      <trkpt lat="50.932575697079301" lon="4.757603695616126">
        <ele>-4.57</ele>
        <time>2022-05-26T12:04:46Z</time>
      </trkpt>
      <trkpt lat="50.932324575260282" lon="4.75774803198874">
        <ele>-4.55</ele>
        <time>2022-05-26T12:04:51Z</time>
      </trkpt>
      <trkpt lat="50.932277720421553" lon="4.757783655077219">
        <ele>-4.55</ele>
        <time>2022-05-26T12:04:52Z</time>
      </trkpt>
      <trkpt lat="50.932169426232576" lon="4.757886417210102">
        <ele>-4.55</ele>
        <time>2022-05-26T12:04:54Z</time>
      </trkpt>
      <trkpt lat="50.932115279138088" lon="4.757941821590066">
        <ele>-4.56</ele>
        <time>2022-05-26T12:04:55Z</time>
      </trkpt>
      <trkpt lat="50.932062389329076" lon="4.758003344759345">
        <ele>-4.54</ele>
        <time>2022-05-26T12:04:56Z</time>
      </trkpt>
      <trkpt lat="50.931874550879002" lon="4.75823518820107">
        <ele>-6.78</ele>
        <time>2022-05-26T12:05:00Z</time>
      </trkpt>
      <trkpt lat="50.931733064353466" lon="4.758395617827773">
        <ele>-6.77</ele>
        <time>2022-05-26T12:05:03Z</time>
      </trkpt>
      <trkpt lat="50.931646479293704" lon="4.75847901776433">
        <ele>-3.04</ele>
        <time>2022-05-26T12:05:05Z</time>
      </trkpt>
      <trkpt lat="50.931600295007229" lon="4.758494021371007">
        <ele>-3.04</ele>
        <time>2022-05-26T12:05:06Z</time>
      </trkpt>
      <trkpt lat="50.931555787101388" lon="4.758497038856149">
        <ele>-3.05</ele>
        <time>2022-05-26T12:05:07Z</time>
      </trkpt>
      <trkpt lat="50.931517146527767" lon="4.758482035249472">
        <ele>-3.04</ele>
        <time>2022-05-26T12:05:08Z</time>
      </trkpt>
      <trkpt lat="50.931489067152143" lon="4.758452195674181">
        <ele>-3.14</ele>
        <time>2022-05-26T12:05:09Z</time>
      </trkpt>
      <trkpt lat="50.931464927271008" lon="4.758417243137956">
        <ele>-3.1</ele>
        <time>2022-05-26T12:05:10Z</time>
      </trkpt>
      <trkpt lat="50.931442882865667" lon="4.758378183469176">
        <ele>-3.03</ele>
        <time>2022-05-26T12:05:11Z</time>
      </trkpt>
      <trkpt lat="50.93125244602561" lon="4.757991945371032">
        <ele>-2.97</ele>
        <time>2022-05-26T12:05:22Z</time>
      </trkpt>
      <trkpt lat="50.931179858744144" lon="4.757803184911609">
        <ele>-2.91</ele>
        <time>2022-05-26T12:05:33Z</time>
      </trkpt>
      <trkpt lat="50.931173991411924" lon="4.757776446640492">
        <ele>-2.9</ele>
        <time>2022-05-26T12:05:34Z</time>
      </trkpt>
      <trkpt lat="50.931083802133799" lon="4.757545692846179">
        <ele>-2.83</ele>
        <time>2022-05-26T12:05:46Z</time>
      </trkpt>
      <trkpt lat="50.930952122434974" lon="4.757321225479245">
        <ele>-2.72</ele>
        <time>2022-05-26T12:05:59Z</time>
      </trkpt>
      <trkpt lat="50.930752800777555" lon="4.757075970992446">
        <ele>-2.63</ele>
        <time>2022-05-26T12:06:15Z</time>
      </trkpt>
      <trkpt lat="50.930575020611286" lon="4.757032217457891">
        <ele>-2.6</ele>
        <time>2022-05-26T12:06:28Z</time>
      </trkpt>
      <trkpt lat="50.930433869361877" lon="4.756862483918667">
        <ele>-2.54</ele>
        <time>2022-05-26T12:06:43Z</time>
      </trkpt>
      <trkpt lat="50.930398916825652" lon="4.756459482014179">
        <ele>-2.57</ele>
        <time>2022-05-26T12:06:59Z</time>
      </trkpt>
      <trkpt lat="50.930426996201277" lon="4.756147926673293">
        <ele>-2.6</ele>
        <time>2022-05-26T12:07:13Z</time>
      </trkpt>
      <trkpt lat="50.930417440831661" lon="4.756133677437902">
        <ele>-2.6</ele>
        <time>2022-05-26T12:07:14Z</time>
      </trkpt>
      <trkpt lat="50.930408891290426" lon="4.756115740165114">
        <ele>-2.58</ele>
        <time>2022-05-26T12:07:15Z</time>
      </trkpt>
      <trkpt lat="50.93019163236022" lon="4.755813404917717">
        <ele>-2.63</ele>
        <time>2022-05-26T12:07:33Z</time>
      </trkpt>
      <trkpt lat="50.929921567440033" lon="4.755564462393522">
        <ele>-2.6</ele>
        <time>2022-05-26T12:07:49Z</time>
      </trkpt>
      <trkpt lat="50.929719731211662" lon="4.755652891471982">
        <ele>-2.54</ele>
        <time>2022-05-26T12:08:03Z</time>
      </trkpt>
      <trkpt lat="50.9296780731529" lon="4.755664290860295">
        <ele>-2.53</ele>
        <time>2022-05-26T12:08:06Z</time>
      </trkpt>
      <trkpt lat="50.92966390773654" lon="4.755664207041264">
        <ele>-2.53</ele>
        <time>2022-05-26T12:08:07Z</time>
      </trkpt>
      <trkpt lat="50.929648233577609" lon="4.755667643621564">
        <ele>-2.54</ele>
        <time>2022-05-26T12:08:08Z</time>
      </trkpt>
      <trkpt lat="50.92963214032352" lon="4.755673930048943">
        <ele>-2.53</ele>
        <time>2022-05-26T12:08:09Z</time>
      </trkpt>
      <trkpt lat="50.929616969078779" lon="4.75568113848567">
        <ele>-2.54</ele>
        <time>2022-05-26T12:08:10Z</time>
      </trkpt>
      <trkpt lat="50.929601965472102" lon="4.755686670541763">
        <ele>-2.54</ele>
        <time>2022-05-26T12:08:11Z</time>
      </trkpt>
      <trkpt lat="50.929388981312513" lon="4.75579840131104">
        <ele>-2.41</ele>
        <time>2022-05-26T12:08:26Z</time>
      </trkpt>
      <trkpt lat="50.929157556965947" lon="4.755930248647928">
        <ele>-2.32</ele>
        <time>2022-05-26T12:08:43Z</time>
      </trkpt>
      <trkpt lat="50.92900525778532" lon="4.756043320521712">
        <ele>-2.15</ele>
        <time>2022-05-26T12:09:00Z</time>
      </trkpt>
      <trkpt lat="50.929003413766623" lon="4.756029490381479">
        <ele>-1.27</ele>
        <time>2022-05-26T12:09:28Z</time>
      </trkpt>
      <trkpt lat="50.929000815376639" lon="4.756030915305018">
        <ele>-1.1</ele>
        <time>2022-05-26T12:09:56Z</time>
      </trkpt>
      <trkpt lat="50.928821358829737" lon="4.756146501749754">
        <ele>-1.02</ele>
        <time>2022-05-26T12:10:12Z</time>
      </trkpt>
      <trkpt lat="50.928546516224742" lon="4.756398042663932">
        <ele>-0.85</ele>
        <time>2022-05-26T12:10:33Z</time>
      </trkpt>
      <trkpt lat="50.928413830697536" lon="4.756580349057913">
        <ele>-0.77</ele>
        <time>2022-05-26T12:10:46Z</time>
      </trkpt>
      <trkpt lat="50.928248791024089" lon="4.756909590214491">
        <ele>-0.66</ele>
        <time>2022-05-26T12:11:04Z</time>
      </trkpt>
      <trkpt lat="50.92818969860673" lon="4.75715140812099">
        <ele>-0.52</ele>
        <time>2022-05-26T12:11:17Z</time>
      </trkpt>
      <trkpt lat="50.928109651431441" lon="4.757451647892594">
        <ele>-0.36</ele>
        <time>2022-05-26T12:11:30Z</time>
      </trkpt>
      <trkpt lat="50.92803044244647" lon="4.757728250697255">
        <ele>0.79</ele>
        <time>2022-05-26T12:11:44Z</time>
      </trkpt>
      <trkpt lat="50.927927847951651" lon="4.758047936484218">
        <ele>1.01</ele>
        <time>2022-05-26T12:12:00Z</time>
      </trkpt>
      <trkpt lat="50.927806226536632" lon="4.758335771039128">
        <ele>1.27</ele>
        <time>2022-05-26T12:12:16Z</time>
      </trkpt>
      <trkpt lat="50.927195772528648" lon="4.758751597255468">
        <ele>1.81</ele>
        <time>2022-05-26T12:13:06Z</time>
      </trkpt>
      <trkpt lat="50.924278618767858" lon="4.759518457576633">
        <ele>-112.34999999999999</ele>
        <time>2022-05-26T12:13:11Z</time>
      </trkpt>
      <trkpt lat="50.923932781443" lon="4.758254801854491">
        <ele>1.2</ele>
        <time>2022-05-26T12:21:05Z</time>
      </trkpt>
      <trkpt lat="50.925441943109035" lon="4.757099524140358">
        <ele>3.27</ele>
        <time>2022-05-26T12:21:30Z</time>
      </trkpt>
    </trkseg>
  </trk>

</gpx>